<?xml version="1.0" encoding="UTF-8" standalone="no" ?>
<gpx xmlns="http://www.topografix.com/GPX/1/1" xmlns:xsi="http://www.w3.org/2001/XMLSchema-instance" xsi:schemaLocation="http://www.topografix.com/GPX/1/1 http://www.topografix.com/GPX/1/1/gpx.xsd" version="1.1" creator="VisuGPX - https://www.visugpx.com">
  <metadata>
    <name>VTT XC/AM Grabels</name>
    <desc><![CDATA[Sortie entrainement pause déjeuner autour de Grabels.
Itinéraire "classique" toujours intéressant dans la mesure où l'on va chercher la difficulté dans les cotes et le ludique dans les descentes. Sortie courte donc pas de pause et le plus vite possible (faut sortir de sa zone de confort sur ces petites distances pour s'améliorer). 
]]></desc>
  </metadata>
  <trk>
    <name><![CDATA[VTT XC/AM Grabels_1]]></name>
    <trkseg>
      <trkpt lat="43.63766" lon="3.8284">
        <ele>95.3</ele>
        <time>2017-05-10T10:16:29Z</time>
      </trkpt>
      <trkpt lat="43.63766" lon="3.8284">
        <ele>91.9</ele>
        <time>2017-05-10T10:16:29Z</time>
      </trkpt>
      <trkpt lat="43.63769" lon="3.82859">
        <ele>129.4</ele>
        <time>2017-05-10T10:16:42Z</time>
      </trkpt>
      <trkpt lat="43.63763" lon="3.82861">
        <ele>117.8</ele>
        <time>2017-05-10T10:16:49Z</time>
      </trkpt>
      <trkpt lat="43.6377" lon="3.82845">
        <ele>124</ele>
        <time>2017-05-10T10:18:44Z</time>
      </trkpt>
      <trkpt lat="43.63768" lon="3.82835">
        <ele>124.1</ele>
        <time>2017-05-10T10:18:46Z</time>
      </trkpt>
      <trkpt lat="43.63773" lon="3.82815">
        <ele>124.1</ele>
        <time>2017-05-10T10:18:50Z</time>
      </trkpt>
      <trkpt lat="43.63781" lon="3.82813">
        <ele>124.1</ele>
        <time>2017-05-10T10:18:52Z</time>
      </trkpt>
      <trkpt lat="43.63791" lon="3.82808">
        <ele>123.9</ele>
        <time>2017-05-10T10:18:55Z</time>
      </trkpt>
      <trkpt lat="43.63799" lon="3.82807">
        <ele>123.8</ele>
        <time>2017-05-10T10:18:57Z</time>
      </trkpt>
      <trkpt lat="43.63807" lon="3.82804">
        <ele>123.8</ele>
        <time>2017-05-10T10:18:59Z</time>
      </trkpt>
      <trkpt lat="43.63815" lon="3.828">
        <ele>123.7</ele>
        <time>2017-05-10T10:19:01Z</time>
      </trkpt>
      <trkpt lat="43.63823" lon="3.82797">
        <ele>123.7</ele>
        <time>2017-05-10T10:19:03Z</time>
      </trkpt>
      <trkpt lat="43.63832" lon="3.82797">
        <ele>123.8</ele>
        <time>2017-05-10T10:19:06Z</time>
      </trkpt>
      <trkpt lat="43.63842" lon="3.82796">
        <ele>124.2</ele>
        <time>2017-05-10T10:19:09Z</time>
      </trkpt>
      <trkpt lat="43.63849" lon="3.82793">
        <ele>124.3</ele>
        <time>2017-05-10T10:19:11Z</time>
      </trkpt>
      <trkpt lat="43.63857" lon="3.82788">
        <ele>125.3</ele>
        <time>2017-05-10T10:19:13Z</time>
      </trkpt>
      <trkpt lat="43.63864" lon="3.82782">
        <ele>125.5</ele>
        <time>2017-05-10T10:19:15Z</time>
      </trkpt>
      <trkpt lat="43.63872" lon="3.82774">
        <ele>125.4</ele>
        <time>2017-05-10T10:19:18Z</time>
      </trkpt>
      <trkpt lat="43.63879" lon="3.82774">
        <ele>125.3</ele>
        <time>2017-05-10T10:19:20Z</time>
      </trkpt>
      <trkpt lat="43.63885" lon="3.82785">
        <ele>125.4</ele>
        <time>2017-05-10T10:19:22Z</time>
      </trkpt>
      <trkpt lat="43.6389" lon="3.82796">
        <ele>125.3</ele>
        <time>2017-05-10T10:19:24Z</time>
      </trkpt>
      <trkpt lat="43.63898" lon="3.82802">
        <ele>125.9</ele>
        <time>2017-05-10T10:19:28Z</time>
      </trkpt>
      <trkpt lat="43.63907" lon="3.82806">
        <ele>126.2</ele>
        <time>2017-05-10T10:19:31Z</time>
      </trkpt>
      <trkpt lat="43.63913" lon="3.82812">
        <ele>126.6</ele>
        <time>2017-05-10T10:19:33Z</time>
      </trkpt>
      <trkpt lat="43.63922" lon="3.82819">
        <ele>126.9</ele>
        <time>2017-05-10T10:19:36Z</time>
      </trkpt>
      <trkpt lat="43.6393" lon="3.82816">
        <ele>127</ele>
        <time>2017-05-10T10:19:40Z</time>
      </trkpt>
      <trkpt lat="43.63939" lon="3.82815">
        <ele>126.9</ele>
        <time>2017-05-10T10:19:42Z</time>
      </trkpt>
      <trkpt lat="43.63947" lon="3.8281">
        <ele>126.9</ele>
        <time>2017-05-10T10:19:44Z</time>
      </trkpt>
      <trkpt lat="43.63956" lon="3.82805">
        <ele>126.8</ele>
        <time>2017-05-10T10:19:47Z</time>
      </trkpt>
      <trkpt lat="43.63965" lon="3.82799">
        <ele>126.8</ele>
        <time>2017-05-10T10:19:50Z</time>
      </trkpt>
      <trkpt lat="43.63975" lon="3.82796">
        <ele>127</ele>
        <time>2017-05-10T10:19:53Z</time>
      </trkpt>
      <trkpt lat="43.63983" lon="3.82794">
        <ele>127.2</ele>
        <time>2017-05-10T10:19:55Z</time>
      </trkpt>
      <trkpt lat="43.63994" lon="3.82792">
        <ele>128.3</ele>
        <time>2017-05-10T10:19:57Z</time>
      </trkpt>
      <trkpt lat="43.64003" lon="3.82788">
        <ele>129.5</ele>
        <time>2017-05-10T10:19:59Z</time>
      </trkpt>
      <trkpt lat="43.6401" lon="3.82781">
        <ele>131.1</ele>
        <time>2017-05-10T10:20:01Z</time>
      </trkpt>
      <trkpt lat="43.64015" lon="3.8277">
        <ele>131.1</ele>
        <time>2017-05-10T10:20:04Z</time>
      </trkpt>
      <trkpt lat="43.64025" lon="3.82765">
        <ele>131</ele>
        <time>2017-05-10T10:20:07Z</time>
      </trkpt>
      <trkpt lat="43.64032" lon="3.82762">
        <ele>130.9</ele>
        <time>2017-05-10T10:20:09Z</time>
      </trkpt>
      <trkpt lat="43.64041" lon="3.82754">
        <ele>130.9</ele>
        <time>2017-05-10T10:20:12Z</time>
      </trkpt>
      <trkpt lat="43.64047" lon="3.82748">
        <ele>131</ele>
        <time>2017-05-10T10:20:14Z</time>
      </trkpt>
      <trkpt lat="43.64055" lon="3.82738">
        <ele>131.8</ele>
        <time>2017-05-10T10:20:17Z</time>
      </trkpt>
      <trkpt lat="43.64062" lon="3.8273">
        <ele>131.9</ele>
        <time>2017-05-10T10:20:19Z</time>
      </trkpt>
      <trkpt lat="43.6407" lon="3.82723">
        <ele>132.3</ele>
        <time>2017-05-10T10:20:22Z</time>
      </trkpt>
      <trkpt lat="43.64077" lon="3.82719">
        <ele>132.4</ele>
        <time>2017-05-10T10:20:24Z</time>
      </trkpt>
      <trkpt lat="43.64085" lon="3.82713">
        <ele>132.6</ele>
        <time>2017-05-10T10:20:26Z</time>
      </trkpt>
      <trkpt lat="43.64091" lon="3.82708">
        <ele>132.5</ele>
        <time>2017-05-10T10:20:28Z</time>
      </trkpt>
      <trkpt lat="43.64096" lon="3.82701">
        <ele>132.2</ele>
        <time>2017-05-10T10:20:30Z</time>
      </trkpt>
      <trkpt lat="43.64102" lon="3.82695">
        <ele>132.2</ele>
        <time>2017-05-10T10:20:32Z</time>
      </trkpt>
      <trkpt lat="43.64108" lon="3.82688">
        <ele>132.2</ele>
        <time>2017-05-10T10:20:34Z</time>
      </trkpt>
      <trkpt lat="43.64115" lon="3.82681">
        <ele>132.1</ele>
        <time>2017-05-10T10:20:36Z</time>
      </trkpt>
      <trkpt lat="43.64122" lon="3.82676">
        <ele>132.2</ele>
        <time>2017-05-10T10:20:38Z</time>
      </trkpt>
      <trkpt lat="43.64128" lon="3.82669">
        <ele>133.2</ele>
        <time>2017-05-10T10:20:40Z</time>
      </trkpt>
      <trkpt lat="43.64134" lon="3.82662">
        <ele>133.7</ele>
        <time>2017-05-10T10:20:42Z</time>
      </trkpt>
      <trkpt lat="43.6414" lon="3.82656">
        <ele>134.6</ele>
        <time>2017-05-10T10:20:44Z</time>
      </trkpt>
      <trkpt lat="43.64146" lon="3.82649">
        <ele>134.8</ele>
        <time>2017-05-10T10:20:46Z</time>
      </trkpt>
      <trkpt lat="43.64155" lon="3.82639">
        <ele>135</ele>
        <time>2017-05-10T10:20:49Z</time>
      </trkpt>
      <trkpt lat="43.64161" lon="3.82633">
        <ele>135.7</ele>
        <time>2017-05-10T10:20:51Z</time>
      </trkpt>
      <trkpt lat="43.64168" lon="3.82624">
        <ele>136.6</ele>
        <time>2017-05-10T10:20:53Z</time>
      </trkpt>
      <trkpt lat="43.64173" lon="3.82616">
        <ele>136.7</ele>
        <time>2017-05-10T10:20:55Z</time>
      </trkpt>
      <trkpt lat="43.64179" lon="3.82608">
        <ele>136.7</ele>
        <time>2017-05-10T10:20:57Z</time>
      </trkpt>
      <trkpt lat="43.64184" lon="3.82601">
        <ele>137.5</ele>
        <time>2017-05-10T10:20:59Z</time>
      </trkpt>
      <trkpt lat="43.6419" lon="3.82593">
        <ele>138.7</ele>
        <time>2017-05-10T10:21:01Z</time>
      </trkpt>
      <trkpt lat="43.64195" lon="3.82585">
        <ele>139.1</ele>
        <time>2017-05-10T10:21:03Z</time>
      </trkpt>
      <trkpt lat="43.64201" lon="3.82576">
        <ele>138.9</ele>
        <time>2017-05-10T10:21:05Z</time>
      </trkpt>
      <trkpt lat="43.64206" lon="3.82568">
        <ele>139.3</ele>
        <time>2017-05-10T10:21:07Z</time>
      </trkpt>
      <trkpt lat="43.64211" lon="3.82559">
        <ele>140</ele>
        <time>2017-05-10T10:21:09Z</time>
      </trkpt>
      <trkpt lat="43.64216" lon="3.82546">
        <ele>139.5</ele>
        <time>2017-05-10T10:21:12Z</time>
      </trkpt>
      <trkpt lat="43.6422" lon="3.82537">
        <ele>139.3</ele>
        <time>2017-05-10T10:21:14Z</time>
      </trkpt>
      <trkpt lat="43.64226" lon="3.82528">
        <ele>139.2</ele>
        <time>2017-05-10T10:21:16Z</time>
      </trkpt>
      <trkpt lat="43.64231" lon="3.8252">
        <ele>138.9</ele>
        <time>2017-05-10T10:21:18Z</time>
      </trkpt>
      <trkpt lat="43.64235" lon="3.82511">
        <ele>140</ele>
        <time>2017-05-10T10:21:20Z</time>
      </trkpt>
      <trkpt lat="43.6424" lon="3.82501">
        <ele>140.2</ele>
        <time>2017-05-10T10:21:22Z</time>
      </trkpt>
      <trkpt lat="43.64244" lon="3.82493">
        <ele>140.6</ele>
        <time>2017-05-10T10:21:24Z</time>
      </trkpt>
      <trkpt lat="43.64248" lon="3.82483">
        <ele>139.9</ele>
        <time>2017-05-10T10:21:26Z</time>
      </trkpt>
      <trkpt lat="43.64253" lon="3.82472">
        <ele>140</ele>
        <time>2017-05-10T10:21:28Z</time>
      </trkpt>
      <trkpt lat="43.64257" lon="3.8246">
        <ele>139.9</ele>
        <time>2017-05-10T10:21:30Z</time>
      </trkpt>
      <trkpt lat="43.64262" lon="3.8245">
        <ele>139.8</ele>
        <time>2017-05-10T10:21:32Z</time>
      </trkpt>
      <trkpt lat="43.64266" lon="3.8244">
        <ele>140.4</ele>
        <time>2017-05-10T10:21:34Z</time>
      </trkpt>
      <trkpt lat="43.6427" lon="3.82431">
        <ele>140.4</ele>
        <time>2017-05-10T10:21:36Z</time>
      </trkpt>
      <trkpt lat="43.64274" lon="3.82419">
        <ele>140.4</ele>
        <time>2017-05-10T10:21:39Z</time>
      </trkpt>
      <trkpt lat="43.64279" lon="3.82408">
        <ele>140.4</ele>
        <time>2017-05-10T10:21:41Z</time>
      </trkpt>
      <trkpt lat="43.64285" lon="3.82398">
        <ele>140.4</ele>
        <time>2017-05-10T10:21:43Z</time>
      </trkpt>
      <trkpt lat="43.64292" lon="3.82389">
        <ele>140.7</ele>
        <time>2017-05-10T10:21:45Z</time>
      </trkpt>
      <trkpt lat="43.64303" lon="3.82384">
        <ele>140.7</ele>
        <time>2017-05-10T10:21:48Z</time>
      </trkpt>
      <trkpt lat="43.64307" lon="3.82375">
        <ele>140.7</ele>
        <time>2017-05-10T10:21:50Z</time>
      </trkpt>
      <trkpt lat="43.64308" lon="3.82365">
        <ele>140.8</ele>
        <time>2017-05-10T10:21:52Z</time>
      </trkpt>
      <trkpt lat="43.64311" lon="3.82354">
        <ele>140.7</ele>
        <time>2017-05-10T10:21:54Z</time>
      </trkpt>
      <trkpt lat="43.64315" lon="3.82345">
        <ele>140.1</ele>
        <time>2017-05-10T10:21:56Z</time>
      </trkpt>
      <trkpt lat="43.6432" lon="3.82336">
        <ele>140.3</ele>
        <time>2017-05-10T10:21:58Z</time>
      </trkpt>
      <trkpt lat="43.64323" lon="3.82326">
        <ele>141.1</ele>
        <time>2017-05-10T10:22:00Z</time>
      </trkpt>
      <trkpt lat="43.64328" lon="3.82313">
        <ele>140.9</ele>
        <time>2017-05-10T10:22:03Z</time>
      </trkpt>
      <trkpt lat="43.64332" lon="3.82304">
        <ele>140.7</ele>
        <time>2017-05-10T10:22:05Z</time>
      </trkpt>
      <trkpt lat="43.64337" lon="3.82295">
        <ele>140.8</ele>
        <time>2017-05-10T10:22:07Z</time>
      </trkpt>
      <trkpt lat="43.64341" lon="3.82286">
        <ele>141</ele>
        <time>2017-05-10T10:22:09Z</time>
      </trkpt>
      <trkpt lat="43.64347" lon="3.82276">
        <ele>141.1</ele>
        <time>2017-05-10T10:22:12Z</time>
      </trkpt>
      <trkpt lat="43.64352" lon="3.82266">
        <ele>141.1</ele>
        <time>2017-05-10T10:22:15Z</time>
      </trkpt>
      <trkpt lat="43.6436" lon="3.82261">
        <ele>141.1</ele>
        <time>2017-05-10T10:22:21Z</time>
      </trkpt>
      <trkpt lat="43.64368" lon="3.82258">
        <ele>141.6</ele>
        <time>2017-05-10T10:22:25Z</time>
      </trkpt>
      <trkpt lat="43.64365" lon="3.82248">
        <ele>141.7</ele>
        <time>2017-05-10T10:22:30Z</time>
      </trkpt>
      <trkpt lat="43.64365" lon="3.82237">
        <ele>141</ele>
        <time>2017-05-10T10:22:33Z</time>
      </trkpt>
      <trkpt lat="43.64363" lon="3.82223">
        <ele>140.9</ele>
        <time>2017-05-10T10:22:36Z</time>
      </trkpt>
      <trkpt lat="43.64358" lon="3.82212">
        <ele>140.7</ele>
        <time>2017-05-10T10:22:40Z</time>
      </trkpt>
      <trkpt lat="43.64351" lon="3.82203">
        <ele>140.6</ele>
        <time>2017-05-10T10:22:44Z</time>
      </trkpt>
      <trkpt lat="43.64343" lon="3.82196">
        <ele>140.6</ele>
        <time>2017-05-10T10:22:47Z</time>
      </trkpt>
      <trkpt lat="43.64338" lon="3.82186">
        <ele>140.7</ele>
        <time>2017-05-10T10:22:51Z</time>
      </trkpt>
      <trkpt lat="43.64335" lon="3.82174">
        <ele>140.8</ele>
        <time>2017-05-10T10:22:54Z</time>
      </trkpt>
      <trkpt lat="43.64333" lon="3.8216">
        <ele>141.1</ele>
        <time>2017-05-10T10:22:57Z</time>
      </trkpt>
      <trkpt lat="43.64333" lon="3.82145">
        <ele>141.3</ele>
        <time>2017-05-10T10:23:00Z</time>
      </trkpt>
      <trkpt lat="43.64334" lon="3.82131">
        <ele>141.6</ele>
        <time>2017-05-10T10:23:02Z</time>
      </trkpt>
      <trkpt lat="43.64335" lon="3.82121">
        <ele>141.8</ele>
        <time>2017-05-10T10:23:04Z</time>
      </trkpt>
      <trkpt lat="43.64336" lon="3.82106">
        <ele>142.6</ele>
        <time>2017-05-10T10:23:07Z</time>
      </trkpt>
      <trkpt lat="43.64337" lon="3.82096">
        <ele>142.8</ele>
        <time>2017-05-10T10:23:10Z</time>
      </trkpt>
      <trkpt lat="43.6434" lon="3.82082">
        <ele>143.4</ele>
        <time>2017-05-10T10:23:14Z</time>
      </trkpt>
      <trkpt lat="43.64346" lon="3.82072">
        <ele>144</ele>
        <time>2017-05-10T10:23:17Z</time>
      </trkpt>
      <trkpt lat="43.6435" lon="3.82063">
        <ele>144.1</ele>
        <time>2017-05-10T10:23:19Z</time>
      </trkpt>
      <trkpt lat="43.64355" lon="3.82051">
        <ele>144.3</ele>
        <time>2017-05-10T10:23:22Z</time>
      </trkpt>
      <trkpt lat="43.64358" lon="3.8204">
        <ele>144.1</ele>
        <time>2017-05-10T10:23:25Z</time>
      </trkpt>
      <trkpt lat="43.64361" lon="3.82027">
        <ele>143.8</ele>
        <time>2017-05-10T10:23:28Z</time>
      </trkpt>
      <trkpt lat="43.64366" lon="3.82016">
        <ele>143.8</ele>
        <time>2017-05-10T10:23:31Z</time>
      </trkpt>
      <trkpt lat="43.6437" lon="3.82007">
        <ele>144.6</ele>
        <time>2017-05-10T10:23:33Z</time>
      </trkpt>
      <trkpt lat="43.64375" lon="3.81999">
        <ele>144.7</ele>
        <time>2017-05-10T10:23:35Z</time>
      </trkpt>
      <trkpt lat="43.6438" lon="3.81988">
        <ele>144.9</ele>
        <time>2017-05-10T10:23:38Z</time>
      </trkpt>
      <trkpt lat="43.64384" lon="3.81979">
        <ele>145.4</ele>
        <time>2017-05-10T10:23:42Z</time>
      </trkpt>
      <trkpt lat="43.64389" lon="3.81969">
        <ele>145.8</ele>
        <time>2017-05-10T10:23:45Z</time>
      </trkpt>
      <trkpt lat="43.64396" lon="3.81956">
        <ele>147.8</ele>
        <time>2017-05-10T10:23:48Z</time>
      </trkpt>
      <trkpt lat="43.644" lon="3.81944">
        <ele>148.8</ele>
        <time>2017-05-10T10:23:50Z</time>
      </trkpt>
      <trkpt lat="43.64402" lon="3.81934">
        <ele>149.1</ele>
        <time>2017-05-10T10:23:55Z</time>
      </trkpt>
      <trkpt lat="43.64406" lon="3.81925">
        <ele>149.4</ele>
        <time>2017-05-10T10:23:59Z</time>
      </trkpt>
      <trkpt lat="43.64409" lon="3.81915">
        <ele>149.8</ele>
        <time>2017-05-10T10:24:03Z</time>
      </trkpt>
      <trkpt lat="43.6441" lon="3.81901">
        <ele>150.1</ele>
        <time>2017-05-10T10:24:07Z</time>
      </trkpt>
      <trkpt lat="43.64411" lon="3.81888">
        <ele>150.7</ele>
        <time>2017-05-10T10:24:10Z</time>
      </trkpt>
      <trkpt lat="43.64409" lon="3.81875">
        <ele>151.6</ele>
        <time>2017-05-10T10:24:14Z</time>
      </trkpt>
      <trkpt lat="43.64409" lon="3.81864">
        <ele>152.2</ele>
        <time>2017-05-10T10:24:17Z</time>
      </trkpt>
      <trkpt lat="43.64409" lon="3.81854">
        <ele>152.7</ele>
        <time>2017-05-10T10:24:20Z</time>
      </trkpt>
      <trkpt lat="43.6441" lon="3.81843">
        <ele>153.5</ele>
        <time>2017-05-10T10:24:24Z</time>
      </trkpt>
      <trkpt lat="43.6441" lon="3.81828">
        <ele>154.3</ele>
        <time>2017-05-10T10:24:28Z</time>
      </trkpt>
      <trkpt lat="43.64416" lon="3.81818">
        <ele>158.7</ele>
        <time>2017-05-10T10:24:30Z</time>
      </trkpt>
      <trkpt lat="43.64424" lon="3.81807">
        <ele>159.1</ele>
        <time>2017-05-10T10:24:32Z</time>
      </trkpt>
      <trkpt lat="43.64423" lon="3.81793">
        <ele>159.5</ele>
        <time>2017-05-10T10:24:36Z</time>
      </trkpt>
      <trkpt lat="43.64419" lon="3.81784">
        <ele>159.8</ele>
        <time>2017-05-10T10:24:38Z</time>
      </trkpt>
      <trkpt lat="43.64415" lon="3.81774">
        <ele>160</ele>
        <time>2017-05-10T10:24:41Z</time>
      </trkpt>
      <trkpt lat="43.64409" lon="3.81764">
        <ele>160.1</ele>
        <time>2017-05-10T10:24:44Z</time>
      </trkpt>
      <trkpt lat="43.64404" lon="3.81756">
        <ele>160.5</ele>
        <time>2017-05-10T10:24:47Z</time>
      </trkpt>
      <trkpt lat="43.644" lon="3.81744">
        <ele>160.9</ele>
        <time>2017-05-10T10:24:50Z</time>
      </trkpt>
      <trkpt lat="43.64393" lon="3.81733">
        <ele>161.2</ele>
        <time>2017-05-10T10:24:53Z</time>
      </trkpt>
      <trkpt lat="43.64387" lon="3.81726">
        <ele>161.2</ele>
        <time>2017-05-10T10:24:55Z</time>
      </trkpt>
      <trkpt lat="43.64383" lon="3.81718">
        <ele>161.1</ele>
        <time>2017-05-10T10:24:57Z</time>
      </trkpt>
      <trkpt lat="43.6438" lon="3.81704">
        <ele>160.8</ele>
        <time>2017-05-10T10:25:00Z</time>
      </trkpt>
      <trkpt lat="43.64382" lon="3.81695">
        <ele>160.6</ele>
        <time>2017-05-10T10:25:04Z</time>
      </trkpt>
      <trkpt lat="43.64384" lon="3.81689">
        <ele>160.6</ele>
        <time>2017-05-10T10:25:11Z</time>
      </trkpt>
      <trkpt lat="43.64385" lon="3.81686">
        <ele>160.7</ele>
        <time>2017-05-10T10:25:18Z</time>
      </trkpt>
      <trkpt lat="43.64384" lon="3.81693">
        <ele>161.3</ele>
        <time>2017-05-10T10:25:25Z</time>
      </trkpt>
      <trkpt lat="43.64385" lon="3.81703">
        <ele>161.6</ele>
        <time>2017-05-10T10:25:29Z</time>
      </trkpt>
      <trkpt lat="43.64381" lon="3.81714">
        <ele>162</ele>
        <time>2017-05-10T10:25:34Z</time>
      </trkpt>
      <trkpt lat="43.64371" lon="3.81709">
        <ele>162.4</ele>
        <time>2017-05-10T10:25:38Z</time>
      </trkpt>
      <trkpt lat="43.64369" lon="3.81696">
        <ele>162.7</ele>
        <time>2017-05-10T10:25:41Z</time>
      </trkpt>
      <trkpt lat="43.64368" lon="3.81683">
        <ele>162.7</ele>
        <time>2017-05-10T10:25:44Z</time>
      </trkpt>
      <trkpt lat="43.64366" lon="3.81672">
        <ele>162.6</ele>
        <time>2017-05-10T10:25:47Z</time>
      </trkpt>
      <trkpt lat="43.64361" lon="3.81659">
        <ele>162.4</ele>
        <time>2017-05-10T10:25:50Z</time>
      </trkpt>
      <trkpt lat="43.64359" lon="3.81649">
        <ele>162.4</ele>
        <time>2017-05-10T10:25:52Z</time>
      </trkpt>
      <trkpt lat="43.64354" lon="3.81635">
        <ele>162.2</ele>
        <time>2017-05-10T10:25:55Z</time>
      </trkpt>
      <trkpt lat="43.64351" lon="3.81626">
        <ele>162.3</ele>
        <time>2017-05-10T10:25:57Z</time>
      </trkpt>
      <trkpt lat="43.64348" lon="3.81617">
        <ele>162.5</ele>
        <time>2017-05-10T10:25:59Z</time>
      </trkpt>
      <trkpt lat="43.64345" lon="3.81607">
        <ele>161.2</ele>
        <time>2017-05-10T10:26:01Z</time>
      </trkpt>
      <trkpt lat="43.64341" lon="3.81597">
        <ele>160.6</ele>
        <time>2017-05-10T10:26:03Z</time>
      </trkpt>
      <trkpt lat="43.64337" lon="3.81588">
        <ele>160.6</ele>
        <time>2017-05-10T10:26:05Z</time>
      </trkpt>
      <trkpt lat="43.64334" lon="3.81578">
        <ele>161.4</ele>
        <time>2017-05-10T10:26:07Z</time>
      </trkpt>
      <trkpt lat="43.64331" lon="3.81568">
        <ele>161.6</ele>
        <time>2017-05-10T10:26:09Z</time>
      </trkpt>
      <trkpt lat="43.64328" lon="3.81559">
        <ele>161.6</ele>
        <time>2017-05-10T10:26:11Z</time>
      </trkpt>
      <trkpt lat="43.64325" lon="3.81549">
        <ele>161.8</ele>
        <time>2017-05-10T10:26:13Z</time>
      </trkpt>
      <trkpt lat="43.64322" lon="3.81537">
        <ele>162</ele>
        <time>2017-05-10T10:26:15Z</time>
      </trkpt>
      <trkpt lat="43.64319" lon="3.81525">
        <ele>162.4</ele>
        <time>2017-05-10T10:26:17Z</time>
      </trkpt>
      <trkpt lat="43.64315" lon="3.8151">
        <ele>163.8</ele>
        <time>2017-05-10T10:26:19Z</time>
      </trkpt>
      <trkpt lat="43.6431" lon="3.81492">
        <ele>164.2</ele>
        <time>2017-05-10T10:26:21Z</time>
      </trkpt>
      <trkpt lat="43.64305" lon="3.81475">
        <ele>164.8</ele>
        <time>2017-05-10T10:26:23Z</time>
      </trkpt>
      <trkpt lat="43.64299" lon="3.81458">
        <ele>165.2</ele>
        <time>2017-05-10T10:26:25Z</time>
      </trkpt>
      <trkpt lat="43.64293" lon="3.8144">
        <ele>165.5</ele>
        <time>2017-05-10T10:26:27Z</time>
      </trkpt>
      <trkpt lat="43.64288" lon="3.81423">
        <ele>165.6</ele>
        <time>2017-05-10T10:26:29Z</time>
      </trkpt>
      <trkpt lat="43.64284" lon="3.81413">
        <ele>165.6</ele>
        <time>2017-05-10T10:26:30Z</time>
      </trkpt>
      <trkpt lat="43.64281" lon="3.81404">
        <ele>165.9</ele>
        <time>2017-05-10T10:26:31Z</time>
      </trkpt>
      <trkpt lat="43.64276" lon="3.81396">
        <ele>166.9</ele>
        <time>2017-05-10T10:26:32Z</time>
      </trkpt>
      <trkpt lat="43.64273" lon="3.81386">
        <ele>167.4</ele>
        <time>2017-05-10T10:26:33Z</time>
      </trkpt>
      <trkpt lat="43.64269" lon="3.81375">
        <ele>167.3</ele>
        <time>2017-05-10T10:26:34Z</time>
      </trkpt>
      <trkpt lat="43.64265" lon="3.81366">
        <ele>167.8</ele>
        <time>2017-05-10T10:26:35Z</time>
      </trkpt>
      <trkpt lat="43.64261" lon="3.81357">
        <ele>167.7</ele>
        <time>2017-05-10T10:26:36Z</time>
      </trkpt>
      <trkpt lat="43.64257" lon="3.81348">
        <ele>168</ele>
        <time>2017-05-10T10:26:37Z</time>
      </trkpt>
      <trkpt lat="43.64253" lon="3.81338">
        <ele>168.4</ele>
        <time>2017-05-10T10:26:38Z</time>
      </trkpt>
      <trkpt lat="43.64247" lon="3.81329">
        <ele>168.5</ele>
        <time>2017-05-10T10:26:39Z</time>
      </trkpt>
      <trkpt lat="43.64243" lon="3.81319">
        <ele>168.3</ele>
        <time>2017-05-10T10:26:40Z</time>
      </trkpt>
      <trkpt lat="43.64238" lon="3.81311">
        <ele>167.9</ele>
        <time>2017-05-10T10:26:41Z</time>
      </trkpt>
      <trkpt lat="43.64233" lon="3.81302">
        <ele>167.4</ele>
        <time>2017-05-10T10:26:42Z</time>
      </trkpt>
      <trkpt lat="43.64228" lon="3.81293">
        <ele>167</ele>
        <time>2017-05-10T10:26:43Z</time>
      </trkpt>
      <trkpt lat="43.64224" lon="3.81285">
        <ele>166.9</ele>
        <time>2017-05-10T10:26:44Z</time>
      </trkpt>
      <trkpt lat="43.64219" lon="3.81277">
        <ele>166</ele>
        <time>2017-05-10T10:26:45Z</time>
      </trkpt>
      <trkpt lat="43.6421" lon="3.81262">
        <ele>164</ele>
        <time>2017-05-10T10:26:47Z</time>
      </trkpt>
      <trkpt lat="43.64205" lon="3.81254">
        <ele>163.5</ele>
        <time>2017-05-10T10:26:48Z</time>
      </trkpt>
      <trkpt lat="43.64198" lon="3.8124">
        <ele>162.8</ele>
        <time>2017-05-10T10:26:50Z</time>
      </trkpt>
      <trkpt lat="43.6419" lon="3.81223">
        <ele>162.2</ele>
        <time>2017-05-10T10:26:52Z</time>
      </trkpt>
      <trkpt lat="43.64183" lon="3.81208">
        <ele>160.8</ele>
        <time>2017-05-10T10:26:54Z</time>
      </trkpt>
      <trkpt lat="43.64175" lon="3.81195">
        <ele>159.7</ele>
        <time>2017-05-10T10:26:56Z</time>
      </trkpt>
      <trkpt lat="43.64166" lon="3.81182">
        <ele>158.4</ele>
        <time>2017-05-10T10:26:58Z</time>
      </trkpt>
      <trkpt lat="43.64155" lon="3.8117">
        <ele>160</ele>
        <time>2017-05-10T10:27:00Z</time>
      </trkpt>
      <trkpt lat="43.64144" lon="3.81159">
        <ele>160.2</ele>
        <time>2017-05-10T10:27:02Z</time>
      </trkpt>
      <trkpt lat="43.64133" lon="3.81147">
        <ele>160.7</ele>
        <time>2017-05-10T10:27:04Z</time>
      </trkpt>
      <trkpt lat="43.64127" lon="3.81142">
        <ele>160.8</ele>
        <time>2017-05-10T10:27:05Z</time>
      </trkpt>
      <trkpt lat="43.64121" lon="3.81135">
        <ele>160.2</ele>
        <time>2017-05-10T10:27:06Z</time>
      </trkpt>
      <trkpt lat="43.64111" lon="3.81123">
        <ele>159.7</ele>
        <time>2017-05-10T10:27:08Z</time>
      </trkpt>
      <trkpt lat="43.64102" lon="3.81111">
        <ele>160</ele>
        <time>2017-05-10T10:27:10Z</time>
      </trkpt>
      <trkpt lat="43.64093" lon="3.811">
        <ele>159.9</ele>
        <time>2017-05-10T10:27:12Z</time>
      </trkpt>
      <trkpt lat="43.64086" lon="3.81092">
        <ele>159.6</ele>
        <time>2017-05-10T10:27:14Z</time>
      </trkpt>
      <trkpt lat="43.64086" lon="3.8108">
        <ele>160.5</ele>
        <time>2017-05-10T10:27:20Z</time>
      </trkpt>
      <trkpt lat="43.64094" lon="3.81069">
        <ele>160.9</ele>
        <time>2017-05-10T10:27:22Z</time>
      </trkpt>
      <trkpt lat="43.64102" lon="3.81052">
        <ele>160.5</ele>
        <time>2017-05-10T10:27:24Z</time>
      </trkpt>
      <trkpt lat="43.64106" lon="3.81043">
        <ele>160.5</ele>
        <time>2017-05-10T10:27:25Z</time>
      </trkpt>
      <trkpt lat="43.64109" lon="3.81033">
        <ele>159.5</ele>
        <time>2017-05-10T10:27:26Z</time>
      </trkpt>
      <trkpt lat="43.64112" lon="3.81023">
        <ele>158.4</ele>
        <time>2017-05-10T10:27:27Z</time>
      </trkpt>
      <trkpt lat="43.64115" lon="3.81012">
        <ele>156.9</ele>
        <time>2017-05-10T10:27:28Z</time>
      </trkpt>
      <trkpt lat="43.64121" lon="3.81001">
        <ele>155.7</ele>
        <time>2017-05-10T10:27:29Z</time>
      </trkpt>
      <trkpt lat="43.64128" lon="3.80993">
        <ele>154.4</ele>
        <time>2017-05-10T10:27:30Z</time>
      </trkpt>
      <trkpt lat="43.64135" lon="3.80983">
        <ele>152.5</ele>
        <time>2017-05-10T10:27:31Z</time>
      </trkpt>
      <trkpt lat="43.6414" lon="3.80971">
        <ele>150.1</ele>
        <time>2017-05-10T10:27:32Z</time>
      </trkpt>
      <trkpt lat="43.64145" lon="3.8096">
        <ele>147.6</ele>
        <time>2017-05-10T10:27:33Z</time>
      </trkpt>
      <trkpt lat="43.64153" lon="3.80948">
        <ele>144.1</ele>
        <time>2017-05-10T10:27:35Z</time>
      </trkpt>
      <trkpt lat="43.64159" lon="3.8094">
        <ele>143.3</ele>
        <time>2017-05-10T10:27:37Z</time>
      </trkpt>
      <trkpt lat="43.64167" lon="3.80931">
        <ele>143.3</ele>
        <time>2017-05-10T10:27:40Z</time>
      </trkpt>
      <trkpt lat="43.64173" lon="3.80924">
        <ele>143.5</ele>
        <time>2017-05-10T10:27:43Z</time>
      </trkpt>
      <trkpt lat="43.64177" lon="3.80915">
        <ele>145.3</ele>
        <time>2017-05-10T10:27:45Z</time>
      </trkpt>
      <trkpt lat="43.6418" lon="3.80903">
        <ele>147.7</ele>
        <time>2017-05-10T10:27:47Z</time>
      </trkpt>
      <trkpt lat="43.64178" lon="3.80888">
        <ele>149.7</ele>
        <time>2017-05-10T10:27:50Z</time>
      </trkpt>
      <trkpt lat="43.64173" lon="3.80877">
        <ele>150.8</ele>
        <time>2017-05-10T10:27:52Z</time>
      </trkpt>
      <trkpt lat="43.64169" lon="3.80861">
        <ele>150.3</ele>
        <time>2017-05-10T10:27:54Z</time>
      </trkpt>
      <trkpt lat="43.64166" lon="3.80849">
        <ele>150</ele>
        <time>2017-05-10T10:27:55Z</time>
      </trkpt>
      <trkpt lat="43.64164" lon="3.80839">
        <ele>149.7</ele>
        <time>2017-05-10T10:27:56Z</time>
      </trkpt>
      <trkpt lat="43.64162" lon="3.80828">
        <ele>149.7</ele>
        <time>2017-05-10T10:27:57Z</time>
      </trkpt>
      <trkpt lat="43.64159" lon="3.80813">
        <ele>149.4</ele>
        <time>2017-05-10T10:27:59Z</time>
      </trkpt>
      <trkpt lat="43.6416" lon="3.80795">
        <ele>148.1</ele>
        <time>2017-05-10T10:28:01Z</time>
      </trkpt>
      <trkpt lat="43.64159" lon="3.80779">
        <ele>145.7</ele>
        <time>2017-05-10T10:28:03Z</time>
      </trkpt>
      <trkpt lat="43.64158" lon="3.80758">
        <ele>143.4</ele>
        <time>2017-05-10T10:28:05Z</time>
      </trkpt>
      <trkpt lat="43.64157" lon="3.80748">
        <ele>142.5</ele>
        <time>2017-05-10T10:28:06Z</time>
      </trkpt>
      <trkpt lat="43.64156" lon="3.80737">
        <ele>141.5</ele>
        <time>2017-05-10T10:28:07Z</time>
      </trkpt>
      <trkpt lat="43.64154" lon="3.80724">
        <ele>141.1</ele>
        <time>2017-05-10T10:28:08Z</time>
      </trkpt>
      <trkpt lat="43.64152" lon="3.80712">
        <ele>140.6</ele>
        <time>2017-05-10T10:28:09Z</time>
      </trkpt>
      <trkpt lat="43.6415" lon="3.80699">
        <ele>139.8</ele>
        <time>2017-05-10T10:28:10Z</time>
      </trkpt>
      <trkpt lat="43.64148" lon="3.80685">
        <ele>139.3</ele>
        <time>2017-05-10T10:28:11Z</time>
      </trkpt>
      <trkpt lat="43.64146" lon="3.80673">
        <ele>138.6</ele>
        <time>2017-05-10T10:28:12Z</time>
      </trkpt>
      <trkpt lat="43.64144" lon="3.80662">
        <ele>137.7</ele>
        <time>2017-05-10T10:28:13Z</time>
      </trkpt>
      <trkpt lat="43.64143" lon="3.80649">
        <ele>135.8</ele>
        <time>2017-05-10T10:28:14Z</time>
      </trkpt>
      <trkpt lat="43.64142" lon="3.80637">
        <ele>134.6</ele>
        <time>2017-05-10T10:28:16Z</time>
      </trkpt>
      <trkpt lat="43.64135" lon="3.80632">
        <ele>134.5</ele>
        <time>2017-05-10T10:28:19Z</time>
      </trkpt>
      <trkpt lat="43.64129" lon="3.80624">
        <ele>132.5</ele>
        <time>2017-05-10T10:28:21Z</time>
      </trkpt>
      <trkpt lat="43.64121" lon="3.80617">
        <ele>130.7</ele>
        <time>2017-05-10T10:28:23Z</time>
      </trkpt>
      <trkpt lat="43.64114" lon="3.80613">
        <ele>130.5</ele>
        <time>2017-05-10T10:28:25Z</time>
      </trkpt>
      <trkpt lat="43.64105" lon="3.80613">
        <ele>128.9</ele>
        <time>2017-05-10T10:28:30Z</time>
      </trkpt>
      <trkpt lat="43.64098" lon="3.80616">
        <ele>127.1</ele>
        <time>2017-05-10T10:28:32Z</time>
      </trkpt>
      <trkpt lat="43.6409" lon="3.80618">
        <ele>126.8</ele>
        <time>2017-05-10T10:28:34Z</time>
      </trkpt>
      <trkpt lat="43.64079" lon="3.80617">
        <ele>126.2</ele>
        <time>2017-05-10T10:28:37Z</time>
      </trkpt>
      <trkpt lat="43.64072" lon="3.8062">
        <ele>123.9</ele>
        <time>2017-05-10T10:28:38Z</time>
      </trkpt>
      <trkpt lat="43.64063" lon="3.80625">
        <ele>120.8</ele>
        <time>2017-05-10T10:28:40Z</time>
      </trkpt>
      <trkpt lat="43.64055" lon="3.80627">
        <ele>120.6</ele>
        <time>2017-05-10T10:28:42Z</time>
      </trkpt>
      <trkpt lat="43.64048" lon="3.80626">
        <ele>120.5</ele>
        <time>2017-05-10T10:28:44Z</time>
      </trkpt>
      <trkpt lat="43.64041" lon="3.80632">
        <ele>120.1</ele>
        <time>2017-05-10T10:28:49Z</time>
      </trkpt>
      <trkpt lat="43.64031" lon="3.80637">
        <ele>119.8</ele>
        <time>2017-05-10T10:28:52Z</time>
      </trkpt>
      <trkpt lat="43.64022" lon="3.80639">
        <ele>118.2</ele>
        <time>2017-05-10T10:28:54Z</time>
      </trkpt>
      <trkpt lat="43.64012" lon="3.80641">
        <ele>117.4</ele>
        <time>2017-05-10T10:28:57Z</time>
      </trkpt>
      <trkpt lat="43.64002" lon="3.80645">
        <ele>113</ele>
        <time>2017-05-10T10:28:59Z</time>
      </trkpt>
      <trkpt lat="43.63993" lon="3.80649">
        <ele>111.2</ele>
        <time>2017-05-10T10:29:01Z</time>
      </trkpt>
      <trkpt lat="43.63985" lon="3.80651">
        <ele>109</ele>
        <time>2017-05-10T10:29:03Z</time>
      </trkpt>
      <trkpt lat="43.63976" lon="3.80655">
        <ele>108.3</ele>
        <time>2017-05-10T10:29:13Z</time>
      </trkpt>
      <trkpt lat="43.63967" lon="3.80659">
        <ele>105.8</ele>
        <time>2017-05-10T10:29:15Z</time>
      </trkpt>
      <trkpt lat="43.63958" lon="3.80664">
        <ele>103.7</ele>
        <time>2017-05-10T10:29:17Z</time>
      </trkpt>
      <trkpt lat="43.6395" lon="3.80669">
        <ele>103.4</ele>
        <time>2017-05-10T10:29:20Z</time>
      </trkpt>
      <trkpt lat="43.63941" lon="3.8067">
        <ele>103.2</ele>
        <time>2017-05-10T10:29:23Z</time>
      </trkpt>
      <trkpt lat="43.63931" lon="3.8067">
        <ele>102.9</ele>
        <time>2017-05-10T10:29:26Z</time>
      </trkpt>
      <trkpt lat="43.63921" lon="3.80671">
        <ele>101.2</ele>
        <time>2017-05-10T10:29:28Z</time>
      </trkpt>
      <trkpt lat="43.63911" lon="3.80676">
        <ele>99.7</ele>
        <time>2017-05-10T10:29:30Z</time>
      </trkpt>
      <trkpt lat="43.63905" lon="3.80686">
        <ele>98.7</ele>
        <time>2017-05-10T10:29:32Z</time>
      </trkpt>
      <trkpt lat="43.63908" lon="3.80699">
        <ele>98.4</ele>
        <time>2017-05-10T10:29:34Z</time>
      </trkpt>
      <trkpt lat="43.6391" lon="3.80709">
        <ele>98.2</ele>
        <time>2017-05-10T10:29:36Z</time>
      </trkpt>
      <trkpt lat="43.63905" lon="3.8072">
        <ele>98.3</ele>
        <time>2017-05-10T10:29:40Z</time>
      </trkpt>
      <trkpt lat="43.63896" lon="3.80724">
        <ele>98.3</ele>
        <time>2017-05-10T10:29:43Z</time>
      </trkpt>
      <trkpt lat="43.6389" lon="3.80723">
        <ele>98.2</ele>
        <time>2017-05-10T10:29:50Z</time>
      </trkpt>
      <trkpt lat="43.63878" lon="3.80728">
        <ele>98.3</ele>
        <time>2017-05-10T10:30:16Z</time>
      </trkpt>
      <trkpt lat="43.63867" lon="3.80733">
        <ele>97.9</ele>
        <time>2017-05-10T10:30:22Z</time>
      </trkpt>
      <trkpt lat="43.63855" lon="3.80736">
        <ele>97</ele>
        <time>2017-05-10T10:30:29Z</time>
      </trkpt>
      <trkpt lat="43.63846" lon="3.80737">
        <ele>95.9</ele>
        <time>2017-05-10T10:30:37Z</time>
      </trkpt>
      <trkpt lat="43.63838" lon="3.80734">
        <ele>96.6</ele>
        <time>2017-05-10T10:30:43Z</time>
      </trkpt>
      <trkpt lat="43.63829" lon="3.80734">
        <ele>96.6</ele>
        <time>2017-05-10T10:30:47Z</time>
      </trkpt>
      <trkpt lat="43.63822" lon="3.80735">
        <ele>96.2</ele>
        <time>2017-05-10T10:30:50Z</time>
      </trkpt>
      <trkpt lat="43.63815" lon="3.80738">
        <ele>95.6</ele>
        <time>2017-05-10T10:30:54Z</time>
      </trkpt>
      <trkpt lat="43.63806" lon="3.80738">
        <ele>95.4</ele>
        <time>2017-05-10T10:30:58Z</time>
      </trkpt>
      <trkpt lat="43.63799" lon="3.80737">
        <ele>95.4</ele>
        <time>2017-05-10T10:31:01Z</time>
      </trkpt>
      <trkpt lat="43.63794" lon="3.8073">
        <ele>95.5</ele>
        <time>2017-05-10T10:31:03Z</time>
      </trkpt>
      <trkpt lat="43.63787" lon="3.80719">
        <ele>95.7</ele>
        <time>2017-05-10T10:31:07Z</time>
      </trkpt>
      <trkpt lat="43.63785" lon="3.80708">
        <ele>96.8</ele>
        <time>2017-05-10T10:31:12Z</time>
      </trkpt>
      <trkpt lat="43.63781" lon="3.80697">
        <ele>97.7</ele>
        <time>2017-05-10T10:31:16Z</time>
      </trkpt>
      <trkpt lat="43.63776" lon="3.80687">
        <ele>98.2</ele>
        <time>2017-05-10T10:31:20Z</time>
      </trkpt>
      <trkpt lat="43.6377" lon="3.8068">
        <ele>99.2</ele>
        <time>2017-05-10T10:31:25Z</time>
      </trkpt>
      <trkpt lat="43.63765" lon="3.80671">
        <ele>100.1</ele>
        <time>2017-05-10T10:31:29Z</time>
      </trkpt>
      <trkpt lat="43.63761" lon="3.80661">
        <ele>100.9</ele>
        <time>2017-05-10T10:31:33Z</time>
      </trkpt>
      <trkpt lat="43.63756" lon="3.80651">
        <ele>101.6</ele>
        <time>2017-05-10T10:31:37Z</time>
      </trkpt>
      <trkpt lat="43.63752" lon="3.80644">
        <ele>102.5</ele>
        <time>2017-05-10T10:31:41Z</time>
      </trkpt>
      <trkpt lat="43.63746" lon="3.80633">
        <ele>103.5</ele>
        <time>2017-05-10T10:31:46Z</time>
      </trkpt>
      <trkpt lat="43.63742" lon="3.80625">
        <ele>104.8</ele>
        <time>2017-05-10T10:31:50Z</time>
      </trkpt>
      <trkpt lat="43.63739" lon="3.80615">
        <ele>106.1</ele>
        <time>2017-05-10T10:31:54Z</time>
      </trkpt>
      <trkpt lat="43.63736" lon="3.80605">
        <ele>107.7</ele>
        <time>2017-05-10T10:31:59Z</time>
      </trkpt>
      <trkpt lat="43.63731" lon="3.80595">
        <ele>109.3</ele>
        <time>2017-05-10T10:32:04Z</time>
      </trkpt>
      <trkpt lat="43.63727" lon="3.80585">
        <ele>110.9</ele>
        <time>2017-05-10T10:32:09Z</time>
      </trkpt>
      <trkpt lat="43.63723" lon="3.80575">
        <ele>112.9</ele>
        <time>2017-05-10T10:32:15Z</time>
      </trkpt>
      <trkpt lat="43.63718" lon="3.80564">
        <ele>114.7</ele>
        <time>2017-05-10T10:32:20Z</time>
      </trkpt>
      <trkpt lat="43.63714" lon="3.80556">
        <ele>116</ele>
        <time>2017-05-10T10:32:24Z</time>
      </trkpt>
      <trkpt lat="43.63711" lon="3.80551">
        <ele>118.1</ele>
        <time>2017-05-10T10:32:31Z</time>
      </trkpt>
      <trkpt lat="43.63707" lon="3.80542">
        <ele>119.2</ele>
        <time>2017-05-10T10:32:35Z</time>
      </trkpt>
      <trkpt lat="43.63703" lon="3.80532">
        <ele>120.4</ele>
        <time>2017-05-10T10:32:39Z</time>
      </trkpt>
      <trkpt lat="43.63701" lon="3.80521">
        <ele>122</ele>
        <time>2017-05-10T10:32:44Z</time>
      </trkpt>
      <trkpt lat="43.63699" lon="3.80517">
        <ele>123.6</ele>
        <time>2017-05-10T10:32:51Z</time>
      </trkpt>
      <trkpt lat="43.63698" lon="3.80507">
        <ele>125.5</ele>
        <time>2017-05-10T10:32:57Z</time>
      </trkpt>
      <trkpt lat="43.63699" lon="3.80504">
        <ele>127.1</ele>
        <time>2017-05-10T10:33:04Z</time>
      </trkpt>
      <trkpt lat="43.63696" lon="3.80491">
        <ele>129</ele>
        <time>2017-05-10T10:33:12Z</time>
      </trkpt>
      <trkpt lat="43.63694" lon="3.80488">
        <ele>130.1</ele>
        <time>2017-05-10T10:33:19Z</time>
      </trkpt>
      <trkpt lat="43.63691" lon="3.80484">
        <ele>131.1</ele>
        <time>2017-05-10T10:33:30Z</time>
      </trkpt>
      <trkpt lat="43.63687" lon="3.80475">
        <ele>132</ele>
        <time>2017-05-10T10:33:37Z</time>
      </trkpt>
      <trkpt lat="43.63683" lon="3.80468">
        <ele>132.5</ele>
        <time>2017-05-10T10:33:41Z</time>
      </trkpt>
      <trkpt lat="43.6368" lon="3.80458">
        <ele>132.9</ele>
        <time>2017-05-10T10:33:45Z</time>
      </trkpt>
      <trkpt lat="43.63674" lon="3.80451">
        <ele>133.6</ele>
        <time>2017-05-10T10:33:49Z</time>
      </trkpt>
      <trkpt lat="43.63669" lon="3.80442">
        <ele>134.6</ele>
        <time>2017-05-10T10:33:54Z</time>
      </trkpt>
      <trkpt lat="43.63664" lon="3.80435">
        <ele>135.8</ele>
        <time>2017-05-10T10:33:59Z</time>
      </trkpt>
      <trkpt lat="43.63659" lon="3.80427">
        <ele>137.6</ele>
        <time>2017-05-10T10:34:05Z</time>
      </trkpt>
      <trkpt lat="43.63655" lon="3.80418">
        <ele>139.1</ele>
        <time>2017-05-10T10:34:10Z</time>
      </trkpt>
      <trkpt lat="43.6365" lon="3.8041">
        <ele>140.4</ele>
        <time>2017-05-10T10:34:14Z</time>
      </trkpt>
      <trkpt lat="43.63646" lon="3.80401">
        <ele>141.8</ele>
        <time>2017-05-10T10:34:19Z</time>
      </trkpt>
      <trkpt lat="43.63641" lon="3.80392">
        <ele>143.2</ele>
        <time>2017-05-10T10:34:25Z</time>
      </trkpt>
      <trkpt lat="43.63635" lon="3.80383">
        <ele>144.4</ele>
        <time>2017-05-10T10:34:30Z</time>
      </trkpt>
      <trkpt lat="43.63631" lon="3.80373">
        <ele>145.3</ele>
        <time>2017-05-10T10:34:34Z</time>
      </trkpt>
      <trkpt lat="43.63625" lon="3.80366">
        <ele>146.4</ele>
        <time>2017-05-10T10:34:39Z</time>
      </trkpt>
      <trkpt lat="43.63619" lon="3.80357">
        <ele>147.5</ele>
        <time>2017-05-10T10:34:45Z</time>
      </trkpt>
      <trkpt lat="43.63614" lon="3.80349">
        <ele>148.3</ele>
        <time>2017-05-10T10:34:49Z</time>
      </trkpt>
      <trkpt lat="43.63608" lon="3.80342">
        <ele>148.9</ele>
        <time>2017-05-10T10:34:53Z</time>
      </trkpt>
      <trkpt lat="43.63602" lon="3.80331">
        <ele>149.5</ele>
        <time>2017-05-10T10:34:57Z</time>
      </trkpt>
      <trkpt lat="43.63597" lon="3.80322">
        <ele>150.2</ele>
        <time>2017-05-10T10:35:01Z</time>
      </trkpt>
      <trkpt lat="43.63598" lon="3.80311">
        <ele>150.7</ele>
        <time>2017-05-10T10:35:05Z</time>
      </trkpt>
      <trkpt lat="43.63598" lon="3.80301">
        <ele>151.1</ele>
        <time>2017-05-10T10:35:08Z</time>
      </trkpt>
      <trkpt lat="43.636" lon="3.8029">
        <ele>151.5</ele>
        <time>2017-05-10T10:35:11Z</time>
      </trkpt>
      <trkpt lat="43.636" lon="3.80278">
        <ele>151.7</ele>
        <time>2017-05-10T10:35:14Z</time>
      </trkpt>
      <trkpt lat="43.63601" lon="3.80265">
        <ele>152.1</ele>
        <time>2017-05-10T10:35:17Z</time>
      </trkpt>
      <trkpt lat="43.63603" lon="3.80252">
        <ele>152.3</ele>
        <time>2017-05-10T10:35:20Z</time>
      </trkpt>
      <trkpt lat="43.63604" lon="3.80239">
        <ele>152.4</ele>
        <time>2017-05-10T10:35:23Z</time>
      </trkpt>
      <trkpt lat="43.63604" lon="3.80225">
        <ele>152.6</ele>
        <time>2017-05-10T10:35:26Z</time>
      </trkpt>
      <trkpt lat="43.63601" lon="3.80214">
        <ele>152.3</ele>
        <time>2017-05-10T10:35:28Z</time>
      </trkpt>
      <trkpt lat="43.63595" lon="3.80204">
        <ele>151.3</ele>
        <time>2017-05-10T10:35:30Z</time>
      </trkpt>
      <trkpt lat="43.6359" lon="3.80196">
        <ele>151</ele>
        <time>2017-05-10T10:35:32Z</time>
      </trkpt>
      <trkpt lat="43.63585" lon="3.80188">
        <ele>151.5</ele>
        <time>2017-05-10T10:35:34Z</time>
      </trkpt>
      <trkpt lat="43.6358" lon="3.80179">
        <ele>151.7</ele>
        <time>2017-05-10T10:35:36Z</time>
      </trkpt>
      <trkpt lat="43.63575" lon="3.8017">
        <ele>152.7</ele>
        <time>2017-05-10T10:35:38Z</time>
      </trkpt>
      <trkpt lat="43.6357" lon="3.8016">
        <ele>153.4</ele>
        <time>2017-05-10T10:35:40Z</time>
      </trkpt>
      <trkpt lat="43.63568" lon="3.8015">
        <ele>154.5</ele>
        <time>2017-05-10T10:35:42Z</time>
      </trkpt>
      <trkpt lat="43.63563" lon="3.80139">
        <ele>155.6</ele>
        <time>2017-05-10T10:35:44Z</time>
      </trkpt>
      <trkpt lat="43.63555" lon="3.80119">
        <ele>155.7</ele>
        <time>2017-05-10T10:35:47Z</time>
      </trkpt>
      <trkpt lat="43.63549" lon="3.80103">
        <ele>156.6</ele>
        <time>2017-05-10T10:35:49Z</time>
      </trkpt>
      <trkpt lat="43.6355" lon="3.80085">
        <ele>156.5</ele>
        <time>2017-05-10T10:35:51Z</time>
      </trkpt>
      <trkpt lat="43.63556" lon="3.80075">
        <ele>156.1</ele>
        <time>2017-05-10T10:35:53Z</time>
      </trkpt>
      <trkpt lat="43.63562" lon="3.80065">
        <ele>155.7</ele>
        <time>2017-05-10T10:35:55Z</time>
      </trkpt>
      <trkpt lat="43.63568" lon="3.80052">
        <ele>155</ele>
        <time>2017-05-10T10:35:57Z</time>
      </trkpt>
      <trkpt lat="43.63574" lon="3.80038">
        <ele>154.7</ele>
        <time>2017-05-10T10:35:59Z</time>
      </trkpt>
      <trkpt lat="43.6358" lon="3.80023">
        <ele>155.1</ele>
        <time>2017-05-10T10:36:01Z</time>
      </trkpt>
      <trkpt lat="43.63586" lon="3.80009">
        <ele>155.5</ele>
        <time>2017-05-10T10:36:03Z</time>
      </trkpt>
      <trkpt lat="43.63592" lon="3.79995">
        <ele>155.4</ele>
        <time>2017-05-10T10:36:05Z</time>
      </trkpt>
      <trkpt lat="43.636" lon="3.79983">
        <ele>155.8</ele>
        <time>2017-05-10T10:36:07Z</time>
      </trkpt>
      <trkpt lat="43.63606" lon="3.79974">
        <ele>157</ele>
        <time>2017-05-10T10:36:09Z</time>
      </trkpt>
      <trkpt lat="43.63612" lon="3.79967">
        <ele>158.9</ele>
        <time>2017-05-10T10:36:11Z</time>
      </trkpt>
      <trkpt lat="43.63615" lon="3.79956">
        <ele>160.6</ele>
        <time>2017-05-10T10:36:13Z</time>
      </trkpt>
      <trkpt lat="43.6362" lon="3.79948">
        <ele>160.8</ele>
        <time>2017-05-10T10:36:15Z</time>
      </trkpt>
      <trkpt lat="43.63627" lon="3.79939">
        <ele>160.5</ele>
        <time>2017-05-10T10:36:17Z</time>
      </trkpt>
      <trkpt lat="43.63633" lon="3.79928">
        <ele>160.4</ele>
        <time>2017-05-10T10:36:19Z</time>
      </trkpt>
      <trkpt lat="43.63639" lon="3.79918">
        <ele>160.9</ele>
        <time>2017-05-10T10:36:21Z</time>
      </trkpt>
      <trkpt lat="43.63646" lon="3.79907">
        <ele>161.7</ele>
        <time>2017-05-10T10:36:23Z</time>
      </trkpt>
      <trkpt lat="43.63653" lon="3.79899">
        <ele>162</ele>
        <time>2017-05-10T10:36:25Z</time>
      </trkpt>
      <trkpt lat="43.63659" lon="3.79888">
        <ele>161.9</ele>
        <time>2017-05-10T10:36:27Z</time>
      </trkpt>
      <trkpt lat="43.63665" lon="3.79879">
        <ele>162.9</ele>
        <time>2017-05-10T10:36:29Z</time>
      </trkpt>
      <trkpt lat="43.63672" lon="3.79868">
        <ele>163.8</ele>
        <time>2017-05-10T10:36:31Z</time>
      </trkpt>
      <trkpt lat="43.63677" lon="3.79855">
        <ele>164.5</ele>
        <time>2017-05-10T10:36:33Z</time>
      </trkpt>
      <trkpt lat="43.63683" lon="3.79845">
        <ele>163.4</ele>
        <time>2017-05-10T10:36:35Z</time>
      </trkpt>
      <trkpt lat="43.6369" lon="3.79836">
        <ele>164</ele>
        <time>2017-05-10T10:36:37Z</time>
      </trkpt>
      <trkpt lat="43.63695" lon="3.79829">
        <ele>164.4</ele>
        <time>2017-05-10T10:36:39Z</time>
      </trkpt>
      <trkpt lat="43.63701" lon="3.79822">
        <ele>164.5</ele>
        <time>2017-05-10T10:36:41Z</time>
      </trkpt>
      <trkpt lat="43.63707" lon="3.79811">
        <ele>165.9</ele>
        <time>2017-05-10T10:36:43Z</time>
      </trkpt>
      <trkpt lat="43.63711" lon="3.79802">
        <ele>166.1</ele>
        <time>2017-05-10T10:36:45Z</time>
      </trkpt>
      <trkpt lat="43.63715" lon="3.79792">
        <ele>166.3</ele>
        <time>2017-05-10T10:36:47Z</time>
      </trkpt>
      <trkpt lat="43.63719" lon="3.79783">
        <ele>165.9</ele>
        <time>2017-05-10T10:36:49Z</time>
      </trkpt>
      <trkpt lat="43.63725" lon="3.79773">
        <ele>165.3</ele>
        <time>2017-05-10T10:36:51Z</time>
      </trkpt>
      <trkpt lat="43.63731" lon="3.79765">
        <ele>165.1</ele>
        <time>2017-05-10T10:36:53Z</time>
      </trkpt>
      <trkpt lat="43.63736" lon="3.79757">
        <ele>165.2</ele>
        <time>2017-05-10T10:36:55Z</time>
      </trkpt>
      <trkpt lat="43.63742" lon="3.79752">
        <ele>167</ele>
        <time>2017-05-10T10:36:57Z</time>
      </trkpt>
      <trkpt lat="43.63749" lon="3.79741">
        <ele>166.8</ele>
        <time>2017-05-10T10:37:00Z</time>
      </trkpt>
      <trkpt lat="43.63759" lon="3.79737">
        <ele>165.8</ele>
        <time>2017-05-10T10:37:02Z</time>
      </trkpt>
      <trkpt lat="43.63768" lon="3.79728">
        <ele>165.9</ele>
        <time>2017-05-10T10:37:04Z</time>
      </trkpt>
      <trkpt lat="43.63774" lon="3.79722">
        <ele>165.9</ele>
        <time>2017-05-10T10:37:06Z</time>
      </trkpt>
      <trkpt lat="43.63783" lon="3.79717">
        <ele>166.7</ele>
        <time>2017-05-10T10:37:08Z</time>
      </trkpt>
      <trkpt lat="43.63792" lon="3.79711">
        <ele>165.9</ele>
        <time>2017-05-10T10:37:10Z</time>
      </trkpt>
      <trkpt lat="43.63801" lon="3.79703">
        <ele>166.4</ele>
        <time>2017-05-10T10:37:12Z</time>
      </trkpt>
      <trkpt lat="43.63809" lon="3.79695">
        <ele>165.1</ele>
        <time>2017-05-10T10:37:14Z</time>
      </trkpt>
      <trkpt lat="43.63818" lon="3.7969">
        <ele>164.3</ele>
        <time>2017-05-10T10:37:16Z</time>
      </trkpt>
      <trkpt lat="43.63828" lon="3.7968">
        <ele>164</ele>
        <time>2017-05-10T10:37:18Z</time>
      </trkpt>
      <trkpt lat="43.6384" lon="3.79673">
        <ele>163.2</ele>
        <time>2017-05-10T10:37:20Z</time>
      </trkpt>
      <trkpt lat="43.63848" lon="3.79672">
        <ele>163.5</ele>
        <time>2017-05-10T10:37:22Z</time>
      </trkpt>
      <trkpt lat="43.63856" lon="3.79674">
        <ele>163.8</ele>
        <time>2017-05-10T10:37:24Z</time>
      </trkpt>
      <trkpt lat="43.63861" lon="3.79666">
        <ele>164.2</ele>
        <time>2017-05-10T10:37:27Z</time>
      </trkpt>
      <trkpt lat="43.63872" lon="3.79661">
        <ele>164.2</ele>
        <time>2017-05-10T10:37:30Z</time>
      </trkpt>
      <trkpt lat="43.63881" lon="3.79657">
        <ele>164.5</ele>
        <time>2017-05-10T10:37:32Z</time>
      </trkpt>
      <trkpt lat="43.63888" lon="3.79649">
        <ele>165.3</ele>
        <time>2017-05-10T10:37:34Z</time>
      </trkpt>
      <trkpt lat="43.63895" lon="3.79636">
        <ele>165.9</ele>
        <time>2017-05-10T10:37:36Z</time>
      </trkpt>
      <trkpt lat="43.63902" lon="3.79623">
        <ele>166.1</ele>
        <time>2017-05-10T10:37:38Z</time>
      </trkpt>
      <trkpt lat="43.63909" lon="3.79609">
        <ele>165.8</ele>
        <time>2017-05-10T10:37:40Z</time>
      </trkpt>
      <trkpt lat="43.63913" lon="3.79595">
        <ele>164.1</ele>
        <time>2017-05-10T10:37:42Z</time>
      </trkpt>
      <trkpt lat="43.63918" lon="3.79583">
        <ele>162.8</ele>
        <time>2017-05-10T10:37:44Z</time>
      </trkpt>
      <trkpt lat="43.63923" lon="3.79572">
        <ele>162.5</ele>
        <time>2017-05-10T10:37:46Z</time>
      </trkpt>
      <trkpt lat="43.63929" lon="3.79559">
        <ele>161.7</ele>
        <time>2017-05-10T10:37:48Z</time>
      </trkpt>
      <trkpt lat="43.63936" lon="3.79545">
        <ele>160.5</ele>
        <time>2017-05-10T10:37:50Z</time>
      </trkpt>
      <trkpt lat="43.63941" lon="3.79532">
        <ele>160.9</ele>
        <time>2017-05-10T10:37:52Z</time>
      </trkpt>
      <trkpt lat="43.63945" lon="3.79519">
        <ele>161.8</ele>
        <time>2017-05-10T10:37:54Z</time>
      </trkpt>
      <trkpt lat="43.63947" lon="3.79506">
        <ele>163.9</ele>
        <time>2017-05-10T10:37:56Z</time>
      </trkpt>
      <trkpt lat="43.63952" lon="3.79494">
        <ele>166.2</ele>
        <time>2017-05-10T10:37:58Z</time>
      </trkpt>
      <trkpt lat="43.63954" lon="3.79482">
        <ele>165.6</ele>
        <time>2017-05-10T10:38:00Z</time>
      </trkpt>
      <trkpt lat="43.63957" lon="3.79471">
        <ele>165</ele>
        <time>2017-05-10T10:38:02Z</time>
      </trkpt>
      <trkpt lat="43.6396" lon="3.7946">
        <ele>164.5</ele>
        <time>2017-05-10T10:38:04Z</time>
      </trkpt>
      <trkpt lat="43.63963" lon="3.79447">
        <ele>164.5</ele>
        <time>2017-05-10T10:38:07Z</time>
      </trkpt>
      <trkpt lat="43.63966" lon="3.79436">
        <ele>164.4</ele>
        <time>2017-05-10T10:38:09Z</time>
      </trkpt>
      <trkpt lat="43.63971" lon="3.79426">
        <ele>164.2</ele>
        <time>2017-05-10T10:38:11Z</time>
      </trkpt>
      <trkpt lat="43.63976" lon="3.79417">
        <ele>165.9</ele>
        <time>2017-05-10T10:38:13Z</time>
      </trkpt>
      <trkpt lat="43.63982" lon="3.79405">
        <ele>166.8</ele>
        <time>2017-05-10T10:38:15Z</time>
      </trkpt>
      <trkpt lat="43.6399" lon="3.79392">
        <ele>167.4</ele>
        <time>2017-05-10T10:38:17Z</time>
      </trkpt>
      <trkpt lat="43.63996" lon="3.79379">
        <ele>167.5</ele>
        <time>2017-05-10T10:38:19Z</time>
      </trkpt>
      <trkpt lat="43.64004" lon="3.79365">
        <ele>165.8</ele>
        <time>2017-05-10T10:38:21Z</time>
      </trkpt>
      <trkpt lat="43.64011" lon="3.7935">
        <ele>164.8</ele>
        <time>2017-05-10T10:38:23Z</time>
      </trkpt>
      <trkpt lat="43.64018" lon="3.79335">
        <ele>165.2</ele>
        <time>2017-05-10T10:38:25Z</time>
      </trkpt>
      <trkpt lat="43.64025" lon="3.79322">
        <ele>165.5</ele>
        <time>2017-05-10T10:38:27Z</time>
      </trkpt>
      <trkpt lat="43.64033" lon="3.79312">
        <ele>166.1</ele>
        <time>2017-05-10T10:38:29Z</time>
      </trkpt>
      <trkpt lat="43.64038" lon="3.793">
        <ele>165.5</ele>
        <time>2017-05-10T10:38:31Z</time>
      </trkpt>
      <trkpt lat="43.64043" lon="3.79287">
        <ele>166.1</ele>
        <time>2017-05-10T10:38:33Z</time>
      </trkpt>
      <trkpt lat="43.64049" lon="3.79273">
        <ele>166.2</ele>
        <time>2017-05-10T10:38:35Z</time>
      </trkpt>
      <trkpt lat="43.64056" lon="3.79259">
        <ele>166.9</ele>
        <time>2017-05-10T10:38:37Z</time>
      </trkpt>
      <trkpt lat="43.64063" lon="3.79244">
        <ele>166.4</ele>
        <time>2017-05-10T10:38:39Z</time>
      </trkpt>
      <trkpt lat="43.6407" lon="3.79231">
        <ele>165.9</ele>
        <time>2017-05-10T10:38:41Z</time>
      </trkpt>
      <trkpt lat="43.64081" lon="3.79219">
        <ele>165.5</ele>
        <time>2017-05-10T10:38:43Z</time>
      </trkpt>
      <trkpt lat="43.64094" lon="3.7921">
        <ele>166.8</ele>
        <time>2017-05-10T10:38:45Z</time>
      </trkpt>
      <trkpt lat="43.641" lon="3.79206">
        <ele>167.4</ele>
        <time>2017-05-10T10:38:46Z</time>
      </trkpt>
      <trkpt lat="43.64107" lon="3.792">
        <ele>167.4</ele>
        <time>2017-05-10T10:38:47Z</time>
      </trkpt>
      <trkpt lat="43.64114" lon="3.79196">
        <ele>167.3</ele>
        <time>2017-05-10T10:38:48Z</time>
      </trkpt>
      <trkpt lat="43.64125" lon="3.79185">
        <ele>167.9</ele>
        <time>2017-05-10T10:38:50Z</time>
      </trkpt>
      <trkpt lat="43.64135" lon="3.79174">
        <ele>168.1</ele>
        <time>2017-05-10T10:38:52Z</time>
      </trkpt>
      <trkpt lat="43.64147" lon="3.79165">
        <ele>167.3</ele>
        <time>2017-05-10T10:38:54Z</time>
      </trkpt>
      <trkpt lat="43.64157" lon="3.79155">
        <ele>165.8</ele>
        <time>2017-05-10T10:38:56Z</time>
      </trkpt>
      <trkpt lat="43.64166" lon="3.79146">
        <ele>164.9</ele>
        <time>2017-05-10T10:38:58Z</time>
      </trkpt>
      <trkpt lat="43.64172" lon="3.79137">
        <ele>165.6</ele>
        <time>2017-05-10T10:39:00Z</time>
      </trkpt>
      <trkpt lat="43.64179" lon="3.79125">
        <ele>165.6</ele>
        <time>2017-05-10T10:39:02Z</time>
      </trkpt>
      <trkpt lat="43.64186" lon="3.79112">
        <ele>167.5</ele>
        <time>2017-05-10T10:39:04Z</time>
      </trkpt>
      <trkpt lat="43.64192" lon="3.79102">
        <ele>168.5</ele>
        <time>2017-05-10T10:39:06Z</time>
      </trkpt>
      <trkpt lat="43.64197" lon="3.79092">
        <ele>169.7</ele>
        <time>2017-05-10T10:39:08Z</time>
      </trkpt>
      <trkpt lat="43.64201" lon="3.7908">
        <ele>170.5</ele>
        <time>2017-05-10T10:39:10Z</time>
      </trkpt>
      <trkpt lat="43.64206" lon="3.79064">
        <ele>169.9</ele>
        <time>2017-05-10T10:39:12Z</time>
      </trkpt>
      <trkpt lat="43.64215" lon="3.79051">
        <ele>168.5</ele>
        <time>2017-05-10T10:39:14Z</time>
      </trkpt>
      <trkpt lat="43.64222" lon="3.79043">
        <ele>168.6</ele>
        <time>2017-05-10T10:39:16Z</time>
      </trkpt>
      <trkpt lat="43.6423" lon="3.79036">
        <ele>169.3</ele>
        <time>2017-05-10T10:39:18Z</time>
      </trkpt>
      <trkpt lat="43.64236" lon="3.79028">
        <ele>171.5</ele>
        <time>2017-05-10T10:39:20Z</time>
      </trkpt>
      <trkpt lat="43.64243" lon="3.79019">
        <ele>172.6</ele>
        <time>2017-05-10T10:39:22Z</time>
      </trkpt>
      <trkpt lat="43.64253" lon="3.79019">
        <ele>172.7</ele>
        <time>2017-05-10T10:39:26Z</time>
      </trkpt>
      <trkpt lat="43.6426" lon="3.79024">
        <ele>172.5</ele>
        <time>2017-05-10T10:39:28Z</time>
      </trkpt>
      <trkpt lat="43.64266" lon="3.79034">
        <ele>172.5</ele>
        <time>2017-05-10T10:39:30Z</time>
      </trkpt>
      <trkpt lat="43.64268" lon="3.79046">
        <ele>172.6</ele>
        <time>2017-05-10T10:39:32Z</time>
      </trkpt>
      <trkpt lat="43.64274" lon="3.79058">
        <ele>171.7</ele>
        <time>2017-05-10T10:39:34Z</time>
      </trkpt>
      <trkpt lat="43.64281" lon="3.79072">
        <ele>171.3</ele>
        <time>2017-05-10T10:39:36Z</time>
      </trkpt>
      <trkpt lat="43.64284" lon="3.79087">
        <ele>171</ele>
        <time>2017-05-10T10:39:38Z</time>
      </trkpt>
      <trkpt lat="43.64285" lon="3.79098">
        <ele>170</ele>
        <time>2017-05-10T10:39:40Z</time>
      </trkpt>
      <trkpt lat="43.64286" lon="3.79112">
        <ele>169</ele>
        <time>2017-05-10T10:39:42Z</time>
      </trkpt>
      <trkpt lat="43.64288" lon="3.79124">
        <ele>169</ele>
        <time>2017-05-10T10:39:44Z</time>
      </trkpt>
      <trkpt lat="43.64289" lon="3.79137">
        <ele>169.8</ele>
        <time>2017-05-10T10:39:46Z</time>
      </trkpt>
      <trkpt lat="43.64288" lon="3.79152">
        <ele>169.7</ele>
        <time>2017-05-10T10:39:48Z</time>
      </trkpt>
      <trkpt lat="43.64286" lon="3.79168">
        <ele>168.7</ele>
        <time>2017-05-10T10:39:50Z</time>
      </trkpt>
      <trkpt lat="43.64287" lon="3.7918">
        <ele>168.2</ele>
        <time>2017-05-10T10:39:52Z</time>
      </trkpt>
      <trkpt lat="43.64288" lon="3.79191">
        <ele>167.9</ele>
        <time>2017-05-10T10:39:54Z</time>
      </trkpt>
      <trkpt lat="43.64289" lon="3.79201">
        <ele>168</ele>
        <time>2017-05-10T10:39:56Z</time>
      </trkpt>
      <trkpt lat="43.64291" lon="3.79214">
        <ele>167.8</ele>
        <time>2017-05-10T10:40:00Z</time>
      </trkpt>
      <trkpt lat="43.64292" lon="3.79224">
        <ele>167.8</ele>
        <time>2017-05-10T10:40:02Z</time>
      </trkpt>
      <trkpt lat="43.64295" lon="3.79238">
        <ele>166.9</ele>
        <time>2017-05-10T10:40:04Z</time>
      </trkpt>
      <trkpt lat="43.64291" lon="3.79251">
        <ele>166.9</ele>
        <time>2017-05-10T10:40:06Z</time>
      </trkpt>
      <trkpt lat="43.64292" lon="3.79262">
        <ele>166.9</ele>
        <time>2017-05-10T10:40:08Z</time>
      </trkpt>
      <trkpt lat="43.64294" lon="3.79273">
        <ele>165.9</ele>
        <time>2017-05-10T10:40:10Z</time>
      </trkpt>
      <trkpt lat="43.64298" lon="3.79283">
        <ele>165.7</ele>
        <time>2017-05-10T10:40:14Z</time>
      </trkpt>
      <trkpt lat="43.64306" lon="3.79285">
        <ele>163.4</ele>
        <time>2017-05-10T10:40:16Z</time>
      </trkpt>
      <trkpt lat="43.64315" lon="3.79286">
        <ele>161.7</ele>
        <time>2017-05-10T10:40:18Z</time>
      </trkpt>
      <trkpt lat="43.64326" lon="3.79289">
        <ele>159.5</ele>
        <time>2017-05-10T10:40:20Z</time>
      </trkpt>
      <trkpt lat="43.64333" lon="3.79298">
        <ele>158.4</ele>
        <time>2017-05-10T10:40:22Z</time>
      </trkpt>
      <trkpt lat="43.64337" lon="3.7931">
        <ele>157.6</ele>
        <time>2017-05-10T10:40:24Z</time>
      </trkpt>
      <trkpt lat="43.64338" lon="3.79322">
        <ele>157.6</ele>
        <time>2017-05-10T10:40:26Z</time>
      </trkpt>
      <trkpt lat="43.64341" lon="3.79338">
        <ele>156.1</ele>
        <time>2017-05-10T10:40:28Z</time>
      </trkpt>
      <trkpt lat="43.64348" lon="3.79352">
        <ele>154.3</ele>
        <time>2017-05-10T10:40:30Z</time>
      </trkpt>
      <trkpt lat="43.64355" lon="3.79367">
        <ele>151.7</ele>
        <time>2017-05-10T10:40:32Z</time>
      </trkpt>
      <trkpt lat="43.64361" lon="3.79379">
        <ele>147.9</ele>
        <time>2017-05-10T10:40:34Z</time>
      </trkpt>
      <trkpt lat="43.64369" lon="3.79385">
        <ele>147.6</ele>
        <time>2017-05-10T10:40:37Z</time>
      </trkpt>
      <trkpt lat="43.64377" lon="3.79389">
        <ele>147.3</ele>
        <time>2017-05-10T10:40:39Z</time>
      </trkpt>
      <trkpt lat="43.64386" lon="3.79391">
        <ele>147</ele>
        <time>2017-05-10T10:40:41Z</time>
      </trkpt>
      <trkpt lat="43.64395" lon="3.79391">
        <ele>146.1</ele>
        <time>2017-05-10T10:40:43Z</time>
      </trkpt>
      <trkpt lat="43.64403" lon="3.79394">
        <ele>145.9</ele>
        <time>2017-05-10T10:40:45Z</time>
      </trkpt>
      <trkpt lat="43.64405" lon="3.79404">
        <ele>145.7</ele>
        <time>2017-05-10T10:40:47Z</time>
      </trkpt>
      <trkpt lat="43.64403" lon="3.7942">
        <ele>144.3</ele>
        <time>2017-05-10T10:40:50Z</time>
      </trkpt>
      <trkpt lat="43.64395" lon="3.79428">
        <ele>143.7</ele>
        <time>2017-05-10T10:40:53Z</time>
      </trkpt>
      <trkpt lat="43.64394" lon="3.79439">
        <ele>143.1</ele>
        <time>2017-05-10T10:40:56Z</time>
      </trkpt>
      <trkpt lat="43.64401" lon="3.79443">
        <ele>142.3</ele>
        <time>2017-05-10T10:41:00Z</time>
      </trkpt>
      <trkpt lat="43.64408" lon="3.79446">
        <ele>141.7</ele>
        <time>2017-05-10T10:41:03Z</time>
      </trkpt>
      <trkpt lat="43.64416" lon="3.79449">
        <ele>141</ele>
        <time>2017-05-10T10:41:06Z</time>
      </trkpt>
      <trkpt lat="43.64426" lon="3.79446">
        <ele>140.2</ele>
        <time>2017-05-10T10:41:10Z</time>
      </trkpt>
      <trkpt lat="43.64432" lon="3.79452">
        <ele>139.6</ele>
        <time>2017-05-10T10:41:13Z</time>
      </trkpt>
      <trkpt lat="43.64442" lon="3.79449">
        <ele>138.8</ele>
        <time>2017-05-10T10:41:16Z</time>
      </trkpt>
      <trkpt lat="43.64449" lon="3.79444">
        <ele>137.7</ele>
        <time>2017-05-10T10:41:19Z</time>
      </trkpt>
      <trkpt lat="43.64456" lon="3.79442">
        <ele>136.9</ele>
        <time>2017-05-10T10:41:21Z</time>
      </trkpt>
      <trkpt lat="43.64464" lon="3.79439">
        <ele>136.1</ele>
        <time>2017-05-10T10:41:23Z</time>
      </trkpt>
      <trkpt lat="43.64473" lon="3.79439">
        <ele>135.2</ele>
        <time>2017-05-10T10:41:25Z</time>
      </trkpt>
      <trkpt lat="43.64481" lon="3.79435">
        <ele>134.5</ele>
        <time>2017-05-10T10:41:27Z</time>
      </trkpt>
      <trkpt lat="43.64492" lon="3.79432">
        <ele>130.5</ele>
        <time>2017-05-10T10:41:29Z</time>
      </trkpt>
      <trkpt lat="43.64502" lon="3.79429">
        <ele>124.7</ele>
        <time>2017-05-10T10:41:31Z</time>
      </trkpt>
      <trkpt lat="43.64511" lon="3.7943">
        <ele>124.4</ele>
        <time>2017-05-10T10:41:33Z</time>
      </trkpt>
      <trkpt lat="43.6452" lon="3.79428">
        <ele>120.7</ele>
        <time>2017-05-10T10:41:35Z</time>
      </trkpt>
      <trkpt lat="43.64528" lon="3.79429">
        <ele>120.5</ele>
        <time>2017-05-10T10:41:37Z</time>
      </trkpt>
      <trkpt lat="43.64538" lon="3.79431">
        <ele>119.2</ele>
        <time>2017-05-10T10:41:39Z</time>
      </trkpt>
      <trkpt lat="43.6455" lon="3.79434">
        <ele>116.6</ele>
        <time>2017-05-10T10:41:41Z</time>
      </trkpt>
      <trkpt lat="43.64561" lon="3.79432">
        <ele>114.8</ele>
        <time>2017-05-10T10:41:43Z</time>
      </trkpt>
      <trkpt lat="43.64573" lon="3.79434">
        <ele>113.6</ele>
        <time>2017-05-10T10:41:45Z</time>
      </trkpt>
      <trkpt lat="43.64581" lon="3.79435">
        <ele>113.3</ele>
        <time>2017-05-10T10:41:49Z</time>
      </trkpt>
      <trkpt lat="43.64589" lon="3.79433">
        <ele>112.7</ele>
        <time>2017-05-10T10:41:53Z</time>
      </trkpt>
      <trkpt lat="43.64596" lon="3.79427">
        <ele>109.6</ele>
        <time>2017-05-10T10:41:55Z</time>
      </trkpt>
      <trkpt lat="43.64604" lon="3.79417">
        <ele>108.5</ele>
        <time>2017-05-10T10:41:58Z</time>
      </trkpt>
      <trkpt lat="43.6461" lon="3.7941">
        <ele>108.2</ele>
        <time>2017-05-10T10:42:00Z</time>
      </trkpt>
      <trkpt lat="43.64615" lon="3.79403">
        <ele>108</ele>
        <time>2017-05-10T10:42:02Z</time>
      </trkpt>
      <trkpt lat="43.64623" lon="3.79393">
        <ele>107.7</ele>
        <time>2017-05-10T10:42:05Z</time>
      </trkpt>
      <trkpt lat="43.64629" lon="3.79386">
        <ele>107.6</ele>
        <time>2017-05-10T10:42:07Z</time>
      </trkpt>
      <trkpt lat="43.64634" lon="3.79377">
        <ele>106.6</ele>
        <time>2017-05-10T10:42:09Z</time>
      </trkpt>
      <trkpt lat="43.64637" lon="3.79364">
        <ele>106.2</ele>
        <time>2017-05-10T10:42:13Z</time>
      </trkpt>
      <trkpt lat="43.6464" lon="3.79354">
        <ele>106.2</ele>
        <time>2017-05-10T10:42:15Z</time>
      </trkpt>
      <trkpt lat="43.64644" lon="3.79344">
        <ele>106.2</ele>
        <time>2017-05-10T10:42:17Z</time>
      </trkpt>
      <trkpt lat="43.64647" lon="3.79333">
        <ele>106.1</ele>
        <time>2017-05-10T10:42:19Z</time>
      </trkpt>
      <trkpt lat="43.64649" lon="3.79323">
        <ele>106</ele>
        <time>2017-05-10T10:42:21Z</time>
      </trkpt>
      <trkpt lat="43.64651" lon="3.7931">
        <ele>104.9</ele>
        <time>2017-05-10T10:42:23Z</time>
      </trkpt>
      <trkpt lat="43.64654" lon="3.79301">
        <ele>104.8</ele>
        <time>2017-05-10T10:42:25Z</time>
      </trkpt>
      <trkpt lat="43.64658" lon="3.79291">
        <ele>104.8</ele>
        <time>2017-05-10T10:42:27Z</time>
      </trkpt>
      <trkpt lat="43.64663" lon="3.79283">
        <ele>105.6</ele>
        <time>2017-05-10T10:42:29Z</time>
      </trkpt>
      <trkpt lat="43.64675" lon="3.79279">
        <ele>107.5</ele>
        <time>2017-05-10T10:42:31Z</time>
      </trkpt>
      <trkpt lat="43.64685" lon="3.79275">
        <ele>107.6</ele>
        <time>2017-05-10T10:42:33Z</time>
      </trkpt>
      <trkpt lat="43.64693" lon="3.79269">
        <ele>107.5</ele>
        <time>2017-05-10T10:42:35Z</time>
      </trkpt>
      <trkpt lat="43.64699" lon="3.79253">
        <ele>107</ele>
        <time>2017-05-10T10:42:37Z</time>
      </trkpt>
      <trkpt lat="43.64703" lon="3.79244">
        <ele>107.1</ele>
        <time>2017-05-10T10:42:39Z</time>
      </trkpt>
      <trkpt lat="43.64706" lon="3.79234">
        <ele>107.6</ele>
        <time>2017-05-10T10:42:41Z</time>
      </trkpt>
      <trkpt lat="43.64709" lon="3.79224">
        <ele>108.1</ele>
        <time>2017-05-10T10:42:44Z</time>
      </trkpt>
      <trkpt lat="43.64711" lon="3.79213">
        <ele>108.9</ele>
        <time>2017-05-10T10:42:46Z</time>
      </trkpt>
      <trkpt lat="43.6471" lon="3.792">
        <ele>108.9</ele>
        <time>2017-05-10T10:42:50Z</time>
      </trkpt>
      <trkpt lat="43.6471" lon="3.79198">
        <ele>109.3</ele>
        <time>2017-05-10T10:42:57Z</time>
      </trkpt>
      <trkpt lat="43.64708" lon="3.79215">
        <ele>112</ele>
        <time>2017-05-10T10:43:09Z</time>
      </trkpt>
      <trkpt lat="43.64709" lon="3.79233">
        <ele>114.6</ele>
        <time>2017-05-10T10:43:11Z</time>
      </trkpt>
      <trkpt lat="43.64712" lon="3.79247">
        <ele>115.4</ele>
        <time>2017-05-10T10:43:13Z</time>
      </trkpt>
      <trkpt lat="43.64711" lon="3.79247">
        <ele>113.9</ele>
        <time>2017-05-10T10:43:20Z</time>
      </trkpt>
      <trkpt lat="43.6471" lon="3.79229">
        <ele>113.1</ele>
        <time>2017-05-10T10:43:24Z</time>
      </trkpt>
      <trkpt lat="43.64712" lon="3.79216">
        <ele>112.5</ele>
        <time>2017-05-10T10:43:28Z</time>
      </trkpt>
      <trkpt lat="43.64711" lon="3.79205">
        <ele>111.9</ele>
        <time>2017-05-10T10:43:31Z</time>
      </trkpt>
      <trkpt lat="43.6471" lon="3.79192">
        <ele>111.1</ele>
        <time>2017-05-10T10:43:38Z</time>
      </trkpt>
      <trkpt lat="43.64716" lon="3.79185">
        <ele>110.9</ele>
        <time>2017-05-10T10:43:41Z</time>
      </trkpt>
      <trkpt lat="43.64723" lon="3.79176">
        <ele>111</ele>
        <time>2017-05-10T10:43:44Z</time>
      </trkpt>
      <trkpt lat="43.64729" lon="3.7917">
        <ele>111.5</ele>
        <time>2017-05-10T10:43:47Z</time>
      </trkpt>
      <trkpt lat="43.64735" lon="3.79163">
        <ele>111.9</ele>
        <time>2017-05-10T10:43:50Z</time>
      </trkpt>
      <trkpt lat="43.64741" lon="3.79158">
        <ele>112.5</ele>
        <time>2017-05-10T10:43:53Z</time>
      </trkpt>
      <trkpt lat="43.64748" lon="3.79152">
        <ele>114.6</ele>
        <time>2017-05-10T10:43:55Z</time>
      </trkpt>
      <trkpt lat="43.64755" lon="3.79144">
        <ele>116.3</ele>
        <time>2017-05-10T10:43:58Z</time>
      </trkpt>
      <trkpt lat="43.64762" lon="3.79139">
        <ele>116.9</ele>
        <time>2017-05-10T10:44:02Z</time>
      </trkpt>
      <trkpt lat="43.64768" lon="3.79132">
        <ele>117.2</ele>
        <time>2017-05-10T10:44:06Z</time>
      </trkpt>
      <trkpt lat="43.64774" lon="3.79124">
        <ele>117.1</ele>
        <time>2017-05-10T10:44:10Z</time>
      </trkpt>
      <trkpt lat="43.64785" lon="3.79119">
        <ele>116</ele>
        <time>2017-05-10T10:44:13Z</time>
      </trkpt>
      <trkpt lat="43.64793" lon="3.79118">
        <ele>115.3</ele>
        <time>2017-05-10T10:44:15Z</time>
      </trkpt>
      <trkpt lat="43.64801" lon="3.79111">
        <ele>116.1</ele>
        <time>2017-05-10T10:44:17Z</time>
      </trkpt>
      <trkpt lat="43.6481" lon="3.79104">
        <ele>116.5</ele>
        <time>2017-05-10T10:44:19Z</time>
      </trkpt>
      <trkpt lat="43.64817" lon="3.79096">
        <ele>116.4</ele>
        <time>2017-05-10T10:44:21Z</time>
      </trkpt>
      <trkpt lat="43.64825" lon="3.79088">
        <ele>117.8</ele>
        <time>2017-05-10T10:44:23Z</time>
      </trkpt>
      <trkpt lat="43.64831" lon="3.7908">
        <ele>117.2</ele>
        <time>2017-05-10T10:44:25Z</time>
      </trkpt>
      <trkpt lat="43.6484" lon="3.79071">
        <ele>117.5</ele>
        <time>2017-05-10T10:44:27Z</time>
      </trkpt>
      <trkpt lat="43.6485" lon="3.79066">
        <ele>115.6</ele>
        <time>2017-05-10T10:44:29Z</time>
      </trkpt>
      <trkpt lat="43.6486" lon="3.79059">
        <ele>113.4</ele>
        <time>2017-05-10T10:44:31Z</time>
      </trkpt>
      <trkpt lat="43.64868" lon="3.79051">
        <ele>111.3</ele>
        <time>2017-05-10T10:44:33Z</time>
      </trkpt>
      <trkpt lat="43.64878" lon="3.79045">
        <ele>109.8</ele>
        <time>2017-05-10T10:44:35Z</time>
      </trkpt>
      <trkpt lat="43.64886" lon="3.79038">
        <ele>108.8</ele>
        <time>2017-05-10T10:44:37Z</time>
      </trkpt>
      <trkpt lat="43.64896" lon="3.79031">
        <ele>108.9</ele>
        <time>2017-05-10T10:44:40Z</time>
      </trkpt>
      <trkpt lat="43.64905" lon="3.79028">
        <ele>109.3</ele>
        <time>2017-05-10T10:44:42Z</time>
      </trkpt>
      <trkpt lat="43.64914" lon="3.79025">
        <ele>109</ele>
        <time>2017-05-10T10:44:44Z</time>
      </trkpt>
      <trkpt lat="43.64923" lon="3.79018">
        <ele>108.4</ele>
        <time>2017-05-10T10:44:46Z</time>
      </trkpt>
      <trkpt lat="43.64934" lon="3.79009">
        <ele>107.5</ele>
        <time>2017-05-10T10:44:48Z</time>
      </trkpt>
      <trkpt lat="43.64942" lon="3.79001">
        <ele>107.2</ele>
        <time>2017-05-10T10:44:50Z</time>
      </trkpt>
      <trkpt lat="43.6495" lon="3.78995">
        <ele>107.3</ele>
        <time>2017-05-10T10:44:53Z</time>
      </trkpt>
      <trkpt lat="43.64956" lon="3.7899">
        <ele>107.1</ele>
        <time>2017-05-10T10:44:55Z</time>
      </trkpt>
      <trkpt lat="43.64963" lon="3.78984">
        <ele>107</ele>
        <time>2017-05-10T10:44:57Z</time>
      </trkpt>
      <trkpt lat="43.6497" lon="3.7898">
        <ele>107</ele>
        <time>2017-05-10T10:44:59Z</time>
      </trkpt>
      <trkpt lat="43.64977" lon="3.78973">
        <ele>105.7</ele>
        <time>2017-05-10T10:45:01Z</time>
      </trkpt>
      <trkpt lat="43.64983" lon="3.78967">
        <ele>105.5</ele>
        <time>2017-05-10T10:45:03Z</time>
      </trkpt>
      <trkpt lat="43.6499" lon="3.78961">
        <ele>105.7</ele>
        <time>2017-05-10T10:45:05Z</time>
      </trkpt>
      <trkpt lat="43.65001" lon="3.78952">
        <ele>106.2</ele>
        <time>2017-05-10T10:45:07Z</time>
      </trkpt>
      <trkpt lat="43.6501" lon="3.78944">
        <ele>106.7</ele>
        <time>2017-05-10T10:45:09Z</time>
      </trkpt>
      <trkpt lat="43.65018" lon="3.78938">
        <ele>106.6</ele>
        <time>2017-05-10T10:45:11Z</time>
      </trkpt>
      <trkpt lat="43.65025" lon="3.7893">
        <ele>106.6</ele>
        <time>2017-05-10T10:45:14Z</time>
      </trkpt>
      <trkpt lat="43.65032" lon="3.78924">
        <ele>106.6</ele>
        <time>2017-05-10T10:45:16Z</time>
      </trkpt>
      <trkpt lat="43.65039" lon="3.78921">
        <ele>106.6</ele>
        <time>2017-05-10T10:45:18Z</time>
      </trkpt>
      <trkpt lat="43.65047" lon="3.78915">
        <ele>106.5</ele>
        <time>2017-05-10T10:45:20Z</time>
      </trkpt>
      <trkpt lat="43.65052" lon="3.78906">
        <ele>106.7</ele>
        <time>2017-05-10T10:45:22Z</time>
      </trkpt>
      <trkpt lat="43.65057" lon="3.78898">
        <ele>106.8</ele>
        <time>2017-05-10T10:45:24Z</time>
      </trkpt>
      <trkpt lat="43.65063" lon="3.7889">
        <ele>106</ele>
        <time>2017-05-10T10:45:26Z</time>
      </trkpt>
      <trkpt lat="43.65068" lon="3.78899">
        <ele>106.2</ele>
        <time>2017-05-10T10:45:29Z</time>
      </trkpt>
      <trkpt lat="43.65075" lon="3.7891">
        <ele>106.4</ele>
        <time>2017-05-10T10:45:32Z</time>
      </trkpt>
      <trkpt lat="43.65079" lon="3.78922">
        <ele>106.6</ele>
        <time>2017-05-10T10:45:34Z</time>
      </trkpt>
      <trkpt lat="43.65083" lon="3.78934">
        <ele>106.6</ele>
        <time>2017-05-10T10:45:36Z</time>
      </trkpt>
      <trkpt lat="43.65086" lon="3.78945">
        <ele>105.6</ele>
        <time>2017-05-10T10:45:38Z</time>
      </trkpt>
      <trkpt lat="43.65088" lon="3.78956">
        <ele>105.6</ele>
        <time>2017-05-10T10:45:40Z</time>
      </trkpt>
      <trkpt lat="43.65091" lon="3.78967">
        <ele>105.3</ele>
        <time>2017-05-10T10:45:42Z</time>
      </trkpt>
      <trkpt lat="43.65093" lon="3.78976">
        <ele>104.5</ele>
        <time>2017-05-10T10:45:44Z</time>
      </trkpt>
      <trkpt lat="43.65095" lon="3.78986">
        <ele>102.8</ele>
        <time>2017-05-10T10:45:46Z</time>
      </trkpt>
      <trkpt lat="43.65095" lon="3.79002">
        <ele>101.7</ele>
        <time>2017-05-10T10:45:48Z</time>
      </trkpt>
      <trkpt lat="43.65095" lon="3.79018">
        <ele>101.6</ele>
        <time>2017-05-10T10:45:50Z</time>
      </trkpt>
      <trkpt lat="43.65091" lon="3.79033">
        <ele>102.5</ele>
        <time>2017-05-10T10:45:52Z</time>
      </trkpt>
      <trkpt lat="43.65087" lon="3.79044">
        <ele>103</ele>
        <time>2017-05-10T10:45:54Z</time>
      </trkpt>
      <trkpt lat="43.65083" lon="3.79054">
        <ele>103.9</ele>
        <time>2017-05-10T10:45:56Z</time>
      </trkpt>
      <trkpt lat="43.65076" lon="3.79064">
        <ele>104.7</ele>
        <time>2017-05-10T10:45:58Z</time>
      </trkpt>
      <trkpt lat="43.65071" lon="3.79071">
        <ele>105.1</ele>
        <time>2017-05-10T10:46:00Z</time>
      </trkpt>
      <trkpt lat="43.6507" lon="3.79081">
        <ele>105.4</ele>
        <time>2017-05-10T10:46:04Z</time>
      </trkpt>
      <trkpt lat="43.65078" lon="3.79083">
        <ele>105.5</ele>
        <time>2017-05-10T10:46:09Z</time>
      </trkpt>
      <trkpt lat="43.65086" lon="3.79078">
        <ele>106.2</ele>
        <time>2017-05-10T10:46:11Z</time>
      </trkpt>
      <trkpt lat="43.65094" lon="3.79074">
        <ele>106.4</ele>
        <time>2017-05-10T10:46:14Z</time>
      </trkpt>
      <trkpt lat="43.65104" lon="3.79069">
        <ele>106.6</ele>
        <time>2017-05-10T10:46:17Z</time>
      </trkpt>
      <trkpt lat="43.65112" lon="3.79065">
        <ele>106.9</ele>
        <time>2017-05-10T10:46:19Z</time>
      </trkpt>
      <trkpt lat="43.65119" lon="3.79062">
        <ele>108.3</ele>
        <time>2017-05-10T10:46:21Z</time>
      </trkpt>
      <trkpt lat="43.65126" lon="3.79057">
        <ele>108.3</ele>
        <time>2017-05-10T10:46:23Z</time>
      </trkpt>
      <trkpt lat="43.65133" lon="3.79056">
        <ele>108.5</ele>
        <time>2017-05-10T10:46:25Z</time>
      </trkpt>
      <trkpt lat="43.65143" lon="3.79054">
        <ele>107.7</ele>
        <time>2017-05-10T10:46:27Z</time>
      </trkpt>
      <trkpt lat="43.65152" lon="3.79053">
        <ele>108</ele>
        <time>2017-05-10T10:46:29Z</time>
      </trkpt>
      <trkpt lat="43.65162" lon="3.79052">
        <ele>108.3</ele>
        <time>2017-05-10T10:46:31Z</time>
      </trkpt>
      <trkpt lat="43.65173" lon="3.79051">
        <ele>108.9</ele>
        <time>2017-05-10T10:46:33Z</time>
      </trkpt>
      <trkpt lat="43.65183" lon="3.79051">
        <ele>109.2</ele>
        <time>2017-05-10T10:46:35Z</time>
      </trkpt>
      <trkpt lat="43.65191" lon="3.79051">
        <ele>109.2</ele>
        <time>2017-05-10T10:46:38Z</time>
      </trkpt>
      <trkpt lat="43.65199" lon="3.79057">
        <ele>109.2</ele>
        <time>2017-05-10T10:46:43Z</time>
      </trkpt>
      <trkpt lat="43.652" lon="3.79067">
        <ele>110.8</ele>
        <time>2017-05-10T10:46:45Z</time>
      </trkpt>
      <trkpt lat="43.65208" lon="3.79071">
        <ele>110.9</ele>
        <time>2017-05-10T10:46:49Z</time>
      </trkpt>
      <trkpt lat="43.65217" lon="3.79075">
        <ele>110.4</ele>
        <time>2017-05-10T10:46:52Z</time>
      </trkpt>
      <trkpt lat="43.65224" lon="3.79079">
        <ele>110.8</ele>
        <time>2017-05-10T10:46:54Z</time>
      </trkpt>
      <trkpt lat="43.65231" lon="3.79082">
        <ele>110.7</ele>
        <time>2017-05-10T10:46:56Z</time>
      </trkpt>
      <trkpt lat="43.65238" lon="3.79089">
        <ele>109.8</ele>
        <time>2017-05-10T10:46:58Z</time>
      </trkpt>
      <trkpt lat="43.65246" lon="3.79096">
        <ele>109.4</ele>
        <time>2017-05-10T10:47:01Z</time>
      </trkpt>
      <trkpt lat="43.65253" lon="3.79103">
        <ele>108.9</ele>
        <time>2017-05-10T10:47:05Z</time>
      </trkpt>
      <trkpt lat="43.65255" lon="3.79114">
        <ele>108.9</ele>
        <time>2017-05-10T10:47:09Z</time>
      </trkpt>
      <trkpt lat="43.65249" lon="3.79118">
        <ele>109.4</ele>
        <time>2017-05-10T10:47:14Z</time>
      </trkpt>
      <trkpt lat="43.65241" lon="3.79118">
        <ele>110</ele>
        <time>2017-05-10T10:47:19Z</time>
      </trkpt>
      <trkpt lat="43.65232" lon="3.79117">
        <ele>110.9</ele>
        <time>2017-05-10T10:47:24Z</time>
      </trkpt>
      <trkpt lat="43.65224" lon="3.79117">
        <ele>111.6</ele>
        <time>2017-05-10T10:47:28Z</time>
      </trkpt>
      <trkpt lat="43.65216" lon="3.79119">
        <ele>112.1</ele>
        <time>2017-05-10T10:47:32Z</time>
      </trkpt>
      <trkpt lat="43.65208" lon="3.79122">
        <ele>113</ele>
        <time>2017-05-10T10:47:37Z</time>
      </trkpt>
      <trkpt lat="43.652" lon="3.79125">
        <ele>114.3</ele>
        <time>2017-05-10T10:47:42Z</time>
      </trkpt>
      <trkpt lat="43.65192" lon="3.79128">
        <ele>114.8</ele>
        <time>2017-05-10T10:47:45Z</time>
      </trkpt>
      <trkpt lat="43.65185" lon="3.79131">
        <ele>115.9</ele>
        <time>2017-05-10T10:47:49Z</time>
      </trkpt>
      <trkpt lat="43.65178" lon="3.79133">
        <ele>117.7</ele>
        <time>2017-05-10T10:47:54Z</time>
      </trkpt>
      <trkpt lat="43.6517" lon="3.79138">
        <ele>119.4</ele>
        <time>2017-05-10T10:47:59Z</time>
      </trkpt>
      <trkpt lat="43.65163" lon="3.79142">
        <ele>121</ele>
        <time>2017-05-10T10:48:04Z</time>
      </trkpt>
      <trkpt lat="43.65156" lon="3.79148">
        <ele>121.7</ele>
        <time>2017-05-10T10:48:08Z</time>
      </trkpt>
      <trkpt lat="43.65151" lon="3.79153">
        <ele>123.3</ele>
        <time>2017-05-10T10:48:15Z</time>
      </trkpt>
      <trkpt lat="43.65144" lon="3.7916">
        <ele>124.3</ele>
        <time>2017-05-10T10:48:19Z</time>
      </trkpt>
      <trkpt lat="43.65139" lon="3.79168">
        <ele>125.3</ele>
        <time>2017-05-10T10:48:23Z</time>
      </trkpt>
      <trkpt lat="43.65133" lon="3.79178">
        <ele>126.7</ele>
        <time>2017-05-10T10:48:28Z</time>
      </trkpt>
      <trkpt lat="43.6513" lon="3.79186">
        <ele>127.4</ele>
        <time>2017-05-10T10:48:31Z</time>
      </trkpt>
      <trkpt lat="43.65126" lon="3.79197">
        <ele>128.4</ele>
        <time>2017-05-10T10:48:35Z</time>
      </trkpt>
      <trkpt lat="43.65121" lon="3.79207">
        <ele>129.7</ele>
        <time>2017-05-10T10:48:40Z</time>
      </trkpt>
      <trkpt lat="43.65117" lon="3.7922">
        <ele>130.5</ele>
        <time>2017-05-10T10:48:44Z</time>
      </trkpt>
      <trkpt lat="43.65111" lon="3.79227">
        <ele>130.9</ele>
        <time>2017-05-10T10:48:46Z</time>
      </trkpt>
      <trkpt lat="43.65109" lon="3.79238">
        <ele>131.9</ele>
        <time>2017-05-10T10:48:50Z</time>
      </trkpt>
      <trkpt lat="43.65105" lon="3.79247">
        <ele>133.2</ele>
        <time>2017-05-10T10:48:56Z</time>
      </trkpt>
      <trkpt lat="43.65108" lon="3.79256">
        <ele>135.7</ele>
        <time>2017-05-10T10:49:03Z</time>
      </trkpt>
      <trkpt lat="43.65107" lon="3.79267">
        <ele>137.1</ele>
        <time>2017-05-10T10:49:08Z</time>
      </trkpt>
      <trkpt lat="43.65107" lon="3.79277">
        <ele>139</ele>
        <time>2017-05-10T10:49:14Z</time>
      </trkpt>
      <trkpt lat="43.65107" lon="3.79288">
        <ele>140.5</ele>
        <time>2017-05-10T10:49:20Z</time>
      </trkpt>
      <trkpt lat="43.65109" lon="3.79298">
        <ele>142</ele>
        <time>2017-05-10T10:49:26Z</time>
      </trkpt>
      <trkpt lat="43.65114" lon="3.79306">
        <ele>143.1</ele>
        <time>2017-05-10T10:49:31Z</time>
      </trkpt>
      <trkpt lat="43.65116" lon="3.79316">
        <ele>144.3</ele>
        <time>2017-05-10T10:49:36Z</time>
      </trkpt>
      <trkpt lat="43.65116" lon="3.7933">
        <ele>148.5</ele>
        <time>2017-05-10T10:49:49Z</time>
      </trkpt>
      <trkpt lat="43.65116" lon="3.79334">
        <ele>150.1</ele>
        <time>2017-05-10T10:49:56Z</time>
      </trkpt>
      <trkpt lat="43.65115" lon="3.79345">
        <ele>150.4</ele>
        <time>2017-05-10T10:50:03Z</time>
      </trkpt>
      <trkpt lat="43.65118" lon="3.79355">
        <ele>150.7</ele>
        <time>2017-05-10T10:50:07Z</time>
      </trkpt>
      <trkpt lat="43.65123" lon="3.79365">
        <ele>151.4</ele>
        <time>2017-05-10T10:50:13Z</time>
      </trkpt>
      <trkpt lat="43.65127" lon="3.79374">
        <ele>152.3</ele>
        <time>2017-05-10T10:50:20Z</time>
      </trkpt>
      <trkpt lat="43.65132" lon="3.79382">
        <ele>153.6</ele>
        <time>2017-05-10T10:50:27Z</time>
      </trkpt>
      <trkpt lat="43.65136" lon="3.79392">
        <ele>154.7</ele>
        <time>2017-05-10T10:50:32Z</time>
      </trkpt>
      <trkpt lat="43.65141" lon="3.79398">
        <ele>155.7</ele>
        <time>2017-05-10T10:50:37Z</time>
      </trkpt>
      <trkpt lat="43.65145" lon="3.7941">
        <ele>156.4</ele>
        <time>2017-05-10T10:50:42Z</time>
      </trkpt>
      <trkpt lat="43.65149" lon="3.79419">
        <ele>156.9</ele>
        <time>2017-05-10T10:50:45Z</time>
      </trkpt>
      <trkpt lat="43.65153" lon="3.79428">
        <ele>157.5</ele>
        <time>2017-05-10T10:50:48Z</time>
      </trkpt>
      <trkpt lat="43.65156" lon="3.79439">
        <ele>158.3</ele>
        <time>2017-05-10T10:50:53Z</time>
      </trkpt>
      <trkpt lat="43.6516" lon="3.7945">
        <ele>158.9</ele>
        <time>2017-05-10T10:50:57Z</time>
      </trkpt>
      <trkpt lat="43.65162" lon="3.79461">
        <ele>159.7</ele>
        <time>2017-05-10T10:51:01Z</time>
      </trkpt>
      <trkpt lat="43.65166" lon="3.7947">
        <ele>160.3</ele>
        <time>2017-05-10T10:51:06Z</time>
      </trkpt>
      <trkpt lat="43.65169" lon="3.7948">
        <ele>160.9</ele>
        <time>2017-05-10T10:51:10Z</time>
      </trkpt>
      <trkpt lat="43.6517" lon="3.79491">
        <ele>161.7</ele>
        <time>2017-05-10T10:51:14Z</time>
      </trkpt>
      <trkpt lat="43.65177" lon="3.79496">
        <ele>162.5</ele>
        <time>2017-05-10T10:51:18Z</time>
      </trkpt>
      <trkpt lat="43.65184" lon="3.795">
        <ele>162.9</ele>
        <time>2017-05-10T10:51:21Z</time>
      </trkpt>
      <trkpt lat="43.65191" lon="3.79503">
        <ele>163.5</ele>
        <time>2017-05-10T10:51:24Z</time>
      </trkpt>
      <trkpt lat="43.65199" lon="3.79509">
        <ele>164.4</ele>
        <time>2017-05-10T10:51:28Z</time>
      </trkpt>
      <trkpt lat="43.65203" lon="3.7952">
        <ele>165.6</ele>
        <time>2017-05-10T10:51:34Z</time>
      </trkpt>
      <trkpt lat="43.65203" lon="3.79534">
        <ele>165.8</ele>
        <time>2017-05-10T10:51:36Z</time>
      </trkpt>
      <trkpt lat="43.65202" lon="3.79545">
        <ele>166.1</ele>
        <time>2017-05-10T10:51:38Z</time>
      </trkpt>
      <trkpt lat="43.65203" lon="3.79558">
        <ele>167.7</ele>
        <time>2017-05-10T10:51:41Z</time>
      </trkpt>
      <trkpt lat="43.65203" lon="3.7957">
        <ele>169.3</ele>
        <time>2017-05-10T10:51:43Z</time>
      </trkpt>
      <trkpt lat="43.65205" lon="3.79583">
        <ele>169.5</ele>
        <time>2017-05-10T10:51:45Z</time>
      </trkpt>
      <trkpt lat="43.65209" lon="3.79593">
        <ele>169</ele>
        <time>2017-05-10T10:51:47Z</time>
      </trkpt>
      <trkpt lat="43.65212" lon="3.79604">
        <ele>166.1</ele>
        <time>2017-05-10T10:51:49Z</time>
      </trkpt>
      <trkpt lat="43.65213" lon="3.79614">
        <ele>164.4</ele>
        <time>2017-05-10T10:51:51Z</time>
      </trkpt>
      <trkpt lat="43.65215" lon="3.79626">
        <ele>164.5</ele>
        <time>2017-05-10T10:51:54Z</time>
      </trkpt>
      <trkpt lat="43.65216" lon="3.79637">
        <ele>164.8</ele>
        <time>2017-05-10T10:51:57Z</time>
      </trkpt>
      <trkpt lat="43.65213" lon="3.79648">
        <ele>165.1</ele>
        <time>2017-05-10T10:52:00Z</time>
      </trkpt>
      <trkpt lat="43.65212" lon="3.79661">
        <ele>165.3</ele>
        <time>2017-05-10T10:52:03Z</time>
      </trkpt>
      <trkpt lat="43.65216" lon="3.79673">
        <ele>165.6</ele>
        <time>2017-05-10T10:52:06Z</time>
      </trkpt>
      <trkpt lat="43.65223" lon="3.79681">
        <ele>165.8</ele>
        <time>2017-05-10T10:52:10Z</time>
      </trkpt>
      <trkpt lat="43.65229" lon="3.7969">
        <ele>166.5</ele>
        <time>2017-05-10T10:52:17Z</time>
      </trkpt>
      <trkpt lat="43.65236" lon="3.79697">
        <ele>167.3</ele>
        <time>2017-05-10T10:52:22Z</time>
      </trkpt>
      <trkpt lat="43.65243" lon="3.79703">
        <ele>168.1</ele>
        <time>2017-05-10T10:52:27Z</time>
      </trkpt>
      <trkpt lat="43.65249" lon="3.79711">
        <ele>168.8</ele>
        <time>2017-05-10T10:52:32Z</time>
      </trkpt>
      <trkpt lat="43.65255" lon="3.79719">
        <ele>169.6</ele>
        <time>2017-05-10T10:52:37Z</time>
      </trkpt>
      <trkpt lat="43.65261" lon="3.79726">
        <ele>170.3</ele>
        <time>2017-05-10T10:52:41Z</time>
      </trkpt>
      <trkpt lat="43.65265" lon="3.79736">
        <ele>171.5</ele>
        <time>2017-05-10T10:52:47Z</time>
      </trkpt>
      <trkpt lat="43.65268" lon="3.79746">
        <ele>172.9</ele>
        <time>2017-05-10T10:52:52Z</time>
      </trkpt>
      <trkpt lat="43.65271" lon="3.79756">
        <ele>174.5</ele>
        <time>2017-05-10T10:52:58Z</time>
      </trkpt>
      <trkpt lat="43.65276" lon="3.79764">
        <ele>175.5</ele>
        <time>2017-05-10T10:53:02Z</time>
      </trkpt>
      <trkpt lat="43.65283" lon="3.79769">
        <ele>176.6</ele>
        <time>2017-05-10T10:53:07Z</time>
      </trkpt>
      <trkpt lat="43.65289" lon="3.79775">
        <ele>177.2</ele>
        <time>2017-05-10T10:53:11Z</time>
      </trkpt>
      <trkpt lat="43.65294" lon="3.7978">
        <ele>177.8</ele>
        <time>2017-05-10T10:53:15Z</time>
      </trkpt>
      <trkpt lat="43.65302" lon="3.79786">
        <ele>178.7</ele>
        <time>2017-05-10T10:53:20Z</time>
      </trkpt>
      <trkpt lat="43.6531" lon="3.79791">
        <ele>179.9</ele>
        <time>2017-05-10T10:53:25Z</time>
      </trkpt>
      <trkpt lat="43.65315" lon="3.79797">
        <ele>180.7</ele>
        <time>2017-05-10T10:53:29Z</time>
      </trkpt>
      <trkpt lat="43.65322" lon="3.79803">
        <ele>181.6</ele>
        <time>2017-05-10T10:53:33Z</time>
      </trkpt>
      <trkpt lat="43.65328" lon="3.79808">
        <ele>182.6</ele>
        <time>2017-05-10T10:53:38Z</time>
      </trkpt>
      <trkpt lat="43.65335" lon="3.79815">
        <ele>183.4</ele>
        <time>2017-05-10T10:53:42Z</time>
      </trkpt>
      <trkpt lat="43.65342" lon="3.7982">
        <ele>184.2</ele>
        <time>2017-05-10T10:53:46Z</time>
      </trkpt>
      <trkpt lat="43.65348" lon="3.79826">
        <ele>185</ele>
        <time>2017-05-10T10:53:50Z</time>
      </trkpt>
      <trkpt lat="43.65356" lon="3.79834">
        <ele>185.5</ele>
        <time>2017-05-10T10:53:54Z</time>
      </trkpt>
      <trkpt lat="43.65363" lon="3.7984">
        <ele>185.9</ele>
        <time>2017-05-10T10:53:57Z</time>
      </trkpt>
      <trkpt lat="43.6537" lon="3.79848">
        <ele>186.2</ele>
        <time>2017-05-10T10:54:00Z</time>
      </trkpt>
      <trkpt lat="43.65377" lon="3.79854">
        <ele>186.7</ele>
        <time>2017-05-10T10:54:03Z</time>
      </trkpt>
      <trkpt lat="43.65385" lon="3.79863">
        <ele>187</ele>
        <time>2017-05-10T10:54:06Z</time>
      </trkpt>
      <trkpt lat="43.65394" lon="3.7987">
        <ele>187.9</ele>
        <time>2017-05-10T10:54:09Z</time>
      </trkpt>
      <trkpt lat="43.654" lon="3.79876">
        <ele>188</ele>
        <time>2017-05-10T10:54:11Z</time>
      </trkpt>
      <trkpt lat="43.65406" lon="3.79881">
        <ele>188.1</ele>
        <time>2017-05-10T10:54:13Z</time>
      </trkpt>
      <trkpt lat="43.65413" lon="3.79887">
        <ele>188.9</ele>
        <time>2017-05-10T10:54:15Z</time>
      </trkpt>
      <trkpt lat="43.6542" lon="3.79894">
        <ele>188.5</ele>
        <time>2017-05-10T10:54:17Z</time>
      </trkpt>
      <trkpt lat="43.65427" lon="3.79901">
        <ele>188.1</ele>
        <time>2017-05-10T10:54:19Z</time>
      </trkpt>
      <trkpt lat="43.65435" lon="3.79909">
        <ele>189.6</ele>
        <time>2017-05-10T10:54:21Z</time>
      </trkpt>
      <trkpt lat="43.65442" lon="3.79915">
        <ele>190.4</ele>
        <time>2017-05-10T10:54:23Z</time>
      </trkpt>
      <trkpt lat="43.65449" lon="3.79923">
        <ele>191.3</ele>
        <time>2017-05-10T10:54:25Z</time>
      </trkpt>
      <trkpt lat="43.65456" lon="3.7993">
        <ele>192.3</ele>
        <time>2017-05-10T10:54:27Z</time>
      </trkpt>
      <trkpt lat="43.65462" lon="3.79938">
        <ele>192.2</ele>
        <time>2017-05-10T10:54:29Z</time>
      </trkpt>
      <trkpt lat="43.65471" lon="3.7995">
        <ele>192.9</ele>
        <time>2017-05-10T10:54:32Z</time>
      </trkpt>
      <trkpt lat="43.65477" lon="3.79959">
        <ele>194.7</ele>
        <time>2017-05-10T10:54:34Z</time>
      </trkpt>
      <trkpt lat="43.65484" lon="3.79967">
        <ele>196.3</ele>
        <time>2017-05-10T10:54:36Z</time>
      </trkpt>
      <trkpt lat="43.65491" lon="3.79973">
        <ele>196.9</ele>
        <time>2017-05-10T10:54:38Z</time>
      </trkpt>
      <trkpt lat="43.65496" lon="3.79983">
        <ele>196.9</ele>
        <time>2017-05-10T10:54:40Z</time>
      </trkpt>
      <trkpt lat="43.65501" lon="3.79992">
        <ele>197.6</ele>
        <time>2017-05-10T10:54:42Z</time>
      </trkpt>
      <trkpt lat="43.65508" lon="3.80002">
        <ele>200.2</ele>
        <time>2017-05-10T10:54:44Z</time>
      </trkpt>
      <trkpt lat="43.65515" lon="3.80013">
        <ele>201.2</ele>
        <time>2017-05-10T10:54:46Z</time>
      </trkpt>
      <trkpt lat="43.65521" lon="3.80022">
        <ele>200.9</ele>
        <time>2017-05-10T10:54:48Z</time>
      </trkpt>
      <trkpt lat="43.65527" lon="3.80031">
        <ele>199.9</ele>
        <time>2017-05-10T10:54:50Z</time>
      </trkpt>
      <trkpt lat="43.65533" lon="3.80041">
        <ele>198</ele>
        <time>2017-05-10T10:54:52Z</time>
      </trkpt>
      <trkpt lat="43.6554" lon="3.80051">
        <ele>196.4</ele>
        <time>2017-05-10T10:54:54Z</time>
      </trkpt>
      <trkpt lat="43.65545" lon="3.80061">
        <ele>194.7</ele>
        <time>2017-05-10T10:54:56Z</time>
      </trkpt>
      <trkpt lat="43.6555" lon="3.80071">
        <ele>192.9</ele>
        <time>2017-05-10T10:54:58Z</time>
      </trkpt>
      <trkpt lat="43.65557" lon="3.80081">
        <ele>191.6</ele>
        <time>2017-05-10T10:55:00Z</time>
      </trkpt>
      <trkpt lat="43.65562" lon="3.80091">
        <ele>191.7</ele>
        <time>2017-05-10T10:55:02Z</time>
      </trkpt>
      <trkpt lat="43.65568" lon="3.80101">
        <ele>192.6</ele>
        <time>2017-05-10T10:55:04Z</time>
      </trkpt>
      <trkpt lat="43.65573" lon="3.80109">
        <ele>192.7</ele>
        <time>2017-05-10T10:55:06Z</time>
      </trkpt>
      <trkpt lat="43.6558" lon="3.80115">
        <ele>192.8</ele>
        <time>2017-05-10T10:55:08Z</time>
      </trkpt>
      <trkpt lat="43.65585" lon="3.80124">
        <ele>191.7</ele>
        <time>2017-05-10T10:55:10Z</time>
      </trkpt>
      <trkpt lat="43.65587" lon="3.80137">
        <ele>190.1</ele>
        <time>2017-05-10T10:55:12Z</time>
      </trkpt>
      <trkpt lat="43.65582" lon="3.80148">
        <ele>189.3</ele>
        <time>2017-05-10T10:55:14Z</time>
      </trkpt>
      <trkpt lat="43.65574" lon="3.80157">
        <ele>189.4</ele>
        <time>2017-05-10T10:55:17Z</time>
      </trkpt>
      <trkpt lat="43.65574" lon="3.80167">
        <ele>190.8</ele>
        <time>2017-05-10T10:55:19Z</time>
      </trkpt>
      <trkpt lat="43.65576" lon="3.80179">
        <ele>191.7</ele>
        <time>2017-05-10T10:55:21Z</time>
      </trkpt>
      <trkpt lat="43.65578" lon="3.80189">
        <ele>192.1</ele>
        <time>2017-05-10T10:55:23Z</time>
      </trkpt>
      <trkpt lat="43.65581" lon="3.80201">
        <ele>192.2</ele>
        <time>2017-05-10T10:55:26Z</time>
      </trkpt>
      <trkpt lat="43.65575" lon="3.80208">
        <ele>192.4</ele>
        <time>2017-05-10T10:55:29Z</time>
      </trkpt>
      <trkpt lat="43.65569" lon="3.80212">
        <ele>193</ele>
        <time>2017-05-10T10:55:31Z</time>
      </trkpt>
      <trkpt lat="43.65558" lon="3.80217">
        <ele>192.3</ele>
        <time>2017-05-10T10:55:34Z</time>
      </trkpt>
      <trkpt lat="43.65551" lon="3.8022">
        <ele>192.1</ele>
        <time>2017-05-10T10:55:36Z</time>
      </trkpt>
      <trkpt lat="43.65543" lon="3.80225">
        <ele>191.9</ele>
        <time>2017-05-10T10:55:39Z</time>
      </trkpt>
      <trkpt lat="43.65535" lon="3.80228">
        <ele>192.3</ele>
        <time>2017-05-10T10:55:41Z</time>
      </trkpt>
      <trkpt lat="43.65527" lon="3.80231">
        <ele>191.9</ele>
        <time>2017-05-10T10:55:43Z</time>
      </trkpt>
      <trkpt lat="43.65517" lon="3.80235">
        <ele>192</ele>
        <time>2017-05-10T10:55:45Z</time>
      </trkpt>
      <trkpt lat="43.6551" lon="3.80242">
        <ele>192.6</ele>
        <time>2017-05-10T10:55:46Z</time>
      </trkpt>
      <trkpt lat="43.655" lon="3.80252">
        <ele>194.6</ele>
        <time>2017-05-10T10:55:48Z</time>
      </trkpt>
      <trkpt lat="43.65491" lon="3.80261">
        <ele>194.4</ele>
        <time>2017-05-10T10:55:50Z</time>
      </trkpt>
      <trkpt lat="43.65484" lon="3.80274">
        <ele>194.6</ele>
        <time>2017-05-10T10:55:52Z</time>
      </trkpt>
      <trkpt lat="43.65483" lon="3.8029">
        <ele>193.5</ele>
        <time>2017-05-10T10:55:54Z</time>
      </trkpt>
      <trkpt lat="43.65486" lon="3.80304">
        <ele>191.7</ele>
        <time>2017-05-10T10:55:56Z</time>
      </trkpt>
      <trkpt lat="43.65492" lon="3.80314">
        <ele>189.6</ele>
        <time>2017-05-10T10:55:58Z</time>
      </trkpt>
      <trkpt lat="43.65499" lon="3.8032">
        <ele>188.1</ele>
        <time>2017-05-10T10:56:00Z</time>
      </trkpt>
      <trkpt lat="43.65502" lon="3.8033">
        <ele>187.9</ele>
        <time>2017-05-10T10:56:04Z</time>
      </trkpt>
      <trkpt lat="43.65499" lon="3.80342">
        <ele>187.8</ele>
        <time>2017-05-10T10:56:08Z</time>
      </trkpt>
      <trkpt lat="43.65505" lon="3.80352">
        <ele>187.8</ele>
        <time>2017-05-10T10:56:12Z</time>
      </trkpt>
      <trkpt lat="43.65512" lon="3.8036">
        <ele>187.9</ele>
        <time>2017-05-10T10:56:15Z</time>
      </trkpt>
      <trkpt lat="43.65518" lon="3.80368">
        <ele>186.6</ele>
        <time>2017-05-10T10:56:17Z</time>
      </trkpt>
      <trkpt lat="43.65528" lon="3.80375">
        <ele>184.8</ele>
        <time>2017-05-10T10:56:19Z</time>
      </trkpt>
      <trkpt lat="43.65536" lon="3.8038">
        <ele>184.9</ele>
        <time>2017-05-10T10:56:21Z</time>
      </trkpt>
      <trkpt lat="43.65546" lon="3.80384">
        <ele>183.8</ele>
        <time>2017-05-10T10:56:23Z</time>
      </trkpt>
      <trkpt lat="43.65558" lon="3.80387">
        <ele>182.9</ele>
        <time>2017-05-10T10:56:25Z</time>
      </trkpt>
      <trkpt lat="43.65569" lon="3.8039">
        <ele>182.3</ele>
        <time>2017-05-10T10:56:27Z</time>
      </trkpt>
      <trkpt lat="43.6558" lon="3.80394">
        <ele>182.7</ele>
        <time>2017-05-10T10:56:29Z</time>
      </trkpt>
      <trkpt lat="43.65588" lon="3.80397">
        <ele>183.1</ele>
        <time>2017-05-10T10:56:30Z</time>
      </trkpt>
      <trkpt lat="43.65596" lon="3.80403">
        <ele>183.3</ele>
        <time>2017-05-10T10:56:32Z</time>
      </trkpt>
      <trkpt lat="43.65606" lon="3.80407">
        <ele>183.8</ele>
        <time>2017-05-10T10:56:34Z</time>
      </trkpt>
      <trkpt lat="43.65616" lon="3.80413">
        <ele>184.5</ele>
        <time>2017-05-10T10:56:36Z</time>
      </trkpt>
      <trkpt lat="43.65628" lon="3.8042">
        <ele>185.1</ele>
        <time>2017-05-10T10:56:38Z</time>
      </trkpt>
      <trkpt lat="43.65636" lon="3.80423">
        <ele>185.3</ele>
        <time>2017-05-10T10:56:39Z</time>
      </trkpt>
      <trkpt lat="43.65648" lon="3.80429">
        <ele>185.6</ele>
        <time>2017-05-10T10:56:41Z</time>
      </trkpt>
      <trkpt lat="43.65659" lon="3.80434">
        <ele>184.7</ele>
        <time>2017-05-10T10:56:43Z</time>
      </trkpt>
      <trkpt lat="43.6567" lon="3.80436">
        <ele>183.3</ele>
        <time>2017-05-10T10:56:45Z</time>
      </trkpt>
      <trkpt lat="43.6568" lon="3.80439">
        <ele>182.1</ele>
        <time>2017-05-10T10:56:47Z</time>
      </trkpt>
      <trkpt lat="43.65688" lon="3.80443">
        <ele>182.3</ele>
        <time>2017-05-10T10:56:49Z</time>
      </trkpt>
      <trkpt lat="43.65698" lon="3.80447">
        <ele>182.7</ele>
        <time>2017-05-10T10:56:51Z</time>
      </trkpt>
      <trkpt lat="43.65706" lon="3.80451">
        <ele>182.6</ele>
        <time>2017-05-10T10:56:53Z</time>
      </trkpt>
      <trkpt lat="43.65715" lon="3.80455">
        <ele>180.7</ele>
        <time>2017-05-10T10:56:55Z</time>
      </trkpt>
      <trkpt lat="43.65724" lon="3.8046">
        <ele>180.1</ele>
        <time>2017-05-10T10:56:57Z</time>
      </trkpt>
      <trkpt lat="43.65731" lon="3.80466">
        <ele>179.1</ele>
        <time>2017-05-10T10:56:59Z</time>
      </trkpt>
      <trkpt lat="43.65738" lon="3.80468">
        <ele>179.1</ele>
        <time>2017-05-10T10:57:01Z</time>
      </trkpt>
      <trkpt lat="43.65748" lon="3.80469">
        <ele>178.2</ele>
        <time>2017-05-10T10:57:03Z</time>
      </trkpt>
      <trkpt lat="43.65758" lon="3.80472">
        <ele>176.6</ele>
        <time>2017-05-10T10:57:05Z</time>
      </trkpt>
      <trkpt lat="43.65768" lon="3.80475">
        <ele>175.9</ele>
        <time>2017-05-10T10:57:07Z</time>
      </trkpt>
      <trkpt lat="43.65778" lon="3.80479">
        <ele>175.8</ele>
        <time>2017-05-10T10:57:09Z</time>
      </trkpt>
      <trkpt lat="43.65785" lon="3.80482">
        <ele>176</ele>
        <time>2017-05-10T10:57:11Z</time>
      </trkpt>
      <trkpt lat="43.65792" lon="3.80488">
        <ele>176.9</ele>
        <time>2017-05-10T10:57:13Z</time>
      </trkpt>
      <trkpt lat="43.65802" lon="3.80493">
        <ele>178.5</ele>
        <time>2017-05-10T10:57:15Z</time>
      </trkpt>
      <trkpt lat="43.6581" lon="3.80495">
        <ele>179.1</ele>
        <time>2017-05-10T10:57:16Z</time>
      </trkpt>
      <trkpt lat="43.65819" lon="3.80497">
        <ele>180.2</ele>
        <time>2017-05-10T10:57:18Z</time>
      </trkpt>
      <trkpt lat="43.6583" lon="3.80497">
        <ele>180.2</ele>
        <time>2017-05-10T10:57:21Z</time>
      </trkpt>
      <trkpt lat="43.6584" lon="3.805">
        <ele>180.2</ele>
        <time>2017-05-10T10:57:23Z</time>
      </trkpt>
      <trkpt lat="43.65849" lon="3.80506">
        <ele>180.1</ele>
        <time>2017-05-10T10:57:25Z</time>
      </trkpt>
      <trkpt lat="43.65859" lon="3.80511">
        <ele>179.9</ele>
        <time>2017-05-10T10:57:27Z</time>
      </trkpt>
      <trkpt lat="43.65866" lon="3.80515">
        <ele>179.2</ele>
        <time>2017-05-10T10:57:29Z</time>
      </trkpt>
      <trkpt lat="43.65876" lon="3.80519">
        <ele>179.1</ele>
        <time>2017-05-10T10:57:31Z</time>
      </trkpt>
      <trkpt lat="43.65884" lon="3.80524">
        <ele>178.1</ele>
        <time>2017-05-10T10:57:33Z</time>
      </trkpt>
      <trkpt lat="43.65892" lon="3.80531">
        <ele>177.9</ele>
        <time>2017-05-10T10:57:36Z</time>
      </trkpt>
      <trkpt lat="43.65902" lon="3.80537">
        <ele>177.8</ele>
        <time>2017-05-10T10:57:39Z</time>
      </trkpt>
      <trkpt lat="43.65911" lon="3.80542">
        <ele>177.6</ele>
        <time>2017-05-10T10:57:42Z</time>
      </trkpt>
      <trkpt lat="43.6592" lon="3.8055">
        <ele>177.4</ele>
        <time>2017-05-10T10:57:44Z</time>
      </trkpt>
      <trkpt lat="43.65926" lon="3.80556">
        <ele>177.4</ele>
        <time>2017-05-10T10:57:46Z</time>
      </trkpt>
      <trkpt lat="43.6593" lon="3.80569">
        <ele>177.4</ele>
        <time>2017-05-10T10:57:49Z</time>
      </trkpt>
      <trkpt lat="43.6593" lon="3.80583">
        <ele>177.4</ele>
        <time>2017-05-10T10:57:52Z</time>
      </trkpt>
      <trkpt lat="43.65932" lon="3.80593">
        <ele>177.2</ele>
        <time>2017-05-10T10:57:55Z</time>
      </trkpt>
      <trkpt lat="43.65934" lon="3.80605">
        <ele>176.8</ele>
        <time>2017-05-10T10:58:00Z</time>
      </trkpt>
      <trkpt lat="43.65931" lon="3.80617">
        <ele>176.3</ele>
        <time>2017-05-10T10:58:03Z</time>
      </trkpt>
      <trkpt lat="43.65933" lon="3.80627">
        <ele>175.9</ele>
        <time>2017-05-10T10:58:06Z</time>
      </trkpt>
      <trkpt lat="43.65925" lon="3.80634">
        <ele>175.1</ele>
        <time>2017-05-10T10:58:09Z</time>
      </trkpt>
      <trkpt lat="43.65915" lon="3.80639">
        <ele>169.9</ele>
        <time>2017-05-10T10:58:11Z</time>
      </trkpt>
      <trkpt lat="43.65909" lon="3.80646">
        <ele>166</ele>
        <time>2017-05-10T10:58:13Z</time>
      </trkpt>
      <trkpt lat="43.65904" lon="3.80659">
        <ele>162.7</ele>
        <time>2017-05-10T10:58:15Z</time>
      </trkpt>
      <trkpt lat="43.65911" lon="3.80671">
        <ele>159.1</ele>
        <time>2017-05-10T10:58:17Z</time>
      </trkpt>
      <trkpt lat="43.6592" lon="3.80683">
        <ele>156.2</ele>
        <time>2017-05-10T10:58:19Z</time>
      </trkpt>
      <trkpt lat="43.65925" lon="3.80695">
        <ele>153.3</ele>
        <time>2017-05-10T10:58:21Z</time>
      </trkpt>
      <trkpt lat="43.65929" lon="3.80706">
        <ele>151.9</ele>
        <time>2017-05-10T10:58:23Z</time>
      </trkpt>
      <trkpt lat="43.65931" lon="3.80719">
        <ele>150.8</ele>
        <time>2017-05-10T10:58:25Z</time>
      </trkpt>
      <trkpt lat="43.65926" lon="3.80734">
        <ele>151.2</ele>
        <time>2017-05-10T10:58:27Z</time>
      </trkpt>
      <trkpt lat="43.6592" lon="3.80742">
        <ele>151.2</ele>
        <time>2017-05-10T10:58:28Z</time>
      </trkpt>
      <trkpt lat="43.65915" lon="3.8075">
        <ele>151.8</ele>
        <time>2017-05-10T10:58:29Z</time>
      </trkpt>
      <trkpt lat="43.6591" lon="3.8076">
        <ele>151.2</ele>
        <time>2017-05-10T10:58:31Z</time>
      </trkpt>
      <trkpt lat="43.65905" lon="3.80773">
        <ele>151.1</ele>
        <time>2017-05-10T10:58:33Z</time>
      </trkpt>
      <trkpt lat="43.65898" lon="3.8078">
        <ele>150.8</ele>
        <time>2017-05-10T10:58:35Z</time>
      </trkpt>
      <trkpt lat="43.65889" lon="3.80778">
        <ele>150.3</ele>
        <time>2017-05-10T10:58:37Z</time>
      </trkpt>
      <trkpt lat="43.65881" lon="3.80775">
        <ele>150.1</ele>
        <time>2017-05-10T10:58:39Z</time>
      </trkpt>
      <trkpt lat="43.65869" lon="3.80771">
        <ele>148.1</ele>
        <time>2017-05-10T10:58:41Z</time>
      </trkpt>
      <trkpt lat="43.6586" lon="3.80768">
        <ele>145.5</ele>
        <time>2017-05-10T10:58:43Z</time>
      </trkpt>
      <trkpt lat="43.65849" lon="3.80764">
        <ele>144.2</ele>
        <time>2017-05-10T10:58:45Z</time>
      </trkpt>
      <trkpt lat="43.65838" lon="3.8076">
        <ele>142.3</ele>
        <time>2017-05-10T10:58:47Z</time>
      </trkpt>
      <trkpt lat="43.65829" lon="3.80755">
        <ele>141.7</ele>
        <time>2017-05-10T10:58:49Z</time>
      </trkpt>
      <trkpt lat="43.65817" lon="3.80748">
        <ele>140.1</ele>
        <time>2017-05-10T10:58:51Z</time>
      </trkpt>
      <trkpt lat="43.65806" lon="3.80739">
        <ele>138.7</ele>
        <time>2017-05-10T10:58:53Z</time>
      </trkpt>
      <trkpt lat="43.65795" lon="3.80733">
        <ele>140.3</ele>
        <time>2017-05-10T10:58:55Z</time>
      </trkpt>
      <trkpt lat="43.65782" lon="3.80732">
        <ele>140</ele>
        <time>2017-05-10T10:58:57Z</time>
      </trkpt>
      <trkpt lat="43.65769" lon="3.80729">
        <ele>140.3</ele>
        <time>2017-05-10T10:58:59Z</time>
      </trkpt>
      <trkpt lat="43.65759" lon="3.80725">
        <ele>140.6</ele>
        <time>2017-05-10T10:59:01Z</time>
      </trkpt>
      <trkpt lat="43.65752" lon="3.80721">
        <ele>140.6</ele>
        <time>2017-05-10T10:59:03Z</time>
      </trkpt>
      <trkpt lat="43.65741" lon="3.80713">
        <ele>141.4</ele>
        <time>2017-05-10T10:59:06Z</time>
      </trkpt>
      <trkpt lat="43.65732" lon="3.8071">
        <ele>143.3</ele>
        <time>2017-05-10T10:59:08Z</time>
      </trkpt>
      <trkpt lat="43.65724" lon="3.80704">
        <ele>145</ele>
        <time>2017-05-10T10:59:10Z</time>
      </trkpt>
      <trkpt lat="43.65712" lon="3.80698">
        <ele>144.4</ele>
        <time>2017-05-10T10:59:12Z</time>
      </trkpt>
      <trkpt lat="43.65703" lon="3.80697">
        <ele>143.7</ele>
        <time>2017-05-10T10:59:14Z</time>
      </trkpt>
      <trkpt lat="43.65692" lon="3.80701">
        <ele>144.3</ele>
        <time>2017-05-10T10:59:16Z</time>
      </trkpt>
      <trkpt lat="43.65679" lon="3.80705">
        <ele>143.8</ele>
        <time>2017-05-10T10:59:18Z</time>
      </trkpt>
      <trkpt lat="43.65666" lon="3.8071">
        <ele>143.3</ele>
        <time>2017-05-10T10:59:20Z</time>
      </trkpt>
      <trkpt lat="43.65659" lon="3.80713">
        <ele>142.7</ele>
        <time>2017-05-10T10:59:21Z</time>
      </trkpt>
      <trkpt lat="43.65652" lon="3.80718">
        <ele>142.1</ele>
        <time>2017-05-10T10:59:22Z</time>
      </trkpt>
      <trkpt lat="43.65645" lon="3.80723">
        <ele>141.7</ele>
        <time>2017-05-10T10:59:23Z</time>
      </trkpt>
      <trkpt lat="43.65638" lon="3.80729">
        <ele>141.1</ele>
        <time>2017-05-10T10:59:24Z</time>
      </trkpt>
      <trkpt lat="43.65631" lon="3.80734">
        <ele>139.8</ele>
        <time>2017-05-10T10:59:25Z</time>
      </trkpt>
      <trkpt lat="43.65623" lon="3.8074">
        <ele>138.4</ele>
        <time>2017-05-10T10:59:26Z</time>
      </trkpt>
      <trkpt lat="43.65615" lon="3.80747">
        <ele>138.1</ele>
        <time>2017-05-10T10:59:27Z</time>
      </trkpt>
      <trkpt lat="43.6561" lon="3.80754">
        <ele>137.7</ele>
        <time>2017-05-10T10:59:28Z</time>
      </trkpt>
      <trkpt lat="43.65604" lon="3.8076">
        <ele>137.7</ele>
        <time>2017-05-10T10:59:29Z</time>
      </trkpt>
      <trkpt lat="43.65598" lon="3.80767">
        <ele>137.9</ele>
        <time>2017-05-10T10:59:30Z</time>
      </trkpt>
      <trkpt lat="43.65592" lon="3.80774">
        <ele>137.6</ele>
        <time>2017-05-10T10:59:31Z</time>
      </trkpt>
      <trkpt lat="43.65585" lon="3.80781">
        <ele>137</ele>
        <time>2017-05-10T10:59:32Z</time>
      </trkpt>
      <trkpt lat="43.65578" lon="3.80786">
        <ele>135.9</ele>
        <time>2017-05-10T10:59:33Z</time>
      </trkpt>
      <trkpt lat="43.6557" lon="3.80789">
        <ele>135.8</ele>
        <time>2017-05-10T10:59:34Z</time>
      </trkpt>
      <trkpt lat="43.65563" lon="3.80788">
        <ele>135.2</ele>
        <time>2017-05-10T10:59:35Z</time>
      </trkpt>
      <trkpt lat="43.6555" lon="3.80782">
        <ele>133.2</ele>
        <time>2017-05-10T10:59:37Z</time>
      </trkpt>
      <trkpt lat="43.65538" lon="3.80777">
        <ele>130.6</ele>
        <time>2017-05-10T10:59:39Z</time>
      </trkpt>
      <trkpt lat="43.65527" lon="3.80773">
        <ele>128.9</ele>
        <time>2017-05-10T10:59:41Z</time>
      </trkpt>
      <trkpt lat="43.65519" lon="3.80772">
        <ele>129</ele>
        <time>2017-05-10T10:59:43Z</time>
      </trkpt>
      <trkpt lat="43.65507" lon="3.80775">
        <ele>130.3</ele>
        <time>2017-05-10T10:59:45Z</time>
      </trkpt>
      <trkpt lat="43.65494" lon="3.80776">
        <ele>130.3</ele>
        <time>2017-05-10T10:59:47Z</time>
      </trkpt>
      <trkpt lat="43.65481" lon="3.80769">
        <ele>130.5</ele>
        <time>2017-05-10T10:59:49Z</time>
      </trkpt>
      <trkpt lat="43.65467" lon="3.80767">
        <ele>131.1</ele>
        <time>2017-05-10T10:59:51Z</time>
      </trkpt>
      <trkpt lat="43.65456" lon="3.80764">
        <ele>131.7</ele>
        <time>2017-05-10T10:59:53Z</time>
      </trkpt>
      <trkpt lat="43.65444" lon="3.80761">
        <ele>130.6</ele>
        <time>2017-05-10T10:59:55Z</time>
      </trkpt>
      <trkpt lat="43.65433" lon="3.80759">
        <ele>129.7</ele>
        <time>2017-05-10T10:59:57Z</time>
      </trkpt>
      <trkpt lat="43.65425" lon="3.80758">
        <ele>130.1</ele>
        <time>2017-05-10T10:59:59Z</time>
      </trkpt>
      <trkpt lat="43.65417" lon="3.80757">
        <ele>130.5</ele>
        <time>2017-05-10T11:00:01Z</time>
      </trkpt>
      <trkpt lat="43.65406" lon="3.80753">
        <ele>131</ele>
        <time>2017-05-10T11:00:03Z</time>
      </trkpt>
      <trkpt lat="43.65394" lon="3.80748">
        <ele>131.4</ele>
        <time>2017-05-10T11:00:05Z</time>
      </trkpt>
      <trkpt lat="43.65381" lon="3.80744">
        <ele>132.3</ele>
        <time>2017-05-10T11:00:07Z</time>
      </trkpt>
      <trkpt lat="43.65369" lon="3.8074">
        <ele>132</ele>
        <time>2017-05-10T11:00:09Z</time>
      </trkpt>
      <trkpt lat="43.65357" lon="3.80736">
        <ele>132.4</ele>
        <time>2017-05-10T11:00:11Z</time>
      </trkpt>
      <trkpt lat="43.65346" lon="3.80739">
        <ele>134.2</ele>
        <time>2017-05-10T11:00:13Z</time>
      </trkpt>
      <trkpt lat="43.65339" lon="3.80751">
        <ele>134.1</ele>
        <time>2017-05-10T11:00:15Z</time>
      </trkpt>
      <trkpt lat="43.65333" lon="3.80764">
        <ele>133.7</ele>
        <time>2017-05-10T11:00:17Z</time>
      </trkpt>
      <trkpt lat="43.65329" lon="3.80772">
        <ele>133</ele>
        <time>2017-05-10T11:00:18Z</time>
      </trkpt>
      <trkpt lat="43.65325" lon="3.80782">
        <ele>132.2</ele>
        <time>2017-05-10T11:00:19Z</time>
      </trkpt>
      <trkpt lat="43.6532" lon="3.80792">
        <ele>130.7</ele>
        <time>2017-05-10T11:00:20Z</time>
      </trkpt>
      <trkpt lat="43.65315" lon="3.80801">
        <ele>129.8</ele>
        <time>2017-05-10T11:00:21Z</time>
      </trkpt>
      <trkpt lat="43.65312" lon="3.8081">
        <ele>129.3</ele>
        <time>2017-05-10T11:00:22Z</time>
      </trkpt>
      <trkpt lat="43.65304" lon="3.80827">
        <ele>128.5</ele>
        <time>2017-05-10T11:00:24Z</time>
      </trkpt>
      <trkpt lat="43.65297" lon="3.80843">
        <ele>127.1</ele>
        <time>2017-05-10T11:00:26Z</time>
      </trkpt>
      <trkpt lat="43.65289" lon="3.80859">
        <ele>125.2</ele>
        <time>2017-05-10T11:00:28Z</time>
      </trkpt>
      <trkpt lat="43.65281" lon="3.80875">
        <ele>123</ele>
        <time>2017-05-10T11:00:30Z</time>
      </trkpt>
      <trkpt lat="43.65275" lon="3.8089">
        <ele>122.9</ele>
        <time>2017-05-10T11:00:32Z</time>
      </trkpt>
      <trkpt lat="43.65269" lon="3.80903">
        <ele>121.6</ele>
        <time>2017-05-10T11:00:34Z</time>
      </trkpt>
      <trkpt lat="43.65263" lon="3.80917">
        <ele>120.1</ele>
        <time>2017-05-10T11:00:36Z</time>
      </trkpt>
      <trkpt lat="43.65259" lon="3.80927">
        <ele>120</ele>
        <time>2017-05-10T11:00:38Z</time>
      </trkpt>
      <trkpt lat="43.65254" lon="3.80936">
        <ele>119.9</ele>
        <time>2017-05-10T11:00:40Z</time>
      </trkpt>
      <trkpt lat="43.65251" lon="3.80948">
        <ele>119.2</ele>
        <time>2017-05-10T11:00:42Z</time>
      </trkpt>
      <trkpt lat="43.65249" lon="3.80958">
        <ele>119</ele>
        <time>2017-05-10T11:00:44Z</time>
      </trkpt>
      <trkpt lat="43.65245" lon="3.8097">
        <ele>117.7</ele>
        <time>2017-05-10T11:00:46Z</time>
      </trkpt>
      <trkpt lat="43.65238" lon="3.8098">
        <ele>118.1</ele>
        <time>2017-05-10T11:00:48Z</time>
      </trkpt>
      <trkpt lat="43.65233" lon="3.8099">
        <ele>119.3</ele>
        <time>2017-05-10T11:00:50Z</time>
      </trkpt>
      <trkpt lat="43.65228" lon="3.81">
        <ele>120.2</ele>
        <time>2017-05-10T11:00:52Z</time>
      </trkpt>
      <trkpt lat="43.65222" lon="3.81012">
        <ele>120.6</ele>
        <time>2017-05-10T11:00:54Z</time>
      </trkpt>
      <trkpt lat="43.65217" lon="3.81022">
        <ele>121.8</ele>
        <time>2017-05-10T11:00:56Z</time>
      </trkpt>
      <trkpt lat="43.65211" lon="3.81033">
        <ele>122.2</ele>
        <time>2017-05-10T11:00:58Z</time>
      </trkpt>
      <trkpt lat="43.65206" lon="3.81043">
        <ele>123.3</ele>
        <time>2017-05-10T11:01:00Z</time>
      </trkpt>
      <trkpt lat="43.652" lon="3.81054">
        <ele>123.1</ele>
        <time>2017-05-10T11:01:02Z</time>
      </trkpt>
      <trkpt lat="43.65193" lon="3.81063">
        <ele>123.4</ele>
        <time>2017-05-10T11:01:04Z</time>
      </trkpt>
      <trkpt lat="43.65188" lon="3.81072">
        <ele>123.6</ele>
        <time>2017-05-10T11:01:06Z</time>
      </trkpt>
      <trkpt lat="43.65185" lon="3.81087">
        <ele>123.6</ele>
        <time>2017-05-10T11:01:09Z</time>
      </trkpt>
      <trkpt lat="43.65183" lon="3.81099">
        <ele>123.4</ele>
        <time>2017-05-10T11:01:12Z</time>
      </trkpt>
      <trkpt lat="43.65178" lon="3.81111">
        <ele>123.3</ele>
        <time>2017-05-10T11:01:15Z</time>
      </trkpt>
      <trkpt lat="43.65175" lon="3.81122">
        <ele>123.4</ele>
        <time>2017-05-10T11:01:18Z</time>
      </trkpt>
      <trkpt lat="43.65177" lon="3.81134">
        <ele>123.4</ele>
        <time>2017-05-10T11:01:22Z</time>
      </trkpt>
      <trkpt lat="43.65181" lon="3.81144">
        <ele>123.4</ele>
        <time>2017-05-10T11:01:25Z</time>
      </trkpt>
      <trkpt lat="43.65185" lon="3.81153">
        <ele>123.7</ele>
        <time>2017-05-10T11:01:28Z</time>
      </trkpt>
      <trkpt lat="43.65192" lon="3.81159">
        <ele>123.8</ele>
        <time>2017-05-10T11:01:30Z</time>
      </trkpt>
      <trkpt lat="43.65198" lon="3.81166">
        <ele>123.8</ele>
        <time>2017-05-10T11:01:32Z</time>
      </trkpt>
      <trkpt lat="43.65205" lon="3.81173">
        <ele>124</ele>
        <time>2017-05-10T11:01:34Z</time>
      </trkpt>
      <trkpt lat="43.65212" lon="3.8118">
        <ele>124.2</ele>
        <time>2017-05-10T11:01:36Z</time>
      </trkpt>
      <trkpt lat="43.6522" lon="3.81188">
        <ele>124.1</ele>
        <time>2017-05-10T11:01:38Z</time>
      </trkpt>
      <trkpt lat="43.65227" lon="3.81196">
        <ele>122.7</ele>
        <time>2017-05-10T11:01:40Z</time>
      </trkpt>
      <trkpt lat="43.65233" lon="3.81205">
        <ele>120.8</ele>
        <time>2017-05-10T11:01:42Z</time>
      </trkpt>
      <trkpt lat="43.65234" lon="3.81215">
        <ele>121.1</ele>
        <time>2017-05-10T11:01:44Z</time>
      </trkpt>
      <trkpt lat="43.65235" lon="3.81236">
        <ele>120.3</ele>
        <time>2017-05-10T11:01:46Z</time>
      </trkpt>
      <trkpt lat="43.65236" lon="3.81246">
        <ele>119.4</ele>
        <time>2017-05-10T11:01:47Z</time>
      </trkpt>
      <trkpt lat="43.65237" lon="3.81265">
        <ele>117.4</ele>
        <time>2017-05-10T11:01:49Z</time>
      </trkpt>
      <trkpt lat="43.65238" lon="3.81279">
        <ele>117.5</ele>
        <time>2017-05-10T11:01:51Z</time>
      </trkpt>
      <trkpt lat="43.65239" lon="3.81293">
        <ele>117.5</ele>
        <time>2017-05-10T11:01:53Z</time>
      </trkpt>
      <trkpt lat="43.65245" lon="3.81303">
        <ele>117.3</ele>
        <time>2017-05-10T11:01:58Z</time>
      </trkpt>
      <trkpt lat="43.65253" lon="3.81308">
        <ele>116.7</ele>
        <time>2017-05-10T11:02:02Z</time>
      </trkpt>
      <trkpt lat="43.6526" lon="3.8132">
        <ele>115.9</ele>
        <time>2017-05-10T11:02:04Z</time>
      </trkpt>
      <trkpt lat="43.65263" lon="3.8133">
        <ele>115.9</ele>
        <time>2017-05-10T11:02:06Z</time>
      </trkpt>
      <trkpt lat="43.65266" lon="3.81343">
        <ele>116.9</ele>
        <time>2017-05-10T11:02:08Z</time>
      </trkpt>
      <trkpt lat="43.65266" lon="3.81359">
        <ele>117.2</ele>
        <time>2017-05-10T11:02:10Z</time>
      </trkpt>
      <trkpt lat="43.65267" lon="3.81371">
        <ele>116.7</ele>
        <time>2017-05-10T11:02:12Z</time>
      </trkpt>
      <trkpt lat="43.65269" lon="3.81383">
        <ele>117</ele>
        <time>2017-05-10T11:02:14Z</time>
      </trkpt>
      <trkpt lat="43.65272" lon="3.81396">
        <ele>117.3</ele>
        <time>2017-05-10T11:02:17Z</time>
      </trkpt>
      <trkpt lat="43.65271" lon="3.81407">
        <ele>118.8</ele>
        <time>2017-05-10T11:02:19Z</time>
      </trkpt>
      <trkpt lat="43.65274" lon="3.8142">
        <ele>119</ele>
        <time>2017-05-10T11:02:22Z</time>
      </trkpt>
      <trkpt lat="43.65273" lon="3.81435">
        <ele>119.1</ele>
        <time>2017-05-10T11:02:25Z</time>
      </trkpt>
      <trkpt lat="43.65276" lon="3.81444">
        <ele>120.4</ele>
        <time>2017-05-10T11:02:27Z</time>
      </trkpt>
      <trkpt lat="43.6528" lon="3.81459">
        <ele>120.7</ele>
        <time>2017-05-10T11:02:30Z</time>
      </trkpt>
      <trkpt lat="43.65282" lon="3.8147">
        <ele>120.8</ele>
        <time>2017-05-10T11:02:32Z</time>
      </trkpt>
      <trkpt lat="43.65287" lon="3.81483">
        <ele>122</ele>
        <time>2017-05-10T11:02:34Z</time>
      </trkpt>
      <trkpt lat="43.6529" lon="3.81493">
        <ele>122.2</ele>
        <time>2017-05-10T11:02:36Z</time>
      </trkpt>
      <trkpt lat="43.65293" lon="3.81502">
        <ele>122.8</ele>
        <time>2017-05-10T11:02:38Z</time>
      </trkpt>
      <trkpt lat="43.65295" lon="3.81513">
        <ele>122.9</ele>
        <time>2017-05-10T11:02:40Z</time>
      </trkpt>
      <trkpt lat="43.65299" lon="3.81522">
        <ele>123.4</ele>
        <time>2017-05-10T11:02:42Z</time>
      </trkpt>
      <trkpt lat="43.65303" lon="3.81531">
        <ele>122.9</ele>
        <time>2017-05-10T11:02:44Z</time>
      </trkpt>
      <trkpt lat="43.65307" lon="3.81542">
        <ele>122.8</ele>
        <time>2017-05-10T11:02:46Z</time>
      </trkpt>
      <trkpt lat="43.65309" lon="3.81553">
        <ele>122.7</ele>
        <time>2017-05-10T11:02:48Z</time>
      </trkpt>
      <trkpt lat="43.65312" lon="3.81565">
        <ele>123.1</ele>
        <time>2017-05-10T11:02:50Z</time>
      </trkpt>
      <trkpt lat="43.65315" lon="3.81575">
        <ele>123.1</ele>
        <time>2017-05-10T11:02:52Z</time>
      </trkpt>
      <trkpt lat="43.65315" lon="3.81589">
        <ele>123.1</ele>
        <time>2017-05-10T11:02:55Z</time>
      </trkpt>
      <trkpt lat="43.65316" lon="3.81601">
        <ele>123</ele>
        <time>2017-05-10T11:02:58Z</time>
      </trkpt>
      <trkpt lat="43.65318" lon="3.81615">
        <ele>123.1</ele>
        <time>2017-05-10T11:03:01Z</time>
      </trkpt>
      <trkpt lat="43.6532" lon="3.81627">
        <ele>123.3</ele>
        <time>2017-05-10T11:03:04Z</time>
      </trkpt>
      <trkpt lat="43.65323" lon="3.81638">
        <ele>123.4</ele>
        <time>2017-05-10T11:03:06Z</time>
      </trkpt>
      <trkpt lat="43.65326" lon="3.81648">
        <ele>123.2</ele>
        <time>2017-05-10T11:03:08Z</time>
      </trkpt>
      <trkpt lat="43.6533" lon="3.8166">
        <ele>123.2</ele>
        <time>2017-05-10T11:03:10Z</time>
      </trkpt>
      <trkpt lat="43.65335" lon="3.81671">
        <ele>123.8</ele>
        <time>2017-05-10T11:03:12Z</time>
      </trkpt>
      <trkpt lat="43.65339" lon="3.81683">
        <ele>125</ele>
        <time>2017-05-10T11:03:14Z</time>
      </trkpt>
      <trkpt lat="43.65343" lon="3.81696">
        <ele>126.3</ele>
        <time>2017-05-10T11:03:16Z</time>
      </trkpt>
      <trkpt lat="43.65348" lon="3.81709">
        <ele>126.8</ele>
        <time>2017-05-10T11:03:18Z</time>
      </trkpt>
      <trkpt lat="43.65353" lon="3.81723">
        <ele>127</ele>
        <time>2017-05-10T11:03:20Z</time>
      </trkpt>
      <trkpt lat="43.65359" lon="3.81738">
        <ele>128.1</ele>
        <time>2017-05-10T11:03:22Z</time>
      </trkpt>
      <trkpt lat="43.65364" lon="3.81753">
        <ele>128.4</ele>
        <time>2017-05-10T11:03:24Z</time>
      </trkpt>
      <trkpt lat="43.6537" lon="3.81762">
        <ele>128.4</ele>
        <time>2017-05-10T11:03:27Z</time>
      </trkpt>
      <trkpt lat="43.65375" lon="3.81771">
        <ele>128.3</ele>
        <time>2017-05-10T11:03:29Z</time>
      </trkpt>
      <trkpt lat="43.65383" lon="3.81781">
        <ele>128.2</ele>
        <time>2017-05-10T11:03:32Z</time>
      </trkpt>
      <trkpt lat="43.6539" lon="3.81792">
        <ele>127.7</ele>
        <time>2017-05-10T11:03:34Z</time>
      </trkpt>
      <trkpt lat="43.65396" lon="3.81809">
        <ele>127.5</ele>
        <time>2017-05-10T11:03:36Z</time>
      </trkpt>
      <trkpt lat="43.65396" lon="3.81818">
        <ele>127.9</ele>
        <time>2017-05-10T11:03:37Z</time>
      </trkpt>
      <trkpt lat="43.65398" lon="3.8183">
        <ele>127.6</ele>
        <time>2017-05-10T11:03:38Z</time>
      </trkpt>
      <trkpt lat="43.65403" lon="3.81841">
        <ele>127</ele>
        <time>2017-05-10T11:03:39Z</time>
      </trkpt>
      <trkpt lat="43.65407" lon="3.8185">
        <ele>126.3</ele>
        <time>2017-05-10T11:03:40Z</time>
      </trkpt>
      <trkpt lat="43.65407" lon="3.81868">
        <ele>124.8</ele>
        <time>2017-05-10T11:03:42Z</time>
      </trkpt>
      <trkpt lat="43.65411" lon="3.8188">
        <ele>124.1</ele>
        <time>2017-05-10T11:03:44Z</time>
      </trkpt>
      <trkpt lat="43.65414" lon="3.81891">
        <ele>124</ele>
        <time>2017-05-10T11:03:46Z</time>
      </trkpt>
      <trkpt lat="43.65416" lon="3.81903">
        <ele>124.2</ele>
        <time>2017-05-10T11:03:48Z</time>
      </trkpt>
      <trkpt lat="43.65417" lon="3.81916">
        <ele>124</ele>
        <time>2017-05-10T11:03:50Z</time>
      </trkpt>
      <trkpt lat="43.65422" lon="3.81927">
        <ele>124.5</ele>
        <time>2017-05-10T11:03:52Z</time>
      </trkpt>
      <trkpt lat="43.65426" lon="3.81939">
        <ele>124.8</ele>
        <time>2017-05-10T11:03:54Z</time>
      </trkpt>
      <trkpt lat="43.65431" lon="3.81951">
        <ele>124.3</ele>
        <time>2017-05-10T11:03:56Z</time>
      </trkpt>
      <trkpt lat="43.65431" lon="3.81962">
        <ele>124.7</ele>
        <time>2017-05-10T11:03:58Z</time>
      </trkpt>
      <trkpt lat="43.65427" lon="3.81972">
        <ele>124.6</ele>
        <time>2017-05-10T11:04:00Z</time>
      </trkpt>
      <trkpt lat="43.65421" lon="3.81979">
        <ele>124.6</ele>
        <time>2017-05-10T11:04:03Z</time>
      </trkpt>
      <trkpt lat="43.65413" lon="3.81985">
        <ele>125.2</ele>
        <time>2017-05-10T11:04:06Z</time>
      </trkpt>
      <trkpt lat="43.65408" lon="3.81994">
        <ele>125.4</ele>
        <time>2017-05-10T11:04:08Z</time>
      </trkpt>
      <trkpt lat="43.65404" lon="3.82004">
        <ele>125.6</ele>
        <time>2017-05-10T11:04:11Z</time>
      </trkpt>
      <trkpt lat="43.65399" lon="3.82014">
        <ele>125.7</ele>
        <time>2017-05-10T11:04:14Z</time>
      </trkpt>
      <trkpt lat="43.65394" lon="3.82026">
        <ele>126</ele>
        <time>2017-05-10T11:04:17Z</time>
      </trkpt>
      <trkpt lat="43.65391" lon="3.82039">
        <ele>127.4</ele>
        <time>2017-05-10T11:04:19Z</time>
      </trkpt>
      <trkpt lat="43.65395" lon="3.8205">
        <ele>127.3</ele>
        <time>2017-05-10T11:04:21Z</time>
      </trkpt>
      <trkpt lat="43.65401" lon="3.82062">
        <ele>127.4</ele>
        <time>2017-05-10T11:04:25Z</time>
      </trkpt>
      <trkpt lat="43.65404" lon="3.8207">
        <ele>127.1</ele>
        <time>2017-05-10T11:04:27Z</time>
      </trkpt>
      <trkpt lat="43.65408" lon="3.82084">
        <ele>124.6</ele>
        <time>2017-05-10T11:04:29Z</time>
      </trkpt>
      <trkpt lat="43.65414" lon="3.82094">
        <ele>121.4</ele>
        <time>2017-05-10T11:04:31Z</time>
      </trkpt>
      <trkpt lat="43.65415" lon="3.82105">
        <ele>120.6</ele>
        <time>2017-05-10T11:04:33Z</time>
      </trkpt>
      <trkpt lat="43.65413" lon="3.8212">
        <ele>120.3</ele>
        <time>2017-05-10T11:04:36Z</time>
      </trkpt>
      <trkpt lat="43.65411" lon="3.82131">
        <ele>120.5</ele>
        <time>2017-05-10T11:04:38Z</time>
      </trkpt>
      <trkpt lat="43.6541" lon="3.82144">
        <ele>120.8</ele>
        <time>2017-05-10T11:04:40Z</time>
      </trkpt>
      <trkpt lat="43.65408" lon="3.82157">
        <ele>122</ele>
        <time>2017-05-10T11:04:42Z</time>
      </trkpt>
      <trkpt lat="43.65406" lon="3.82169">
        <ele>122.3</ele>
        <time>2017-05-10T11:04:44Z</time>
      </trkpt>
      <trkpt lat="43.65404" lon="3.82183">
        <ele>123.1</ele>
        <time>2017-05-10T11:04:46Z</time>
      </trkpt>
      <trkpt lat="43.65399" lon="3.82194">
        <ele>124.3</ele>
        <time>2017-05-10T11:04:48Z</time>
      </trkpt>
      <trkpt lat="43.65391" lon="3.822">
        <ele>125.8</ele>
        <time>2017-05-10T11:04:50Z</time>
      </trkpt>
      <trkpt lat="43.65382" lon="3.82203">
        <ele>125.9</ele>
        <time>2017-05-10T11:04:52Z</time>
      </trkpt>
      <trkpt lat="43.65377" lon="3.82212">
        <ele>125.9</ele>
        <time>2017-05-10T11:04:54Z</time>
      </trkpt>
      <trkpt lat="43.65371" lon="3.82223">
        <ele>125.9</ele>
        <time>2017-05-10T11:04:57Z</time>
      </trkpt>
      <trkpt lat="43.65367" lon="3.82234">
        <ele>126.5</ele>
        <time>2017-05-10T11:05:01Z</time>
      </trkpt>
      <trkpt lat="43.65363" lon="3.82246">
        <ele>126.8</ele>
        <time>2017-05-10T11:05:05Z</time>
      </trkpt>
      <trkpt lat="43.65361" lon="3.8226">
        <ele>127.2</ele>
        <time>2017-05-10T11:05:08Z</time>
      </trkpt>
      <trkpt lat="43.6536" lon="3.82271">
        <ele>127.5</ele>
        <time>2017-05-10T11:05:11Z</time>
      </trkpt>
      <trkpt lat="43.65359" lon="3.82282">
        <ele>128</ele>
        <time>2017-05-10T11:05:14Z</time>
      </trkpt>
      <trkpt lat="43.65355" lon="3.82296">
        <ele>128.4</ele>
        <time>2017-05-10T11:05:17Z</time>
      </trkpt>
      <trkpt lat="43.65356" lon="3.82309">
        <ele>128.9</ele>
        <time>2017-05-10T11:05:20Z</time>
      </trkpt>
      <trkpt lat="43.65354" lon="3.82319">
        <ele>129.1</ele>
        <time>2017-05-10T11:05:23Z</time>
      </trkpt>
      <trkpt lat="43.65352" lon="3.82329">
        <ele>129.2</ele>
        <time>2017-05-10T11:05:26Z</time>
      </trkpt>
      <trkpt lat="43.6535" lon="3.82342">
        <ele>129.1</ele>
        <time>2017-05-10T11:05:29Z</time>
      </trkpt>
      <trkpt lat="43.65348" lon="3.82353">
        <ele>129</ele>
        <time>2017-05-10T11:05:32Z</time>
      </trkpt>
      <trkpt lat="43.65346" lon="3.82365">
        <ele>129.1</ele>
        <time>2017-05-10T11:05:35Z</time>
      </trkpt>
      <trkpt lat="43.65345" lon="3.82378">
        <ele>129.4</ele>
        <time>2017-05-10T11:05:38Z</time>
      </trkpt>
      <trkpt lat="43.65344" lon="3.82388">
        <ele>129.7</ele>
        <time>2017-05-10T11:05:41Z</time>
      </trkpt>
      <trkpt lat="43.65343" lon="3.824">
        <ele>130.1</ele>
        <time>2017-05-10T11:05:44Z</time>
      </trkpt>
      <trkpt lat="43.65342" lon="3.82409">
        <ele>130.3</ele>
        <time>2017-05-10T11:05:47Z</time>
      </trkpt>
      <trkpt lat="43.65341" lon="3.8242">
        <ele>130.6</ele>
        <time>2017-05-10T11:05:50Z</time>
      </trkpt>
      <trkpt lat="43.65341" lon="3.82431">
        <ele>131</ele>
        <time>2017-05-10T11:05:53Z</time>
      </trkpt>
      <trkpt lat="43.65339" lon="3.82443">
        <ele>131.5</ele>
        <time>2017-05-10T11:05:56Z</time>
      </trkpt>
      <trkpt lat="43.65335" lon="3.82452">
        <ele>131.9</ele>
        <time>2017-05-10T11:06:00Z</time>
      </trkpt>
      <trkpt lat="43.65329" lon="3.8246">
        <ele>132.3</ele>
        <time>2017-05-10T11:06:04Z</time>
      </trkpt>
      <trkpt lat="43.65325" lon="3.82471">
        <ele>132.9</ele>
        <time>2017-05-10T11:06:08Z</time>
      </trkpt>
      <trkpt lat="43.65325" lon="3.82483">
        <ele>133.4</ele>
        <time>2017-05-10T11:06:11Z</time>
      </trkpt>
      <trkpt lat="43.65327" lon="3.82494">
        <ele>134</ele>
        <time>2017-05-10T11:06:14Z</time>
      </trkpt>
      <trkpt lat="43.65329" lon="3.82505">
        <ele>134.7</ele>
        <time>2017-05-10T11:06:19Z</time>
      </trkpt>
      <trkpt lat="43.65329" lon="3.82516">
        <ele>135.7</ele>
        <time>2017-05-10T11:06:23Z</time>
      </trkpt>
      <trkpt lat="43.65326" lon="3.82527">
        <ele>136.7</ele>
        <time>2017-05-10T11:06:28Z</time>
      </trkpt>
      <trkpt lat="43.65326" lon="3.82537">
        <ele>137.7</ele>
        <time>2017-05-10T11:06:34Z</time>
      </trkpt>
      <trkpt lat="43.65324" lon="3.82547">
        <ele>138.6</ele>
        <time>2017-05-10T11:06:38Z</time>
      </trkpt>
      <trkpt lat="43.65325" lon="3.82558">
        <ele>139.6</ele>
        <time>2017-05-10T11:06:43Z</time>
      </trkpt>
      <trkpt lat="43.65325" lon="3.82564">
        <ele>141.5</ele>
        <time>2017-05-10T11:06:50Z</time>
      </trkpt>
      <trkpt lat="43.65315" lon="3.82566">
        <ele>142.8</ele>
        <time>2017-05-10T11:06:56Z</time>
      </trkpt>
      <trkpt lat="43.65308" lon="3.82562">
        <ele>144.1</ele>
        <time>2017-05-10T11:07:01Z</time>
      </trkpt>
      <trkpt lat="43.653" lon="3.82565">
        <ele>144.8</ele>
        <time>2017-05-10T11:07:06Z</time>
      </trkpt>
      <trkpt lat="43.65292" lon="3.82565">
        <ele>145.8</ele>
        <time>2017-05-10T11:07:12Z</time>
      </trkpt>
      <trkpt lat="43.65285" lon="3.82568">
        <ele>146.3</ele>
        <time>2017-05-10T11:07:15Z</time>
      </trkpt>
      <trkpt lat="43.65277" lon="3.8257">
        <ele>147.6</ele>
        <time>2017-05-10T11:07:20Z</time>
      </trkpt>
      <trkpt lat="43.65269" lon="3.82572">
        <ele>148.7</ele>
        <time>2017-05-10T11:07:25Z</time>
      </trkpt>
      <trkpt lat="43.6526" lon="3.82575">
        <ele>149.6</ele>
        <time>2017-05-10T11:07:29Z</time>
      </trkpt>
      <trkpt lat="43.65252" lon="3.82579">
        <ele>153.7</ele>
        <time>2017-05-10T11:07:33Z</time>
      </trkpt>
      <trkpt lat="43.65246" lon="3.82586">
        <ele>155.4</ele>
        <time>2017-05-10T11:07:40Z</time>
      </trkpt>
      <trkpt lat="43.65244" lon="3.8259">
        <ele>157.1</ele>
        <time>2017-05-10T11:07:47Z</time>
      </trkpt>
      <trkpt lat="43.6524" lon="3.826">
        <ele>157.7</ele>
        <time>2017-05-10T11:07:50Z</time>
      </trkpt>
      <trkpt lat="43.6524" lon="3.82602">
        <ele>158.7</ele>
        <time>2017-05-10T11:07:57Z</time>
      </trkpt>
      <trkpt lat="43.65222" lon="3.82603">
        <ele>159.2</ele>
        <time>2017-05-10T11:07:59Z</time>
      </trkpt>
      <trkpt lat="43.65215" lon="3.82595">
        <ele>160.2</ele>
        <time>2017-05-10T11:08:02Z</time>
      </trkpt>
      <trkpt lat="43.6521" lon="3.82588">
        <ele>160.7</ele>
        <time>2017-05-10T11:08:04Z</time>
      </trkpt>
      <trkpt lat="43.65204" lon="3.82579">
        <ele>161.1</ele>
        <time>2017-05-10T11:08:06Z</time>
      </trkpt>
      <trkpt lat="43.65199" lon="3.8257">
        <ele>161.4</ele>
        <time>2017-05-10T11:08:08Z</time>
      </trkpt>
      <trkpt lat="43.65194" lon="3.82561">
        <ele>161.8</ele>
        <time>2017-05-10T11:08:10Z</time>
      </trkpt>
      <trkpt lat="43.65183" lon="3.82546">
        <ele>162.3</ele>
        <time>2017-05-10T11:08:15Z</time>
      </trkpt>
      <trkpt lat="43.65177" lon="3.82537">
        <ele>162.8</ele>
        <time>2017-05-10T11:08:18Z</time>
      </trkpt>
      <trkpt lat="43.65171" lon="3.8253">
        <ele>163.3</ele>
        <time>2017-05-10T11:08:20Z</time>
      </trkpt>
      <trkpt lat="43.65164" lon="3.82523">
        <ele>163.6</ele>
        <time>2017-05-10T11:08:23Z</time>
      </trkpt>
      <trkpt lat="43.65158" lon="3.82516">
        <ele>163.9</ele>
        <time>2017-05-10T11:08:26Z</time>
      </trkpt>
      <trkpt lat="43.65151" lon="3.82507">
        <ele>164.4</ele>
        <time>2017-05-10T11:08:30Z</time>
      </trkpt>
      <trkpt lat="43.65146" lon="3.82498">
        <ele>165.1</ele>
        <time>2017-05-10T11:08:34Z</time>
      </trkpt>
      <trkpt lat="43.65146" lon="3.82487">
        <ele>165.8</ele>
        <time>2017-05-10T11:08:37Z</time>
      </trkpt>
      <trkpt lat="43.65151" lon="3.82474">
        <ele>166.5</ele>
        <time>2017-05-10T11:08:40Z</time>
      </trkpt>
      <trkpt lat="43.65154" lon="3.82464">
        <ele>167.2</ele>
        <time>2017-05-10T11:08:43Z</time>
      </trkpt>
      <trkpt lat="43.65155" lon="3.82453">
        <ele>167.8</ele>
        <time>2017-05-10T11:08:46Z</time>
      </trkpt>
      <trkpt lat="43.65155" lon="3.82442">
        <ele>168.1</ele>
        <time>2017-05-10T11:08:49Z</time>
      </trkpt>
      <trkpt lat="43.65155" lon="3.82431">
        <ele>168.3</ele>
        <time>2017-05-10T11:08:52Z</time>
      </trkpt>
      <trkpt lat="43.65152" lon="3.82419">
        <ele>168.5</ele>
        <time>2017-05-10T11:08:56Z</time>
      </trkpt>
      <trkpt lat="43.65145" lon="3.82409">
        <ele>168.7</ele>
        <time>2017-05-10T11:09:00Z</time>
      </trkpt>
      <trkpt lat="43.65141" lon="3.82401">
        <ele>169.1</ele>
        <time>2017-05-10T11:09:03Z</time>
      </trkpt>
      <trkpt lat="43.65137" lon="3.82391">
        <ele>169.4</ele>
        <time>2017-05-10T11:09:06Z</time>
      </trkpt>
      <trkpt lat="43.65131" lon="3.82378">
        <ele>169.6</ele>
        <time>2017-05-10T11:09:09Z</time>
      </trkpt>
      <trkpt lat="43.65124" lon="3.82369">
        <ele>169.6</ele>
        <time>2017-05-10T11:09:12Z</time>
      </trkpt>
      <trkpt lat="43.65117" lon="3.82363">
        <ele>169.6</ele>
        <time>2017-05-10T11:09:15Z</time>
      </trkpt>
      <trkpt lat="43.65108" lon="3.82356">
        <ele>169.5</ele>
        <time>2017-05-10T11:09:18Z</time>
      </trkpt>
      <trkpt lat="43.65099" lon="3.82354">
        <ele>168.4</ele>
        <time>2017-05-10T11:09:20Z</time>
      </trkpt>
      <trkpt lat="43.65092" lon="3.82354">
        <ele>167.8</ele>
        <time>2017-05-10T11:09:22Z</time>
      </trkpt>
      <trkpt lat="43.6509" lon="3.82342">
        <ele>167.8</ele>
        <time>2017-05-10T11:09:26Z</time>
      </trkpt>
      <trkpt lat="43.6509" lon="3.82331">
        <ele>167.7</ele>
        <time>2017-05-10T11:09:28Z</time>
      </trkpt>
      <trkpt lat="43.6509" lon="3.82317">
        <ele>167</ele>
        <time>2017-05-10T11:09:30Z</time>
      </trkpt>
      <trkpt lat="43.65088" lon="3.82303">
        <ele>167</ele>
        <time>2017-05-10T11:09:33Z</time>
      </trkpt>
      <trkpt lat="43.65092" lon="3.82291">
        <ele>166.6</ele>
        <time>2017-05-10T11:09:37Z</time>
      </trkpt>
      <trkpt lat="43.65096" lon="3.82281">
        <ele>164.8</ele>
        <time>2017-05-10T11:09:39Z</time>
      </trkpt>
      <trkpt lat="43.65099" lon="3.8227">
        <ele>162.5</ele>
        <time>2017-05-10T11:09:41Z</time>
      </trkpt>
      <trkpt lat="43.65101" lon="3.82259">
        <ele>160.3</ele>
        <time>2017-05-10T11:09:43Z</time>
      </trkpt>
      <trkpt lat="43.65097" lon="3.8225">
        <ele>159.5</ele>
        <time>2017-05-10T11:09:47Z</time>
      </trkpt>
      <trkpt lat="43.65087" lon="3.8225">
        <ele>158.7</ele>
        <time>2017-05-10T11:09:50Z</time>
      </trkpt>
      <trkpt lat="43.65075" lon="3.82244">
        <ele>152.7</ele>
        <time>2017-05-10T11:09:53Z</time>
      </trkpt>
      <trkpt lat="43.65061" lon="3.82243">
        <ele>147.2</ele>
        <time>2017-05-10T11:09:55Z</time>
      </trkpt>
      <trkpt lat="43.65052" lon="3.82248">
        <ele>144.5</ele>
        <time>2017-05-10T11:09:57Z</time>
      </trkpt>
      <trkpt lat="43.65042" lon="3.82251">
        <ele>143</ele>
        <time>2017-05-10T11:10:00Z</time>
      </trkpt>
      <trkpt lat="43.65035" lon="3.82248">
        <ele>143</ele>
        <time>2017-05-10T11:10:03Z</time>
      </trkpt>
      <trkpt lat="43.65025" lon="3.82249">
        <ele>143.1</ele>
        <time>2017-05-10T11:10:07Z</time>
      </trkpt>
      <trkpt lat="43.65015" lon="3.82248">
        <ele>143.1</ele>
        <time>2017-05-10T11:10:11Z</time>
      </trkpt>
      <trkpt lat="43.6501" lon="3.82239">
        <ele>142.5</ele>
        <time>2017-05-10T11:10:14Z</time>
      </trkpt>
      <trkpt lat="43.65005" lon="3.8223">
        <ele>142.6</ele>
        <time>2017-05-10T11:10:16Z</time>
      </trkpt>
      <trkpt lat="43.65" lon="3.82221">
        <ele>142.3</ele>
        <time>2017-05-10T11:10:18Z</time>
      </trkpt>
      <trkpt lat="43.64989" lon="3.82212">
        <ele>142.3</ele>
        <time>2017-05-10T11:10:20Z</time>
      </trkpt>
      <trkpt lat="43.64982" lon="3.82206">
        <ele>141.6</ele>
        <time>2017-05-10T11:10:22Z</time>
      </trkpt>
      <trkpt lat="43.64976" lon="3.82193">
        <ele>141.2</ele>
        <time>2017-05-10T11:10:24Z</time>
      </trkpt>
      <trkpt lat="43.64969" lon="3.82186">
        <ele>141</ele>
        <time>2017-05-10T11:10:26Z</time>
      </trkpt>
      <trkpt lat="43.64967" lon="3.82197">
        <ele>139.8</ele>
        <time>2017-05-10T11:10:33Z</time>
      </trkpt>
      <trkpt lat="43.64964" lon="3.82207">
        <ele>139.5</ele>
        <time>2017-05-10T11:10:36Z</time>
      </trkpt>
      <trkpt lat="43.64961" lon="3.82218">
        <ele>138.9</ele>
        <time>2017-05-10T11:10:39Z</time>
      </trkpt>
      <trkpt lat="43.64955" lon="3.82227">
        <ele>138.5</ele>
        <time>2017-05-10T11:10:42Z</time>
      </trkpt>
      <trkpt lat="43.64948" lon="3.82235">
        <ele>138.3</ele>
        <time>2017-05-10T11:10:45Z</time>
      </trkpt>
      <trkpt lat="43.64942" lon="3.82243">
        <ele>138.2</ele>
        <time>2017-05-10T11:10:47Z</time>
      </trkpt>
      <trkpt lat="43.6494" lon="3.82256">
        <ele>138.1</ele>
        <time>2017-05-10T11:10:50Z</time>
      </trkpt>
      <trkpt lat="43.64941" lon="3.82269">
        <ele>138.1</ele>
        <time>2017-05-10T11:10:54Z</time>
      </trkpt>
      <trkpt lat="43.64939" lon="3.8228">
        <ele>138.1</ele>
        <time>2017-05-10T11:10:59Z</time>
      </trkpt>
      <trkpt lat="43.64934" lon="3.82288">
        <ele>137.9</ele>
        <time>2017-05-10T11:11:03Z</time>
      </trkpt>
      <trkpt lat="43.64928" lon="3.82297">
        <ele>137.8</ele>
        <time>2017-05-10T11:11:06Z</time>
      </trkpt>
      <trkpt lat="43.64924" lon="3.82307">
        <ele>137.6</ele>
        <time>2017-05-10T11:11:09Z</time>
      </trkpt>
      <trkpt lat="43.64922" lon="3.82317">
        <ele>137.6</ele>
        <time>2017-05-10T11:11:11Z</time>
      </trkpt>
      <trkpt lat="43.6492" lon="3.82327">
        <ele>137.5</ele>
        <time>2017-05-10T11:11:15Z</time>
      </trkpt>
      <trkpt lat="43.64921" lon="3.82339">
        <ele>137.4</ele>
        <time>2017-05-10T11:11:19Z</time>
      </trkpt>
      <trkpt lat="43.6492" lon="3.82349">
        <ele>137.7</ele>
        <time>2017-05-10T11:11:23Z</time>
      </trkpt>
      <trkpt lat="43.64918" lon="3.82359">
        <ele>138.4</ele>
        <time>2017-05-10T11:11:29Z</time>
      </trkpt>
      <trkpt lat="43.64918" lon="3.8237">
        <ele>138.9</ele>
        <time>2017-05-10T11:11:33Z</time>
      </trkpt>
      <trkpt lat="43.64921" lon="3.8238">
        <ele>139.7</ele>
        <time>2017-05-10T11:11:38Z</time>
      </trkpt>
      <trkpt lat="43.64925" lon="3.82389">
        <ele>140.2</ele>
        <time>2017-05-10T11:11:42Z</time>
      </trkpt>
      <trkpt lat="43.64928" lon="3.824">
        <ele>140.8</ele>
        <time>2017-05-10T11:11:46Z</time>
      </trkpt>
      <trkpt lat="43.64929" lon="3.8241">
        <ele>141.1</ele>
        <time>2017-05-10T11:11:50Z</time>
      </trkpt>
      <trkpt lat="43.64932" lon="3.82422">
        <ele>141.8</ele>
        <time>2017-05-10T11:11:56Z</time>
      </trkpt>
      <trkpt lat="43.64936" lon="3.82431">
        <ele>142.7</ele>
        <time>2017-05-10T11:12:01Z</time>
      </trkpt>
      <trkpt lat="43.64938" lon="3.82439">
        <ele>144.4</ele>
        <time>2017-05-10T11:12:08Z</time>
      </trkpt>
      <trkpt lat="43.64939" lon="3.82445">
        <ele>146.1</ele>
        <time>2017-05-10T11:12:15Z</time>
      </trkpt>
      <trkpt lat="43.64929" lon="3.82455">
        <ele>149</ele>
        <time>2017-05-10T11:12:29Z</time>
      </trkpt>
      <trkpt lat="43.64921" lon="3.8246">
        <ele>149.6</ele>
        <time>2017-05-10T11:12:33Z</time>
      </trkpt>
      <trkpt lat="43.64913" lon="3.8246">
        <ele>150.2</ele>
        <time>2017-05-10T11:12:36Z</time>
      </trkpt>
      <trkpt lat="43.64903" lon="3.8246">
        <ele>150.9</ele>
        <time>2017-05-10T11:12:39Z</time>
      </trkpt>
      <trkpt lat="43.64893" lon="3.8246">
        <ele>151.5</ele>
        <time>2017-05-10T11:12:42Z</time>
      </trkpt>
      <trkpt lat="43.64884" lon="3.8246">
        <ele>153.8</ele>
        <time>2017-05-10T11:12:44Z</time>
      </trkpt>
      <trkpt lat="43.64876" lon="3.82461">
        <ele>155.5</ele>
        <time>2017-05-10T11:12:46Z</time>
      </trkpt>
      <trkpt lat="43.64866" lon="3.82464">
        <ele>157</ele>
        <time>2017-05-10T11:12:48Z</time>
      </trkpt>
      <trkpt lat="43.64858" lon="3.82463">
        <ele>157.5</ele>
        <time>2017-05-10T11:12:50Z</time>
      </trkpt>
      <trkpt lat="43.64848" lon="3.8246">
        <ele>157.8</ele>
        <time>2017-05-10T11:12:52Z</time>
      </trkpt>
      <trkpt lat="43.64836" lon="3.82456">
        <ele>157.3</ele>
        <time>2017-05-10T11:12:54Z</time>
      </trkpt>
      <trkpt lat="43.64826" lon="3.82451">
        <ele>155.8</ele>
        <time>2017-05-10T11:12:56Z</time>
      </trkpt>
      <trkpt lat="43.64816" lon="3.82444">
        <ele>155.9</ele>
        <time>2017-05-10T11:12:58Z</time>
      </trkpt>
      <trkpt lat="43.64806" lon="3.82438">
        <ele>155.6</ele>
        <time>2017-05-10T11:13:00Z</time>
      </trkpt>
      <trkpt lat="43.64795" lon="3.82433">
        <ele>154.8</ele>
        <time>2017-05-10T11:13:02Z</time>
      </trkpt>
      <trkpt lat="43.64782" lon="3.82428">
        <ele>154.5</ele>
        <time>2017-05-10T11:13:04Z</time>
      </trkpt>
      <trkpt lat="43.64769" lon="3.82429">
        <ele>154.1</ele>
        <time>2017-05-10T11:13:06Z</time>
      </trkpt>
      <trkpt lat="43.64757" lon="3.82431">
        <ele>153.5</ele>
        <time>2017-05-10T11:13:08Z</time>
      </trkpt>
      <trkpt lat="43.64746" lon="3.8243">
        <ele>153.7</ele>
        <time>2017-05-10T11:13:10Z</time>
      </trkpt>
      <trkpt lat="43.64734" lon="3.82429">
        <ele>153.6</ele>
        <time>2017-05-10T11:13:12Z</time>
      </trkpt>
      <trkpt lat="43.64722" lon="3.82427">
        <ele>154.1</ele>
        <time>2017-05-10T11:13:14Z</time>
      </trkpt>
      <trkpt lat="43.64709" lon="3.82422">
        <ele>153.9</ele>
        <time>2017-05-10T11:13:16Z</time>
      </trkpt>
      <trkpt lat="43.64699" lon="3.82416">
        <ele>152.3</ele>
        <time>2017-05-10T11:13:18Z</time>
      </trkpt>
      <trkpt lat="43.64688" lon="3.82408">
        <ele>151.5</ele>
        <time>2017-05-10T11:13:20Z</time>
      </trkpt>
      <trkpt lat="43.64675" lon="3.824">
        <ele>150.2</ele>
        <time>2017-05-10T11:13:22Z</time>
      </trkpt>
      <trkpt lat="43.64663" lon="3.8239">
        <ele>149.2</ele>
        <time>2017-05-10T11:13:24Z</time>
      </trkpt>
      <trkpt lat="43.6465" lon="3.82381">
        <ele>147.7</ele>
        <time>2017-05-10T11:13:26Z</time>
      </trkpt>
      <trkpt lat="43.64643" lon="3.82377">
        <ele>147</ele>
        <time>2017-05-10T11:13:27Z</time>
      </trkpt>
      <trkpt lat="43.64636" lon="3.82372">
        <ele>146.7</ele>
        <time>2017-05-10T11:13:28Z</time>
      </trkpt>
      <trkpt lat="43.64624" lon="3.82364">
        <ele>146.7</ele>
        <time>2017-05-10T11:13:30Z</time>
      </trkpt>
      <trkpt lat="43.64612" lon="3.82355">
        <ele>147</ele>
        <time>2017-05-10T11:13:32Z</time>
      </trkpt>
      <trkpt lat="43.646" lon="3.82346">
        <ele>146.5</ele>
        <time>2017-05-10T11:13:34Z</time>
      </trkpt>
      <trkpt lat="43.64588" lon="3.82336">
        <ele>145.8</ele>
        <time>2017-05-10T11:13:36Z</time>
      </trkpt>
      <trkpt lat="43.64577" lon="3.82327">
        <ele>144.7</ele>
        <time>2017-05-10T11:13:38Z</time>
      </trkpt>
      <trkpt lat="43.64567" lon="3.82318">
        <ele>145.4</ele>
        <time>2017-05-10T11:13:40Z</time>
      </trkpt>
      <trkpt lat="43.64556" lon="3.82314">
        <ele>145.1</ele>
        <time>2017-05-10T11:13:43Z</time>
      </trkpt>
      <trkpt lat="43.64545" lon="3.82311">
        <ele>145.8</ele>
        <time>2017-05-10T11:13:44Z</time>
      </trkpt>
      <trkpt lat="43.64535" lon="3.82309">
        <ele>147.4</ele>
        <time>2017-05-10T11:13:46Z</time>
      </trkpt>
      <trkpt lat="43.64522" lon="3.82306">
        <ele>147.6</ele>
        <time>2017-05-10T11:13:48Z</time>
      </trkpt>
      <trkpt lat="43.64511" lon="3.82303">
        <ele>145.7</ele>
        <time>2017-05-10T11:13:50Z</time>
      </trkpt>
      <trkpt lat="43.64501" lon="3.82294">
        <ele>144.4</ele>
        <time>2017-05-10T11:13:52Z</time>
      </trkpt>
      <trkpt lat="43.64492" lon="3.82288">
        <ele>143.3</ele>
        <time>2017-05-10T11:13:54Z</time>
      </trkpt>
      <trkpt lat="43.64479" lon="3.82288">
        <ele>142.1</ele>
        <time>2017-05-10T11:13:56Z</time>
      </trkpt>
      <trkpt lat="43.64471" lon="3.82294">
        <ele>142.8</ele>
        <time>2017-05-10T11:13:58Z</time>
      </trkpt>
      <trkpt lat="43.64464" lon="3.82286">
        <ele>143.3</ele>
        <time>2017-05-10T11:14:00Z</time>
      </trkpt>
      <trkpt lat="43.64459" lon="3.82277">
        <ele>143.1</ele>
        <time>2017-05-10T11:14:02Z</time>
      </trkpt>
      <trkpt lat="43.6445" lon="3.82273">
        <ele>143.1</ele>
        <time>2017-05-10T11:14:06Z</time>
      </trkpt>
      <trkpt lat="43.64443" lon="3.82267">
        <ele>143.3</ele>
        <time>2017-05-10T11:14:08Z</time>
      </trkpt>
      <trkpt lat="43.64436" lon="3.8226">
        <ele>144.7</ele>
        <time>2017-05-10T11:14:10Z</time>
      </trkpt>
      <trkpt lat="43.64429" lon="3.82254">
        <ele>144.7</ele>
        <time>2017-05-10T11:14:12Z</time>
      </trkpt>
      <trkpt lat="43.64424" lon="3.82245">
        <ele>145.5</ele>
        <time>2017-05-10T11:14:14Z</time>
      </trkpt>
      <trkpt lat="43.64418" lon="3.82236">
        <ele>145.6</ele>
        <time>2017-05-10T11:14:16Z</time>
      </trkpt>
      <trkpt lat="43.64409" lon="3.82242">
        <ele>144.9</ele>
        <time>2017-05-10T11:14:19Z</time>
      </trkpt>
      <trkpt lat="43.64401" lon="3.82249">
        <ele>144.8</ele>
        <time>2017-05-10T11:14:22Z</time>
      </trkpt>
      <trkpt lat="43.64393" lon="3.82253">
        <ele>144.7</ele>
        <time>2017-05-10T11:14:24Z</time>
      </trkpt>
      <trkpt lat="43.64385" lon="3.82257">
        <ele>144.7</ele>
        <time>2017-05-10T11:14:26Z</time>
      </trkpt>
      <trkpt lat="43.64378" lon="3.82259">
        <ele>144.8</ele>
        <time>2017-05-10T11:14:28Z</time>
      </trkpt>
      <trkpt lat="43.64371" lon="3.82263">
        <ele>144.7</ele>
        <time>2017-05-10T11:14:30Z</time>
      </trkpt>
      <trkpt lat="43.64366" lon="3.82272">
        <ele>144.2</ele>
        <time>2017-05-10T11:14:32Z</time>
      </trkpt>
      <trkpt lat="43.64357" lon="3.82274">
        <ele>144.4</ele>
        <time>2017-05-10T11:14:35Z</time>
      </trkpt>
      <trkpt lat="43.64351" lon="3.82283">
        <ele>144.8</ele>
        <time>2017-05-10T11:14:41Z</time>
      </trkpt>
      <trkpt lat="43.64343" lon="3.8229">
        <ele>144.9</ele>
        <time>2017-05-10T11:14:44Z</time>
      </trkpt>
      <trkpt lat="43.64336" lon="3.82292">
        <ele>145.1</ele>
        <time>2017-05-10T11:14:46Z</time>
      </trkpt>
      <trkpt lat="43.64328" lon="3.82293">
        <ele>145.2</ele>
        <time>2017-05-10T11:14:48Z</time>
      </trkpt>
      <trkpt lat="43.64321" lon="3.82296">
        <ele>145.2</ele>
        <time>2017-05-10T11:14:50Z</time>
      </trkpt>
      <trkpt lat="43.64311" lon="3.82297">
        <ele>145.9</ele>
        <time>2017-05-10T11:14:52Z</time>
      </trkpt>
      <trkpt lat="43.64304" lon="3.82295">
        <ele>146.8</ele>
        <time>2017-05-10T11:14:54Z</time>
      </trkpt>
      <trkpt lat="43.64297" lon="3.82305">
        <ele>148.5</ele>
        <time>2017-05-10T11:14:57Z</time>
      </trkpt>
      <trkpt lat="43.64289" lon="3.8231">
        <ele>149.1</ele>
        <time>2017-05-10T11:14:59Z</time>
      </trkpt>
      <trkpt lat="43.6428" lon="3.8231">
        <ele>149.1</ele>
        <time>2017-05-10T11:15:01Z</time>
      </trkpt>
      <trkpt lat="43.64273" lon="3.82304">
        <ele>148.3</ele>
        <time>2017-05-10T11:15:03Z</time>
      </trkpt>
      <trkpt lat="43.64264" lon="3.82302">
        <ele>147.5</ele>
        <time>2017-05-10T11:15:05Z</time>
      </trkpt>
      <trkpt lat="43.64254" lon="3.823">
        <ele>147.3</ele>
        <time>2017-05-10T11:15:07Z</time>
      </trkpt>
      <trkpt lat="43.64247" lon="3.82301">
        <ele>147.3</ele>
        <time>2017-05-10T11:15:09Z</time>
      </trkpt>
      <trkpt lat="43.64239" lon="3.82301">
        <ele>147.1</ele>
        <time>2017-05-10T11:15:12Z</time>
      </trkpt>
      <trkpt lat="43.6423" lon="3.82304">
        <ele>147.2</ele>
        <time>2017-05-10T11:15:15Z</time>
      </trkpt>
      <trkpt lat="43.64221" lon="3.82308">
        <ele>147.2</ele>
        <time>2017-05-10T11:15:18Z</time>
      </trkpt>
      <trkpt lat="43.64214" lon="3.82312">
        <ele>148.2</ele>
        <time>2017-05-10T11:15:20Z</time>
      </trkpt>
      <trkpt lat="43.64206" lon="3.82315">
        <ele>148.4</ele>
        <time>2017-05-10T11:15:22Z</time>
      </trkpt>
      <trkpt lat="43.64199" lon="3.82323">
        <ele>148.6</ele>
        <time>2017-05-10T11:15:24Z</time>
      </trkpt>
      <trkpt lat="43.64193" lon="3.82329">
        <ele>148.7</ele>
        <time>2017-05-10T11:15:26Z</time>
      </trkpt>
      <trkpt lat="43.64188" lon="3.82339">
        <ele>148.9</ele>
        <time>2017-05-10T11:15:28Z</time>
      </trkpt>
      <trkpt lat="43.64188" lon="3.82351">
        <ele>149.2</ele>
        <time>2017-05-10T11:15:31Z</time>
      </trkpt>
      <trkpt lat="43.64188" lon="3.82364">
        <ele>149.4</ele>
        <time>2017-05-10T11:15:34Z</time>
      </trkpt>
      <trkpt lat="43.64182" lon="3.82371">
        <ele>149.5</ele>
        <time>2017-05-10T11:15:37Z</time>
      </trkpt>
      <trkpt lat="43.64174" lon="3.82375">
        <ele>149.4</ele>
        <time>2017-05-10T11:15:39Z</time>
      </trkpt>
      <trkpt lat="43.64168" lon="3.82385">
        <ele>149.2</ele>
        <time>2017-05-10T11:15:41Z</time>
      </trkpt>
      <trkpt lat="43.64164" lon="3.82395">
        <ele>149</ele>
        <time>2017-05-10T11:15:43Z</time>
      </trkpt>
      <trkpt lat="43.64158" lon="3.82407">
        <ele>147.4</ele>
        <time>2017-05-10T11:15:45Z</time>
      </trkpt>
      <trkpt lat="43.64153" lon="3.8242">
        <ele>146.1</ele>
        <time>2017-05-10T11:15:47Z</time>
      </trkpt>
      <trkpt lat="43.64151" lon="3.82432">
        <ele>145.6</ele>
        <time>2017-05-10T11:15:49Z</time>
      </trkpt>
      <trkpt lat="43.64146" lon="3.82441">
        <ele>145.4</ele>
        <time>2017-05-10T11:15:52Z</time>
      </trkpt>
      <trkpt lat="43.64144" lon="3.82452">
        <ele>145.3</ele>
        <time>2017-05-10T11:15:54Z</time>
      </trkpt>
      <trkpt lat="43.6414" lon="3.82463">
        <ele>144.9</ele>
        <time>2017-05-10T11:15:56Z</time>
      </trkpt>
      <trkpt lat="43.64136" lon="3.82474">
        <ele>144.2</ele>
        <time>2017-05-10T11:15:58Z</time>
      </trkpt>
      <trkpt lat="43.64133" lon="3.82486">
        <ele>144.1</ele>
        <time>2017-05-10T11:16:00Z</time>
      </trkpt>
      <trkpt lat="43.64126" lon="3.825">
        <ele>143.4</ele>
        <time>2017-05-10T11:16:02Z</time>
      </trkpt>
      <trkpt lat="43.64121" lon="3.82511">
        <ele>142.5</ele>
        <time>2017-05-10T11:16:04Z</time>
      </trkpt>
      <trkpt lat="43.64116" lon="3.82525">
        <ele>142.1</ele>
        <time>2017-05-10T11:16:06Z</time>
      </trkpt>
      <trkpt lat="43.64115" lon="3.82535">
        <ele>142.5</ele>
        <time>2017-05-10T11:16:07Z</time>
      </trkpt>
      <trkpt lat="43.64112" lon="3.82546">
        <ele>142.4</ele>
        <time>2017-05-10T11:16:08Z</time>
      </trkpt>
      <trkpt lat="43.64109" lon="3.82557">
        <ele>141.9</ele>
        <time>2017-05-10T11:16:09Z</time>
      </trkpt>
      <trkpt lat="43.64107" lon="3.82567">
        <ele>141.6</ele>
        <time>2017-05-10T11:16:10Z</time>
      </trkpt>
      <trkpt lat="43.64103" lon="3.82576">
        <ele>142.5</ele>
        <time>2017-05-10T11:16:11Z</time>
      </trkpt>
      <trkpt lat="43.64097" lon="3.82593">
        <ele>143</ele>
        <time>2017-05-10T11:16:13Z</time>
      </trkpt>
      <trkpt lat="43.64093" lon="3.82602">
        <ele>143.1</ele>
        <time>2017-05-10T11:16:14Z</time>
      </trkpt>
      <trkpt lat="43.6409" lon="3.82611">
        <ele>142.8</ele>
        <time>2017-05-10T11:16:15Z</time>
      </trkpt>
      <trkpt lat="43.64086" lon="3.82621">
        <ele>142.1</ele>
        <time>2017-05-10T11:16:16Z</time>
      </trkpt>
      <trkpt lat="43.64085" lon="3.82632">
        <ele>140.6</ele>
        <time>2017-05-10T11:16:17Z</time>
      </trkpt>
      <trkpt lat="43.64082" lon="3.8265">
        <ele>137.6</ele>
        <time>2017-05-10T11:16:19Z</time>
      </trkpt>
      <trkpt lat="43.64077" lon="3.8266">
        <ele>135.7</ele>
        <time>2017-05-10T11:16:20Z</time>
      </trkpt>
      <trkpt lat="43.64072" lon="3.8267">
        <ele>135.4</ele>
        <time>2017-05-10T11:16:21Z</time>
      </trkpt>
      <trkpt lat="43.64067" lon="3.82682">
        <ele>135.5</ele>
        <time>2017-05-10T11:16:22Z</time>
      </trkpt>
      <trkpt lat="43.64064" lon="3.82693">
        <ele>135.2</ele>
        <time>2017-05-10T11:16:23Z</time>
      </trkpt>
      <trkpt lat="43.64062" lon="3.82704">
        <ele>134.2</ele>
        <time>2017-05-10T11:16:24Z</time>
      </trkpt>
      <trkpt lat="43.64056" lon="3.82714">
        <ele>133.6</ele>
        <time>2017-05-10T11:16:25Z</time>
      </trkpt>
      <trkpt lat="43.6405" lon="3.82723">
        <ele>133.3</ele>
        <time>2017-05-10T11:16:26Z</time>
      </trkpt>
      <trkpt lat="43.64046" lon="3.82732">
        <ele>133.1</ele>
        <time>2017-05-10T11:16:27Z</time>
      </trkpt>
      <trkpt lat="43.64041" lon="3.82741">
        <ele>133.2</ele>
        <time>2017-05-10T11:16:28Z</time>
      </trkpt>
      <trkpt lat="43.64036" lon="3.8275">
        <ele>133.2</ele>
        <time>2017-05-10T11:16:29Z</time>
      </trkpt>
      <trkpt lat="43.64031" lon="3.82759">
        <ele>132.7</ele>
        <time>2017-05-10T11:16:30Z</time>
      </trkpt>
      <trkpt lat="43.64026" lon="3.82767">
        <ele>131.7</ele>
        <time>2017-05-10T11:16:31Z</time>
      </trkpt>
      <trkpt lat="43.64019" lon="3.82784">
        <ele>132.7</ele>
        <time>2017-05-10T11:16:33Z</time>
      </trkpt>
      <trkpt lat="43.64009" lon="3.82797">
        <ele>133.3</ele>
        <time>2017-05-10T11:16:35Z</time>
      </trkpt>
      <trkpt lat="43.63997" lon="3.82799">
        <ele>134.1</ele>
        <time>2017-05-10T11:16:37Z</time>
      </trkpt>
      <trkpt lat="43.63985" lon="3.82801">
        <ele>132.7</ele>
        <time>2017-05-10T11:16:39Z</time>
      </trkpt>
      <trkpt lat="43.63973" lon="3.82806">
        <ele>131.9</ele>
        <time>2017-05-10T11:16:41Z</time>
      </trkpt>
      <trkpt lat="43.63963" lon="3.82814">
        <ele>130.3</ele>
        <time>2017-05-10T11:16:43Z</time>
      </trkpt>
      <trkpt lat="43.63955" lon="3.82821">
        <ele>127.5</ele>
        <time>2017-05-10T11:16:45Z</time>
      </trkpt>
      <trkpt lat="43.63948" lon="3.82824">
        <ele>126.7</ele>
        <time>2017-05-10T11:16:47Z</time>
      </trkpt>
      <trkpt lat="43.63944" lon="3.82825">
        <ele>126.2</ele>
        <time>2017-05-10T11:16:54Z</time>
      </trkpt>
      <trkpt lat="43.63936" lon="3.82826">
        <ele>126</ele>
        <time>2017-05-10T11:17:04Z</time>
      </trkpt>
      <trkpt lat="43.63928" lon="3.8283">
        <ele>126.7</ele>
        <time>2017-05-10T11:17:07Z</time>
      </trkpt>
      <trkpt lat="43.63919" lon="3.82827">
        <ele>126.3</ele>
        <time>2017-05-10T11:17:09Z</time>
      </trkpt>
      <trkpt lat="43.63909" lon="3.82818">
        <ele>125.9</ele>
        <time>2017-05-10T11:17:12Z</time>
      </trkpt>
      <trkpt lat="43.63901" lon="3.82814">
        <ele>125.4</ele>
        <time>2017-05-10T11:17:14Z</time>
      </trkpt>
      <trkpt lat="43.63893" lon="3.82811">
        <ele>125.4</ele>
        <time>2017-05-10T11:17:16Z</time>
      </trkpt>
      <trkpt lat="43.63886" lon="3.82802">
        <ele>125.4</ele>
        <time>2017-05-10T11:17:18Z</time>
      </trkpt>
      <trkpt lat="43.63878" lon="3.82789">
        <ele>126.5</ele>
        <time>2017-05-10T11:17:20Z</time>
      </trkpt>
      <trkpt lat="43.6387" lon="3.82787">
        <ele>125.6</ele>
        <time>2017-05-10T11:17:22Z</time>
      </trkpt>
      <trkpt lat="43.63861" lon="3.82795">
        <ele>125.6</ele>
        <time>2017-05-10T11:17:24Z</time>
      </trkpt>
      <trkpt lat="43.63853" lon="3.82803">
        <ele>124.3</ele>
        <time>2017-05-10T11:17:26Z</time>
      </trkpt>
      <trkpt lat="43.63843" lon="3.8281">
        <ele>122.7</ele>
        <time>2017-05-10T11:17:28Z</time>
      </trkpt>
      <trkpt lat="43.63832" lon="3.82809">
        <ele>122.2</ele>
        <time>2017-05-10T11:17:30Z</time>
      </trkpt>
      <trkpt lat="43.63821" lon="3.82809">
        <ele>124.1</ele>
        <time>2017-05-10T11:17:32Z</time>
      </trkpt>
      <trkpt lat="43.63811" lon="3.82812">
        <ele>125.2</ele>
        <time>2017-05-10T11:17:34Z</time>
      </trkpt>
      <trkpt lat="43.63801" lon="3.82816">
        <ele>125.1</ele>
        <time>2017-05-10T11:17:36Z</time>
      </trkpt>
      <trkpt lat="43.6379" lon="3.8282">
        <ele>125</ele>
        <time>2017-05-10T11:17:39Z</time>
      </trkpt>
      <trkpt lat="43.63781" lon="3.82823">
        <ele>124.8</ele>
        <time>2017-05-10T11:17:41Z</time>
      </trkpt>
      <trkpt lat="43.63773" lon="3.82829">
        <ele>124.9</ele>
        <time>2017-05-10T11:17:43Z</time>
      </trkpt>
      <trkpt lat="43.63777" lon="3.82843">
        <ele>125.6</ele>
        <time>2017-05-10T11:17:46Z</time>
      </trkpt>
      <trkpt lat="43.63782" lon="3.82854">
        <ele>124.9</ele>
        <time>2017-05-10T11:17:48Z</time>
      </trkpt>
      <trkpt lat="43.63774" lon="3.82851">
        <ele>124.8</ele>
        <time>2017-05-10T11:17:52Z</time>
      </trkpt>
      <trkpt lat="43.63767" lon="3.82854">
        <ele>124.7</ele>
        <time>2017-05-10T11:17:59Z</time>
      </trkpt>
    </trkseg>
  </trk>
</gpx>